<?xml version="1.0" encoding="UTF-8" standalone="no" ?>
<gpx xmlns="http://www.topografix.com/GPX/1/1" xmlns:xsi="http://www.w3.org/2001/XMLSchema-instance" xsi:schemaLocation="http://www.topografix.com/GPX/1/1 http://www.topografix.com/GPX/1/1/gpx.xsd" version="1.1" creator="VisuGPX - https://www.visugpx.com">
  <metadata>
    <name>Tour du Mont Gros</name>
    <desc><![CDATA[Beau point de vue sur Monaco Est
rando facile]]></desc>
  </metadata>
  <trk>
    <name><![CDATA[Tour du Mont Gros_1]]></name>
    <trkseg>
      <trkpt lat="43.775" lon="7.44648">
        <ele>461.5</ele>
        <time>2013-03-12T14:03:55Z</time>
      </trkpt>
      <trkpt lat="43.77499" lon="7.44647">
        <ele>461.5</ele>
        <time>2013-03-12T14:04:00Z</time>
      </trkpt>
      <trkpt lat="43.77491" lon="7.44649">
        <ele>464.53604213511</ele>
        <time>2013-03-12T14:04:05Z</time>
      </trkpt>
      <trkpt lat="43.77486" lon="7.44649">
        <ele>464.53604213511</ele>
        <time>2013-03-12T14:04:10Z</time>
      </trkpt>
      <trkpt lat="43.77484" lon="7.44646">
        <ele>464.53604213511</ele>
        <time>2013-03-12T14:04:15Z</time>
      </trkpt>
      <trkpt lat="43.77479" lon="7.44645">
        <ele>466.1868497423</ele>
        <time>2013-03-12T14:04:20Z</time>
      </trkpt>
      <trkpt lat="43.77477" lon="7.44645">
        <ele>466.1868497423</ele>
        <time>2013-03-12T14:04:25Z</time>
      </trkpt>
      <trkpt lat="43.77471" lon="7.44644">
        <ele>466.1868497423</ele>
        <time>2013-03-12T14:04:30Z</time>
      </trkpt>
      <trkpt lat="43.77466" lon="7.44644">
        <ele>467.84995921777</ele>
        <time>2013-03-12T14:04:35Z</time>
      </trkpt>
      <trkpt lat="43.77461" lon="7.44637">
        <ele>467.84995921777</ele>
        <time>2013-03-12T14:04:40Z</time>
      </trkpt>
      <trkpt lat="43.77457" lon="7.44639">
        <ele>470.09658852904</ele>
        <time>2013-03-12T14:04:45Z</time>
      </trkpt>
      <trkpt lat="43.77454" lon="7.44638">
        <ele>470.09658852904</ele>
        <time>2013-03-12T14:04:50Z</time>
      </trkpt>
      <trkpt lat="43.77447" lon="7.44634">
        <ele>472.20439783189</ele>
        <time>2013-03-12T14:04:55Z</time>
      </trkpt>
      <trkpt lat="43.77444" lon="7.44632">
        <ele>472.20439783189</ele>
        <time>2013-03-12T14:05:00Z</time>
      </trkpt>
      <trkpt lat="43.7744" lon="7.44631">
        <ele>472.20439783189</ele>
        <time>2013-03-12T14:05:05Z</time>
      </trkpt>
      <trkpt lat="43.77435" lon="7.44626">
        <ele>474.42097543157</ele>
        <time>2013-03-12T14:05:10Z</time>
      </trkpt>
      <trkpt lat="43.77429" lon="7.44626">
        <ele>474.42097543157</ele>
        <time>2013-03-12T14:05:15Z</time>
      </trkpt>
      <trkpt lat="43.77424" lon="7.44625">
        <ele>476.57763526151</ele>
        <time>2013-03-12T14:05:20Z</time>
      </trkpt>
      <trkpt lat="43.77419" lon="7.44622">
        <ele>476.57763526151</ele>
        <time>2013-03-12T14:05:25Z</time>
      </trkpt>
      <trkpt lat="43.77414" lon="7.44617">
        <ele>478.3168838256</ele>
        <time>2013-03-12T14:05:30Z</time>
      </trkpt>
      <trkpt lat="43.7741" lon="7.44614">
        <ele>478.3168838256</ele>
        <time>2013-03-12T14:05:35Z</time>
      </trkpt>
      <trkpt lat="43.77405" lon="7.4461">
        <ele>479.51394263266</ele>
        <time>2013-03-12T14:05:40Z</time>
      </trkpt>
      <trkpt lat="43.77402" lon="7.44603">
        <ele>479.51394263266</ele>
        <time>2013-03-12T14:05:45Z</time>
      </trkpt>
      <trkpt lat="43.77398" lon="7.44597">
        <ele>480.0692420116</ele>
        <time>2013-03-12T14:05:50Z</time>
      </trkpt>
      <trkpt lat="43.77392" lon="7.44593">
        <ele>480.0692420116</ele>
        <time>2013-03-12T14:05:55Z</time>
      </trkpt>
      <trkpt lat="43.77385" lon="7.4459">
        <ele>480.80798093828</ele>
        <time>2013-03-12T14:06:00Z</time>
      </trkpt>
      <trkpt lat="43.7738" lon="7.44586">
        <ele>480.80798093828</ele>
        <time>2013-03-12T14:06:05Z</time>
      </trkpt>
      <trkpt lat="43.77375" lon="7.4458">
        <ele>481.72139446155</ele>
        <time>2013-03-12T14:06:10Z</time>
      </trkpt>
      <trkpt lat="43.77371" lon="7.4458">
        <ele>481.72139446155</ele>
        <time>2013-03-12T14:06:15Z</time>
      </trkpt>
      <trkpt lat="43.77363" lon="7.44574">
        <ele>483.29722927534</ele>
        <time>2013-03-12T14:06:20Z</time>
      </trkpt>
      <trkpt lat="43.7736" lon="7.44572">
        <ele>483.29722927534</ele>
        <time>2013-03-12T14:06:25Z</time>
      </trkpt>
      <trkpt lat="43.77357" lon="7.44572">
        <ele>483.29722927534</ele>
        <time>2013-03-12T14:06:30Z</time>
      </trkpt>
      <trkpt lat="43.77353" lon="7.44567">
        <ele>484.19536737435</ele>
        <time>2013-03-12T14:06:35Z</time>
      </trkpt>
      <trkpt lat="43.7735" lon="7.44563">
        <ele>484.19536737435</ele>
        <time>2013-03-12T14:06:40Z</time>
      </trkpt>
      <trkpt lat="43.77348" lon="7.4456">
        <ele>484.19536737435</ele>
        <time>2013-03-12T14:06:45Z</time>
      </trkpt>
      <trkpt lat="43.77345" lon="7.44558">
        <ele>484.74703348301</ele>
        <time>2013-03-12T14:06:50Z</time>
      </trkpt>
      <trkpt lat="43.77338" lon="7.44559">
        <ele>484.74703348301</ele>
        <time>2013-03-12T14:06:55Z</time>
      </trkpt>
      <trkpt lat="43.77332" lon="7.44557">
        <ele>485.25605497047</ele>
        <time>2013-03-12T14:07:00Z</time>
      </trkpt>
      <trkpt lat="43.77331" lon="7.44554">
        <ele>485.25605497047</ele>
        <time>2013-03-12T14:07:05Z</time>
      </trkpt>
      <trkpt lat="43.7733" lon="7.44547">
        <ele>485.25605497047</ele>
        <time>2013-03-12T14:07:10Z</time>
      </trkpt>
      <trkpt lat="43.77327" lon="7.44543">
        <ele>485.87767853291</ele>
        <time>2013-03-12T14:07:15Z</time>
      </trkpt>
      <trkpt lat="43.77324" lon="7.44539">
        <ele>485.87767853291</ele>
        <time>2013-03-12T14:07:20Z</time>
      </trkpt>
      <trkpt lat="43.77319" lon="7.44534">
        <ele>486.35722681274</ele>
        <time>2013-03-12T14:07:25Z</time>
      </trkpt>
      <trkpt lat="43.77316" lon="7.44529">
        <ele>486.35722681274</ele>
        <time>2013-03-12T14:07:30Z</time>
      </trkpt>
      <trkpt lat="43.77315" lon="7.44525">
        <ele>486.35722681274</ele>
        <time>2013-03-12T14:07:35Z</time>
      </trkpt>
      <trkpt lat="43.77311" lon="7.44521">
        <ele>486.61221322019</ele>
        <time>2013-03-12T14:07:40Z</time>
      </trkpt>
      <trkpt lat="43.77309" lon="7.44516">
        <ele>486.61221322019</ele>
        <time>2013-03-12T14:07:45Z</time>
      </trkpt>
      <trkpt lat="43.77305" lon="7.44511">
        <ele>486.78937328767</ele>
        <time>2013-03-12T14:07:50Z</time>
      </trkpt>
      <trkpt lat="43.77303" lon="7.44505">
        <ele>486.78937328767</ele>
        <time>2013-03-12T14:07:55Z</time>
      </trkpt>
      <trkpt lat="43.77299" lon="7.44501">
        <ele>486.61302401749</ele>
        <time>2013-03-12T14:08:00Z</time>
      </trkpt>
      <trkpt lat="43.77297" lon="7.44501">
        <ele>486.61302401749</ele>
        <time>2013-03-12T14:08:05Z</time>
      </trkpt>
      <trkpt lat="43.77298" lon="7.445">
        <ele>486.61302401749</ele>
        <time>2013-03-12T14:08:10Z</time>
      </trkpt>
      <trkpt lat="43.77298" lon="7.445">
        <ele>486.61302401749</ele>
        <time>2013-03-12T14:08:15Z</time>
      </trkpt>
      <trkpt lat="43.77297" lon="7.445">
        <ele>486.61302401749</ele>
        <time>2013-03-12T14:08:20Z</time>
      </trkpt>
      <trkpt lat="43.77297" lon="7.445">
        <ele>486.61302401749</ele>
        <time>2013-03-12T14:08:25Z</time>
      </trkpt>
      <trkpt lat="43.77297" lon="7.445">
        <ele>486.61302401749</ele>
        <time>2013-03-12T14:08:30Z</time>
      </trkpt>
      <trkpt lat="43.77297" lon="7.445">
        <ele>486.61302401749</ele>
        <time>2013-03-12T14:08:35Z</time>
      </trkpt>
      <trkpt lat="43.77297" lon="7.445">
        <ele>486.61302401749</ele>
        <time>2013-03-12T14:08:40Z</time>
      </trkpt>
      <trkpt lat="43.77297" lon="7.445">
        <ele>486.61302401749</ele>
        <time>2013-03-12T14:08:45Z</time>
      </trkpt>
      <trkpt lat="43.77299" lon="7.44501">
        <ele>486.61302401749</ele>
        <time>2013-03-12T14:08:50Z</time>
      </trkpt>
      <trkpt lat="43.77301" lon="7.44496">
        <ele>486.16189015197</ele>
        <time>2013-03-12T14:08:55Z</time>
      </trkpt>
      <trkpt lat="43.77303" lon="7.4449">
        <ele>486.16189015197</ele>
        <time>2013-03-12T14:09:00Z</time>
      </trkpt>
      <trkpt lat="43.77304" lon="7.44486">
        <ele>486.16189015197</ele>
        <time>2013-03-12T14:09:05Z</time>
      </trkpt>
      <trkpt lat="43.77304" lon="7.44478">
        <ele>485.8629489216</ele>
        <time>2013-03-12T14:09:10Z</time>
      </trkpt>
      <trkpt lat="43.77304" lon="7.44474">
        <ele>485.8629489216</ele>
        <time>2013-03-12T14:09:15Z</time>
      </trkpt>
      <trkpt lat="43.77305" lon="7.44467">
        <ele>485.8629489216</ele>
        <time>2013-03-12T14:09:20Z</time>
      </trkpt>
      <trkpt lat="43.77303" lon="7.4446">
        <ele>485.89490837182</ele>
        <time>2013-03-12T14:09:25Z</time>
      </trkpt>
      <trkpt lat="43.77302" lon="7.44455">
        <ele>485.89490837182</ele>
        <time>2013-03-12T14:09:30Z</time>
      </trkpt>
      <trkpt lat="43.77301" lon="7.4445">
        <ele>485.89490837182</ele>
        <time>2013-03-12T14:09:35Z</time>
      </trkpt>
      <trkpt lat="43.773" lon="7.44443">
        <ele>486.10682517233</ele>
        <time>2013-03-12T14:09:40Z</time>
      </trkpt>
      <trkpt lat="43.77299" lon="7.44441">
        <ele>486.10682517233</ele>
        <time>2013-03-12T14:09:45Z</time>
      </trkpt>
      <trkpt lat="43.77296" lon="7.44437">
        <ele>486.10682517233</ele>
        <time>2013-03-12T14:09:50Z</time>
      </trkpt>
      <trkpt lat="43.77293" lon="7.44433">
        <ele>486.99844017513</ele>
        <time>2013-03-12T14:09:55Z</time>
      </trkpt>
      <trkpt lat="43.77294" lon="7.44432">
        <ele>486.99844017513</ele>
        <time>2013-03-12T14:10:00Z</time>
      </trkpt>
      <trkpt lat="43.77294" lon="7.44429">
        <ele>486.99844017513</ele>
        <time>2013-03-12T14:10:05Z</time>
      </trkpt>
      <trkpt lat="43.7729" lon="7.44423">
        <ele>486.99844017513</ele>
        <time>2013-03-12T14:10:10Z</time>
      </trkpt>
      <trkpt lat="43.77289" lon="7.44418">
        <ele>487.43220796994</ele>
        <time>2013-03-12T14:10:15Z</time>
      </trkpt>
      <trkpt lat="43.77286" lon="7.44415">
        <ele>487.43220796994</ele>
        <time>2013-03-12T14:10:20Z</time>
      </trkpt>
      <trkpt lat="43.77286" lon="7.44414">
        <ele>487.43220796994</ele>
        <time>2013-03-12T14:10:25Z</time>
      </trkpt>
      <trkpt lat="43.77285" lon="7.44413">
        <ele>487.43220796994</ele>
        <time>2013-03-12T14:10:30Z</time>
      </trkpt>
      <trkpt lat="43.77285" lon="7.44413">
        <ele>487.43220796994</ele>
        <time>2013-03-12T14:10:35Z</time>
      </trkpt>
      <trkpt lat="43.77285" lon="7.44413">
        <ele>487.43220796994</ele>
        <time>2013-03-12T14:10:40Z</time>
      </trkpt>
      <trkpt lat="43.77284" lon="7.44413">
        <ele>487.43220796994</ele>
        <time>2013-03-12T14:10:45Z</time>
      </trkpt>
      <trkpt lat="43.77284" lon="7.44414">
        <ele>487.43220796994</ele>
        <time>2013-03-12T14:10:50Z</time>
      </trkpt>
      <trkpt lat="43.77279" lon="7.44413">
        <ele>487.66342972012</ele>
        <time>2013-03-12T14:10:55Z</time>
      </trkpt>
      <trkpt lat="43.7727" lon="7.44411">
        <ele>487.66342972012</ele>
        <time>2013-03-12T14:11:00Z</time>
      </trkpt>
      <trkpt lat="43.77265" lon="7.44411">
        <ele>488.27042194878</ele>
        <time>2013-03-12T14:11:05Z</time>
      </trkpt>
      <trkpt lat="43.77249" lon="7.44407">
        <ele>489.37287915942</ele>
        <time>2013-03-12T14:11:10Z</time>
      </trkpt>
      <trkpt lat="43.77242" lon="7.44404">
        <ele>489.37287915942</ele>
        <time>2013-03-12T14:11:15Z</time>
      </trkpt>
      <trkpt lat="43.77237" lon="7.44404">
        <ele>490.60964137725</ele>
        <time>2013-03-12T14:11:20Z</time>
      </trkpt>
      <trkpt lat="43.77234" lon="7.44408">
        <ele>490.60964137725</ele>
        <time>2013-03-12T14:11:25Z</time>
      </trkpt>
      <trkpt lat="43.77232" lon="7.44407">
        <ele>490.60964137725</ele>
        <time>2013-03-12T14:11:30Z</time>
      </trkpt>
      <trkpt lat="43.7723" lon="7.44412">
        <ele>491.69201508572</ele>
        <time>2013-03-12T14:11:35Z</time>
      </trkpt>
      <trkpt lat="43.7723" lon="7.4441">
        <ele>491.69201508572</ele>
        <time>2013-03-12T14:11:40Z</time>
      </trkpt>
      <trkpt lat="43.77228" lon="7.44403">
        <ele>491.69201508572</ele>
        <time>2013-03-12T14:11:45Z</time>
      </trkpt>
      <trkpt lat="43.7723" lon="7.44398">
        <ele>492.38068076089</ele>
        <time>2013-03-12T14:11:50Z</time>
      </trkpt>
      <trkpt lat="43.77229" lon="7.44394">
        <ele>492.38068076089</ele>
        <time>2013-03-12T14:11:55Z</time>
      </trkpt>
      <trkpt lat="43.77227" lon="7.4439">
        <ele>492.38068076089</ele>
        <time>2013-03-12T14:12:00Z</time>
      </trkpt>
      <trkpt lat="43.77226" lon="7.44385">
        <ele>493.49493732362</ele>
        <time>2013-03-12T14:12:05Z</time>
      </trkpt>
      <trkpt lat="43.77226" lon="7.44383">
        <ele>493.49493732362</ele>
        <time>2013-03-12T14:12:10Z</time>
      </trkpt>
      <trkpt lat="43.77226" lon="7.4438">
        <ele>493.49493732362</ele>
        <time>2013-03-12T14:12:15Z</time>
      </trkpt>
      <trkpt lat="43.77226" lon="7.44376">
        <ele>493.49493732362</ele>
        <time>2013-03-12T14:12:20Z</time>
      </trkpt>
      <trkpt lat="43.77224" lon="7.44371">
        <ele>494.5600308152</ele>
        <time>2013-03-12T14:12:25Z</time>
      </trkpt>
      <trkpt lat="43.77223" lon="7.44367">
        <ele>494.5600308152</ele>
        <time>2013-03-12T14:12:30Z</time>
      </trkpt>
      <trkpt lat="43.77222" lon="7.44362">
        <ele>494.5600308152</ele>
        <time>2013-03-12T14:12:35Z</time>
      </trkpt>
      <trkpt lat="43.77221" lon="7.44359">
        <ele>495.48052956998</ele>
        <time>2013-03-12T14:12:40Z</time>
      </trkpt>
      <trkpt lat="43.77222" lon="7.44355">
        <ele>495.48052956998</ele>
        <time>2013-03-12T14:12:45Z</time>
      </trkpt>
      <trkpt lat="43.7722" lon="7.44352">
        <ele>495.48052956998</ele>
        <time>2013-03-12T14:12:50Z</time>
      </trkpt>
      <trkpt lat="43.77218" lon="7.44349">
        <ele>495.48052956998</ele>
        <time>2013-03-12T14:12:55Z</time>
      </trkpt>
      <trkpt lat="43.77212" lon="7.44346">
        <ele>496.26507531162</ele>
        <time>2013-03-12T14:13:00Z</time>
      </trkpt>
      <trkpt lat="43.77211" lon="7.44343">
        <ele>496.26507531162</ele>
        <time>2013-03-12T14:13:05Z</time>
      </trkpt>
      <trkpt lat="43.77208" lon="7.44343">
        <ele>496.26507531162</ele>
        <time>2013-03-12T14:13:10Z</time>
      </trkpt>
      <trkpt lat="43.77204" lon="7.44344">
        <ele>497.21985065585</ele>
        <time>2013-03-12T14:13:15Z</time>
      </trkpt>
      <trkpt lat="43.772" lon="7.44343">
        <ele>497.21985065585</ele>
        <time>2013-03-12T14:13:20Z</time>
      </trkpt>
      <trkpt lat="43.77199" lon="7.44346">
        <ele>497.21985065585</ele>
        <time>2013-03-12T14:13:25Z</time>
      </trkpt>
      <trkpt lat="43.77195" lon="7.44345">
        <ele>497.67890890867</ele>
        <time>2013-03-12T14:13:30Z</time>
      </trkpt>
      <trkpt lat="43.77195" lon="7.44345">
        <ele>497.67890890867</ele>
        <time>2013-03-12T14:13:35Z</time>
      </trkpt>
      <trkpt lat="43.77191" lon="7.44347">
        <ele>497.67890890867</ele>
        <time>2013-03-12T14:13:40Z</time>
      </trkpt>
      <trkpt lat="43.77186" lon="7.4435">
        <ele>498.39084251429</ele>
        <time>2013-03-12T14:13:45Z</time>
      </trkpt>
      <trkpt lat="43.77184" lon="7.44354">
        <ele>498.39084251429</ele>
        <time>2013-03-12T14:13:50Z</time>
      </trkpt>
      <trkpt lat="43.77184" lon="7.44356">
        <ele>498.39084251429</ele>
        <time>2013-03-12T14:13:55Z</time>
      </trkpt>
      <trkpt lat="43.77182" lon="7.44362">
        <ele>499.24158727062</ele>
        <time>2013-03-12T14:14:00Z</time>
      </trkpt>
      <trkpt lat="43.77183" lon="7.44363">
        <ele>499.24158727062</ele>
        <time>2013-03-12T14:14:05Z</time>
      </trkpt>
      <trkpt lat="43.7718" lon="7.44365">
        <ele>499.24158727062</ele>
        <time>2013-03-12T14:14:10Z</time>
      </trkpt>
      <trkpt lat="43.77177" lon="7.44365">
        <ele>499.24158727062</ele>
        <time>2013-03-12T14:14:15Z</time>
      </trkpt>
      <trkpt lat="43.77174" lon="7.44364">
        <ele>500.58855353462</ele>
        <time>2013-03-12T14:14:20Z</time>
      </trkpt>
      <trkpt lat="43.77172" lon="7.44363">
        <ele>500.58855353462</ele>
        <time>2013-03-12T14:14:25Z</time>
      </trkpt>
      <trkpt lat="43.77168" lon="7.44361">
        <ele>500.58855353462</ele>
        <time>2013-03-12T14:14:30Z</time>
      </trkpt>
      <trkpt lat="43.77164" lon="7.4436">
        <ele>502.00605295824</ele>
        <time>2013-03-12T14:14:35Z</time>
      </trkpt>
      <trkpt lat="43.7716" lon="7.44357">
        <ele>502.00605295824</ele>
        <time>2013-03-12T14:14:40Z</time>
      </trkpt>
      <trkpt lat="43.77158" lon="7.4436">
        <ele>502.00605295824</ele>
        <time>2013-03-12T14:14:45Z</time>
      </trkpt>
      <trkpt lat="43.77154" lon="7.44359">
        <ele>502.81000218993</ele>
        <time>2013-03-12T14:14:50Z</time>
      </trkpt>
      <trkpt lat="43.77148" lon="7.44359">
        <ele>502.81000218993</ele>
        <time>2013-03-12T14:14:55Z</time>
      </trkpt>
      <trkpt lat="43.77144" lon="7.44358">
        <ele>503.48418336707</ele>
        <time>2013-03-12T14:15:00Z</time>
      </trkpt>
      <trkpt lat="43.7714" lon="7.44357">
        <ele>503.48418336707</ele>
        <time>2013-03-12T14:15:05Z</time>
      </trkpt>
      <trkpt lat="43.77134" lon="7.44356">
        <ele>504.2027124545</ele>
        <time>2013-03-12T14:15:10Z</time>
      </trkpt>
      <trkpt lat="43.77131" lon="7.44355">
        <ele>504.2027124545</ele>
        <time>2013-03-12T14:15:15Z</time>
      </trkpt>
      <trkpt lat="43.77126" lon="7.44357">
        <ele>504.2027124545</ele>
        <time>2013-03-12T14:15:20Z</time>
      </trkpt>
      <trkpt lat="43.77123" lon="7.44358">
        <ele>504.60554516569</ele>
        <time>2013-03-12T14:15:25Z</time>
      </trkpt>
      <trkpt lat="43.77118" lon="7.44358">
        <ele>504.60554516569</ele>
        <time>2013-03-12T14:15:30Z</time>
      </trkpt>
      <trkpt lat="43.77115" lon="7.44359">
        <ele>504.60554516569</ele>
        <time>2013-03-12T14:15:35Z</time>
      </trkpt>
      <trkpt lat="43.7711" lon="7.44358">
        <ele>504.67204418932</ele>
        <time>2013-03-12T14:15:40Z</time>
      </trkpt>
      <trkpt lat="43.77104" lon="7.44358">
        <ele>504.67204418932</ele>
        <time>2013-03-12T14:15:45Z</time>
      </trkpt>
      <trkpt lat="43.77099" lon="7.44358">
        <ele>504.74598904705</ele>
        <time>2013-03-12T14:15:50Z</time>
      </trkpt>
      <trkpt lat="43.77096" lon="7.44359">
        <ele>504.74598904705</ele>
        <time>2013-03-12T14:15:55Z</time>
      </trkpt>
      <trkpt lat="43.77091" lon="7.4436">
        <ele>504.74598904705</ele>
        <time>2013-03-12T14:16:00Z</time>
      </trkpt>
      <trkpt lat="43.77085" lon="7.44361">
        <ele>504.37908935282</ele>
        <time>2013-03-12T14:16:05Z</time>
      </trkpt>
      <trkpt lat="43.77082" lon="7.44362">
        <ele>504.37908935282</ele>
        <time>2013-03-12T14:16:10Z</time>
      </trkpt>
      <trkpt lat="43.77074" lon="7.44362">
        <ele>503.98672695999</ele>
        <time>2013-03-12T14:16:15Z</time>
      </trkpt>
      <trkpt lat="43.77067" lon="7.44359">
        <ele>503.98672695999</ele>
        <time>2013-03-12T14:16:20Z</time>
      </trkpt>
      <trkpt lat="43.77063" lon="7.44358">
        <ele>503.68229386486</ele>
        <time>2013-03-12T14:16:25Z</time>
      </trkpt>
      <trkpt lat="43.77059" lon="7.44356">
        <ele>503.68229386486</ele>
        <time>2013-03-12T14:16:30Z</time>
      </trkpt>
      <trkpt lat="43.77054" lon="7.44354">
        <ele>503.31323875246</ele>
        <time>2013-03-12T14:16:35Z</time>
      </trkpt>
      <trkpt lat="43.77051" lon="7.4435">
        <ele>503.31323875246</ele>
        <time>2013-03-12T14:16:40Z</time>
      </trkpt>
      <trkpt lat="43.77047" lon="7.44349">
        <ele>503.31323875246</ele>
        <time>2013-03-12T14:16:45Z</time>
      </trkpt>
      <trkpt lat="43.77042" lon="7.44348">
        <ele>502.60291276495</ele>
        <time>2013-03-12T14:16:50Z</time>
      </trkpt>
      <trkpt lat="43.77037" lon="7.44345">
        <ele>502.60291276495</ele>
        <time>2013-03-12T14:16:55Z</time>
      </trkpt>
      <trkpt lat="43.77034" lon="7.44343">
        <ele>502.12675609073</ele>
        <time>2013-03-12T14:17:00Z</time>
      </trkpt>
      <trkpt lat="43.7703" lon="7.44339">
        <ele>502.12675609073</ele>
        <time>2013-03-12T14:17:05Z</time>
      </trkpt>
      <trkpt lat="43.77025" lon="7.44336">
        <ele>501.63008615829</ele>
        <time>2013-03-12T14:17:10Z</time>
      </trkpt>
      <trkpt lat="43.77022" lon="7.44334">
        <ele>501.63008615829</ele>
        <time>2013-03-12T14:17:15Z</time>
      </trkpt>
      <trkpt lat="43.77021" lon="7.44333">
        <ele>501.63008615829</ele>
        <time>2013-03-12T14:17:20Z</time>
      </trkpt>
      <trkpt lat="43.7702" lon="7.44333">
        <ele>501.63008615829</ele>
        <time>2013-03-12T14:17:25Z</time>
      </trkpt>
      <trkpt lat="43.7702" lon="7.44332">
        <ele>501.63008615829</ele>
        <time>2013-03-12T14:17:30Z</time>
      </trkpt>
      <trkpt lat="43.77018" lon="7.44333">
        <ele>501.63008615829</ele>
        <time>2013-03-12T14:17:35Z</time>
      </trkpt>
      <trkpt lat="43.7701" lon="7.4433">
        <ele>501.25435174909</ele>
        <time>2013-03-12T14:17:40Z</time>
      </trkpt>
      <trkpt lat="43.77003" lon="7.44326">
        <ele>501.25435174909</ele>
        <time>2013-03-12T14:17:45Z</time>
      </trkpt>
      <trkpt lat="43.76997" lon="7.44322">
        <ele>501.18862081879</ele>
        <time>2013-03-12T14:17:50Z</time>
      </trkpt>
      <trkpt lat="43.76988" lon="7.44318">
        <ele>501.20083127066</ele>
        <time>2013-03-12T14:17:55Z</time>
      </trkpt>
      <trkpt lat="43.76983" lon="7.44317">
        <ele>501.20083127066</ele>
        <time>2013-03-12T14:18:00Z</time>
      </trkpt>
      <trkpt lat="43.7698" lon="7.44319">
        <ele>501.20083127066</ele>
        <time>2013-03-12T14:18:05Z</time>
      </trkpt>
      <trkpt lat="43.76977" lon="7.44318">
        <ele>501.28690670169</ele>
        <time>2013-03-12T14:18:10Z</time>
      </trkpt>
      <trkpt lat="43.7697" lon="7.44322">
        <ele>501.28690670169</ele>
        <time>2013-03-12T14:18:15Z</time>
      </trkpt>
      <trkpt lat="43.76968" lon="7.44321">
        <ele>501.41296550899</ele>
        <time>2013-03-12T14:18:20Z</time>
      </trkpt>
      <trkpt lat="43.76966" lon="7.44325">
        <ele>501.41296550899</ele>
        <time>2013-03-12T14:18:25Z</time>
      </trkpt>
      <trkpt lat="43.76963" lon="7.44325">
        <ele>501.41296550899</ele>
        <time>2013-03-12T14:18:30Z</time>
      </trkpt>
      <trkpt lat="43.76959" lon="7.44323">
        <ele>501.69632675681</ele>
        <time>2013-03-12T14:18:35Z</time>
      </trkpt>
      <trkpt lat="43.76957" lon="7.44322">
        <ele>501.69632675681</ele>
        <time>2013-03-12T14:18:40Z</time>
      </trkpt>
      <trkpt lat="43.76958" lon="7.44319">
        <ele>501.69632675681</ele>
        <time>2013-03-12T14:18:45Z</time>
      </trkpt>
      <trkpt lat="43.76952" lon="7.44315">
        <ele>502.27353118311</ele>
        <time>2013-03-12T14:18:50Z</time>
      </trkpt>
      <trkpt lat="43.76954" lon="7.44318">
        <ele>502.27353118311</ele>
        <time>2013-03-12T14:18:55Z</time>
      </trkpt>
      <trkpt lat="43.76955" lon="7.44316">
        <ele>502.27353118311</ele>
        <time>2013-03-12T14:19:00Z</time>
      </trkpt>
      <trkpt lat="43.76954" lon="7.44317">
        <ele>502.27353118311</ele>
        <time>2013-03-12T14:19:05Z</time>
      </trkpt>
      <trkpt lat="43.76951" lon="7.44316">
        <ele>502.27353118311</ele>
        <time>2013-03-12T14:19:10Z</time>
      </trkpt>
      <trkpt lat="43.76946" lon="7.44319">
        <ele>503.12094148538</ele>
        <time>2013-03-12T14:19:15Z</time>
      </trkpt>
      <trkpt lat="43.76947" lon="7.44323">
        <ele>503.12094148538</ele>
        <time>2013-03-12T14:19:20Z</time>
      </trkpt>
      <trkpt lat="43.76947" lon="7.44324">
        <ele>503.12094148538</ele>
        <time>2013-03-12T14:19:25Z</time>
      </trkpt>
      <trkpt lat="43.76947" lon="7.44324">
        <ele>503.12094148538</ele>
        <time>2013-03-12T14:19:30Z</time>
      </trkpt>
      <trkpt lat="43.76947" lon="7.44324">
        <ele>503.12094148538</ele>
        <time>2013-03-12T14:19:35Z</time>
      </trkpt>
      <trkpt lat="43.76947" lon="7.44324">
        <ele>503.12094148538</ele>
        <time>2013-03-12T14:19:40Z</time>
      </trkpt>
      <trkpt lat="43.76948" lon="7.44324">
        <ele>503.12094148538</ele>
        <time>2013-03-12T14:19:45Z</time>
      </trkpt>
      <trkpt lat="43.76951" lon="7.44332">
        <ele>503.61155296086</ele>
        <time>2013-03-12T14:19:50Z</time>
      </trkpt>
      <trkpt lat="43.76957" lon="7.44347">
        <ele>504.08374350805</ele>
        <time>2013-03-12T14:19:55Z</time>
      </trkpt>
      <trkpt lat="43.76963" lon="7.44358">
        <ele>504.46611363025</ele>
        <time>2013-03-12T14:20:00Z</time>
      </trkpt>
      <trkpt lat="43.76962" lon="7.44363">
        <ele>504.46611363025</ele>
        <time>2013-03-12T14:20:05Z</time>
      </trkpt>
      <trkpt lat="43.76961" lon="7.44364">
        <ele>504.46611363025</ele>
        <time>2013-03-12T14:20:10Z</time>
      </trkpt>
      <trkpt lat="43.76963" lon="7.44366">
        <ele>504.46611363025</ele>
        <time>2013-03-12T14:20:15Z</time>
      </trkpt>
      <trkpt lat="43.76961" lon="7.44365">
        <ele>504.46611363025</ele>
        <time>2013-03-12T14:20:20Z</time>
      </trkpt>
      <trkpt lat="43.7696" lon="7.44366">
        <ele>505.98227045221</ele>
        <time>2013-03-12T14:20:25Z</time>
      </trkpt>
      <trkpt lat="43.7696" lon="7.44365">
        <ele>505.98227045221</ele>
        <time>2013-03-12T14:20:30Z</time>
      </trkpt>
      <trkpt lat="43.76959" lon="7.44364">
        <ele>505.98227045221</ele>
        <time>2013-03-12T14:20:35Z</time>
      </trkpt>
      <trkpt lat="43.76953" lon="7.44363">
        <ele>505.98227045221</ele>
        <time>2013-03-12T14:20:40Z</time>
      </trkpt>
      <trkpt lat="43.76949" lon="7.44358">
        <ele>508.11562814366</ele>
        <time>2013-03-12T14:20:45Z</time>
      </trkpt>
      <trkpt lat="43.7695" lon="7.44362">
        <ele>508.11562814366</ele>
        <time>2013-03-12T14:20:50Z</time>
      </trkpt>
      <trkpt lat="43.76954" lon="7.44365">
        <ele>508.11562814366</ele>
        <time>2013-03-12T14:20:55Z</time>
      </trkpt>
      <trkpt lat="43.76952" lon="7.44366">
        <ele>510.05477952016</ele>
        <time>2013-03-12T14:21:00Z</time>
      </trkpt>
      <trkpt lat="43.76951" lon="7.44367">
        <ele>510.05477952016</ele>
        <time>2013-03-12T14:21:05Z</time>
      </trkpt>
      <trkpt lat="43.76951" lon="7.44367">
        <ele>510.05477952016</ele>
        <time>2013-03-12T14:21:10Z</time>
      </trkpt>
      <trkpt lat="43.76951" lon="7.44366">
        <ele>510.05477952016</ele>
        <time>2013-03-12T14:21:15Z</time>
      </trkpt>
      <trkpt lat="43.7695" lon="7.44364">
        <ele>510.05477952016</ele>
        <time>2013-03-12T14:21:20Z</time>
      </trkpt>
      <trkpt lat="43.76949" lon="7.44365">
        <ele>510.05477952016</ele>
        <time>2013-03-12T14:21:25Z</time>
      </trkpt>
      <trkpt lat="43.76949" lon="7.44365">
        <ele>510.05477952016</ele>
        <time>2013-03-12T14:21:30Z</time>
      </trkpt>
      <trkpt lat="43.76952" lon="7.44361">
        <ele>510.05477952016</ele>
        <time>2013-03-12T14:21:35Z</time>
      </trkpt>
      <trkpt lat="43.76947" lon="7.4436">
        <ele>512.11760768746</ele>
        <time>2013-03-12T14:21:40Z</time>
      </trkpt>
      <trkpt lat="43.76945" lon="7.4436">
        <ele>512.11760768746</ele>
        <time>2013-03-12T14:21:45Z</time>
      </trkpt>
      <trkpt lat="43.76942" lon="7.44363">
        <ele>512.11760768746</ele>
        <time>2013-03-12T14:21:50Z</time>
      </trkpt>
      <trkpt lat="43.76931" lon="7.44363">
        <ele>514.31987232807</ele>
        <time>2013-03-12T14:21:55Z</time>
      </trkpt>
      <trkpt lat="43.76932" lon="7.4437">
        <ele>514.31987232807</ele>
        <time>2013-03-12T14:22:00Z</time>
      </trkpt>
      <trkpt lat="43.76929" lon="7.44372">
        <ele>514.31987232807</ele>
        <time>2013-03-12T14:22:05Z</time>
      </trkpt>
      <trkpt lat="43.76929" lon="7.44372">
        <ele>516.22556960235</ele>
        <time>2013-03-12T14:22:10Z</time>
      </trkpt>
      <trkpt lat="43.76935" lon="7.44367">
        <ele>516.22556960235</ele>
        <time>2013-03-12T14:22:15Z</time>
      </trkpt>
      <trkpt lat="43.76933" lon="7.44367">
        <ele>516.22556960235</ele>
        <time>2013-03-12T14:22:20Z</time>
      </trkpt>
      <trkpt lat="43.7693" lon="7.44364">
        <ele>518.69554807251</ele>
        <time>2013-03-12T14:22:25Z</time>
      </trkpt>
      <trkpt lat="43.76924" lon="7.44363">
        <ele>518.69554807251</ele>
        <time>2013-03-12T14:22:30Z</time>
      </trkpt>
      <trkpt lat="43.76921" lon="7.44361">
        <ele>521.11666167176</ele>
        <time>2013-03-12T14:22:35Z</time>
      </trkpt>
      <trkpt lat="43.76923" lon="7.44362">
        <ele>521.11666167176</ele>
        <time>2013-03-12T14:22:40Z</time>
      </trkpt>
      <trkpt lat="43.7692" lon="7.44362">
        <ele>521.11666167176</ele>
        <time>2013-03-12T14:22:45Z</time>
      </trkpt>
      <trkpt lat="43.7692" lon="7.44361">
        <ele>521.11666167176</ele>
        <time>2013-03-12T14:22:50Z</time>
      </trkpt>
      <trkpt lat="43.7692" lon="7.44361">
        <ele>521.11666167176</ele>
        <time>2013-03-12T14:22:55Z</time>
      </trkpt>
      <trkpt lat="43.7692" lon="7.4436">
        <ele>521.11666167176</ele>
        <time>2013-03-12T14:23:00Z</time>
      </trkpt>
      <trkpt lat="43.76921" lon="7.44355">
        <ele>523.41564450436</ele>
        <time>2013-03-12T14:23:05Z</time>
      </trkpt>
      <trkpt lat="43.76916" lon="7.44352">
        <ele>523.41564450436</ele>
        <time>2013-03-12T14:23:10Z</time>
      </trkpt>
      <trkpt lat="43.76913" lon="7.44351">
        <ele>523.41564450436</ele>
        <time>2013-03-12T14:23:15Z</time>
      </trkpt>
      <trkpt lat="43.76913" lon="7.44348">
        <ele>524.55622202357</ele>
        <time>2013-03-12T14:23:20Z</time>
      </trkpt>
      <trkpt lat="43.76913" lon="7.44347">
        <ele>524.55622202357</ele>
        <time>2013-03-12T14:23:25Z</time>
      </trkpt>
      <trkpt lat="43.76912" lon="7.44348">
        <ele>524.55622202357</ele>
        <time>2013-03-12T14:23:30Z</time>
      </trkpt>
      <trkpt lat="43.7691" lon="7.44344">
        <ele>524.55622202357</ele>
        <time>2013-03-12T14:23:35Z</time>
      </trkpt>
      <trkpt lat="43.76907" lon="7.44336">
        <ele>525.8963670018</ele>
        <time>2013-03-12T14:23:40Z</time>
      </trkpt>
      <trkpt lat="43.76906" lon="7.44337">
        <ele>525.8963670018</ele>
        <time>2013-03-12T14:23:45Z</time>
      </trkpt>
      <trkpt lat="43.76907" lon="7.44336">
        <ele>525.8963670018</ele>
        <time>2013-03-12T14:23:50Z</time>
      </trkpt>
      <trkpt lat="43.76906" lon="7.44329">
        <ele>525.8963670018</ele>
        <time>2013-03-12T14:23:55Z</time>
      </trkpt>
      <trkpt lat="43.76904" lon="7.44322">
        <ele>527.31809106392</ele>
        <time>2013-03-12T14:24:00Z</time>
      </trkpt>
      <trkpt lat="43.76899" lon="7.44317">
        <ele>527.31809106392</ele>
        <time>2013-03-12T14:24:05Z</time>
      </trkpt>
      <trkpt lat="43.76904" lon="7.44314">
        <ele>528.19251141526</ele>
        <time>2013-03-12T14:24:10Z</time>
      </trkpt>
      <trkpt lat="43.76908" lon="7.44313">
        <ele>528.19251141526</ele>
        <time>2013-03-12T14:24:15Z</time>
      </trkpt>
      <trkpt lat="43.7691" lon="7.44312">
        <ele>528.19251141526</ele>
        <time>2013-03-12T14:24:20Z</time>
      </trkpt>
      <trkpt lat="43.7691" lon="7.44312">
        <ele>528.19251141526</ele>
        <time>2013-03-12T14:24:25Z</time>
      </trkpt>
      <trkpt lat="43.76911" lon="7.44312">
        <ele>528.19251141526</ele>
        <time>2013-03-12T14:24:30Z</time>
      </trkpt>
      <trkpt lat="43.76913" lon="7.443">
        <ele>529.42576705294</ele>
        <time>2013-03-12T14:24:35Z</time>
      </trkpt>
      <trkpt lat="43.76918" lon="7.44293">
        <ele>529.42576705294</ele>
        <time>2013-03-12T14:24:40Z</time>
      </trkpt>
      <trkpt lat="43.7692" lon="7.44287">
        <ele>529.87891386631</ele>
        <time>2013-03-12T14:24:45Z</time>
      </trkpt>
      <trkpt lat="43.76918" lon="7.44288">
        <ele>529.87891386631</ele>
        <time>2013-03-12T14:24:50Z</time>
      </trkpt>
      <trkpt lat="43.76917" lon="7.44286">
        <ele>529.87891386631</ele>
        <time>2013-03-12T14:24:55Z</time>
      </trkpt>
      <trkpt lat="43.76917" lon="7.44286">
        <ele>529.87891386631</ele>
        <time>2013-03-12T14:25:00Z</time>
      </trkpt>
      <trkpt lat="43.76917" lon="7.44286">
        <ele>529.87891386631</ele>
        <time>2013-03-12T14:25:05Z</time>
      </trkpt>
      <trkpt lat="43.76917" lon="7.44286">
        <ele>529.87891386631</ele>
        <time>2013-03-12T14:25:10Z</time>
      </trkpt>
      <trkpt lat="43.76917" lon="7.44286">
        <ele>529.87891386631</ele>
        <time>2013-03-12T14:25:15Z</time>
      </trkpt>
      <trkpt lat="43.76917" lon="7.44286">
        <ele>529.87891386631</ele>
        <time>2013-03-12T14:25:20Z</time>
      </trkpt>
      <trkpt lat="43.76917" lon="7.44286">
        <ele>529.87891386631</ele>
        <time>2013-03-12T14:25:25Z</time>
      </trkpt>
      <trkpt lat="43.76917" lon="7.44286">
        <ele>529.87891386631</ele>
        <time>2013-03-12T14:25:30Z</time>
      </trkpt>
      <trkpt lat="43.76917" lon="7.44286">
        <ele>529.87891386631</ele>
        <time>2013-03-12T14:25:35Z</time>
      </trkpt>
      <trkpt lat="43.76911" lon="7.44285">
        <ele>530.17301556867</ele>
        <time>2013-03-12T14:25:40Z</time>
      </trkpt>
      <trkpt lat="43.76908" lon="7.44287">
        <ele>530.17301556867</ele>
        <time>2013-03-12T14:25:45Z</time>
      </trkpt>
      <trkpt lat="43.76898" lon="7.44296">
        <ele>530.42196468814</ele>
        <time>2013-03-12T14:25:50Z</time>
      </trkpt>
      <trkpt lat="43.76893" lon="7.44305">
        <ele>530.42196468814</ele>
        <time>2013-03-12T14:25:55Z</time>
      </trkpt>
      <trkpt lat="43.76885" lon="7.44311">
        <ele>531.09185861479</ele>
        <time>2013-03-12T14:26:00Z</time>
      </trkpt>
      <trkpt lat="43.76887" lon="7.44316">
        <ele>531.09185861479</ele>
        <time>2013-03-12T14:26:05Z</time>
      </trkpt>
      <trkpt lat="43.76885" lon="7.44318">
        <ele>531.09185861479</ele>
        <time>2013-03-12T14:26:10Z</time>
      </trkpt>
      <trkpt lat="43.76885" lon="7.44318">
        <ele>531.09185861479</ele>
        <time>2013-03-12T14:26:15Z</time>
      </trkpt>
      <trkpt lat="43.76884" lon="7.44319">
        <ele>531.09185861479</ele>
        <time>2013-03-12T14:26:20Z</time>
      </trkpt>
      <trkpt lat="43.76884" lon="7.44319">
        <ele>531.09185861479</ele>
        <time>2013-03-12T14:26:25Z</time>
      </trkpt>
      <trkpt lat="43.76881" lon="7.44322">
        <ele>532.57005187518</ele>
        <time>2013-03-12T14:26:30Z</time>
      </trkpt>
      <trkpt lat="43.76879" lon="7.44325">
        <ele>532.57005187518</ele>
        <time>2013-03-12T14:26:35Z</time>
      </trkpt>
      <trkpt lat="43.76879" lon="7.44326">
        <ele>532.57005187518</ele>
        <time>2013-03-12T14:26:40Z</time>
      </trkpt>
      <trkpt lat="43.76879" lon="7.44326">
        <ele>532.57005187518</ele>
        <time>2013-03-12T14:26:45Z</time>
      </trkpt>
      <trkpt lat="43.76879" lon="7.44326">
        <ele>532.57005187518</ele>
        <time>2013-03-12T14:26:50Z</time>
      </trkpt>
      <trkpt lat="43.76879" lon="7.44324">
        <ele>532.57005187518</ele>
        <time>2013-03-12T14:26:55Z</time>
      </trkpt>
      <trkpt lat="43.7688" lon="7.44332">
        <ele>534.47794790733</ele>
        <time>2013-03-12T14:27:00Z</time>
      </trkpt>
      <trkpt lat="43.76879" lon="7.44335">
        <ele>534.47794790733</ele>
        <time>2013-03-12T14:27:05Z</time>
      </trkpt>
      <trkpt lat="43.7688" lon="7.44336">
        <ele>534.47794790733</ele>
        <time>2013-03-12T14:27:10Z</time>
      </trkpt>
      <trkpt lat="43.7688" lon="7.44339">
        <ele>534.47794790733</ele>
        <time>2013-03-12T14:27:15Z</time>
      </trkpt>
      <trkpt lat="43.76882" lon="7.44346">
        <ele>535.91582622246</ele>
        <time>2013-03-12T14:27:20Z</time>
      </trkpt>
      <trkpt lat="43.76883" lon="7.44349">
        <ele>535.91582622246</ele>
        <time>2013-03-12T14:27:25Z</time>
      </trkpt>
      <trkpt lat="43.76884" lon="7.44356">
        <ele>535.91582622246</ele>
        <time>2013-03-12T14:27:30Z</time>
      </trkpt>
      <trkpt lat="43.76888" lon="7.44364">
        <ele>537.33460391242</ele>
        <time>2013-03-12T14:27:35Z</time>
      </trkpt>
      <trkpt lat="43.76889" lon="7.44367">
        <ele>537.33460391242</ele>
        <time>2013-03-12T14:27:40Z</time>
      </trkpt>
      <trkpt lat="43.7689" lon="7.44372">
        <ele>537.33460391242</ele>
        <time>2013-03-12T14:27:45Z</time>
      </trkpt>
      <trkpt lat="43.76892" lon="7.44377">
        <ele>538.73403889726</ele>
        <time>2013-03-12T14:27:50Z</time>
      </trkpt>
      <trkpt lat="43.76892" lon="7.44379">
        <ele>538.73403889726</ele>
        <time>2013-03-12T14:27:55Z</time>
      </trkpt>
      <trkpt lat="43.76895" lon="7.4439">
        <ele>540.0995829255</ele>
        <time>2013-03-12T14:28:00Z</time>
      </trkpt>
      <trkpt lat="43.76898" lon="7.444">
        <ele>540.0995829255</ele>
        <time>2013-03-12T14:28:05Z</time>
      </trkpt>
      <trkpt lat="43.76897" lon="7.44408">
        <ele>541.59093668095</ele>
        <time>2013-03-12T14:28:10Z</time>
      </trkpt>
      <trkpt lat="43.76895" lon="7.44412">
        <ele>541.59093668095</ele>
        <time>2013-03-12T14:28:15Z</time>
      </trkpt>
      <trkpt lat="43.76897" lon="7.44412">
        <ele>541.59093668095</ele>
        <time>2013-03-12T14:28:20Z</time>
      </trkpt>
      <trkpt lat="43.76897" lon="7.44413">
        <ele>541.59093668095</ele>
        <time>2013-03-12T14:28:25Z</time>
      </trkpt>
      <trkpt lat="43.76895" lon="7.44415">
        <ele>541.59093668095</ele>
        <time>2013-03-12T14:28:30Z</time>
      </trkpt>
      <trkpt lat="43.76895" lon="7.44417">
        <ele>543.00968001708</ele>
        <time>2013-03-12T14:28:35Z</time>
      </trkpt>
      <trkpt lat="43.76892" lon="7.44421">
        <ele>543.00968001708</ele>
        <time>2013-03-12T14:28:40Z</time>
      </trkpt>
      <trkpt lat="43.76891" lon="7.44425">
        <ele>543.00968001708</ele>
        <time>2013-03-12T14:28:45Z</time>
      </trkpt>
      <trkpt lat="43.7689" lon="7.44429">
        <ele>544.99424027732</ele>
        <time>2013-03-12T14:28:50Z</time>
      </trkpt>
      <trkpt lat="43.76888" lon="7.44431">
        <ele>544.99424027732</ele>
        <time>2013-03-12T14:28:55Z</time>
      </trkpt>
      <trkpt lat="43.76888" lon="7.44427">
        <ele>544.99424027732</ele>
        <time>2013-03-12T14:29:00Z</time>
      </trkpt>
      <trkpt lat="43.76888" lon="7.44423">
        <ele>544.99424027732</ele>
        <time>2013-03-12T14:29:05Z</time>
      </trkpt>
      <trkpt lat="43.76887" lon="7.44419">
        <ele>546.70684389495</ele>
        <time>2013-03-12T14:29:10Z</time>
      </trkpt>
      <trkpt lat="43.76887" lon="7.44415">
        <ele>546.70684389495</ele>
        <time>2013-03-12T14:29:15Z</time>
      </trkpt>
      <trkpt lat="43.76887" lon="7.44408">
        <ele>546.70684389495</ele>
        <time>2013-03-12T14:29:20Z</time>
      </trkpt>
      <trkpt lat="43.76883" lon="7.44404">
        <ele>548.56911580009</ele>
        <time>2013-03-12T14:29:25Z</time>
      </trkpt>
      <trkpt lat="43.76883" lon="7.44403">
        <ele>548.56911580009</ele>
        <time>2013-03-12T14:29:30Z</time>
      </trkpt>
      <trkpt lat="43.76882" lon="7.44403">
        <ele>548.56911580009</ele>
        <time>2013-03-12T14:29:35Z</time>
      </trkpt>
      <trkpt lat="43.76882" lon="7.44404">
        <ele>548.56911580009</ele>
        <time>2013-03-12T14:29:40Z</time>
      </trkpt>
      <trkpt lat="43.76882" lon="7.44404">
        <ele>548.56911580009</ele>
        <time>2013-03-12T14:29:45Z</time>
      </trkpt>
      <trkpt lat="43.76882" lon="7.44403">
        <ele>548.56911580009</ele>
        <time>2013-03-12T14:29:50Z</time>
      </trkpt>
      <trkpt lat="43.76873" lon="7.44397">
        <ele>550.63963369956</ele>
        <time>2013-03-12T14:29:55Z</time>
      </trkpt>
      <trkpt lat="43.76871" lon="7.44392">
        <ele>550.63963369956</ele>
        <time>2013-03-12T14:30:00Z</time>
      </trkpt>
      <trkpt lat="43.76868" lon="7.44391">
        <ele>550.63963369956</ele>
        <time>2013-03-12T14:30:05Z</time>
      </trkpt>
      <trkpt lat="43.76865" lon="7.44393">
        <ele>552.4240287394</ele>
        <time>2013-03-12T14:30:10Z</time>
      </trkpt>
      <trkpt lat="43.76863" lon="7.44393">
        <ele>552.4240287394</ele>
        <time>2013-03-12T14:30:15Z</time>
      </trkpt>
      <trkpt lat="43.76862" lon="7.44392">
        <ele>552.4240287394</ele>
        <time>2013-03-12T14:30:20Z</time>
      </trkpt>
      <trkpt lat="43.7686" lon="7.44393">
        <ele>552.4240287394</ele>
        <time>2013-03-12T14:30:25Z</time>
      </trkpt>
      <trkpt lat="43.76857" lon="7.44392">
        <ele>552.4240287394</ele>
        <time>2013-03-12T14:30:30Z</time>
      </trkpt>
      <trkpt lat="43.76855" lon="7.44394">
        <ele>554.15748306527</ele>
        <time>2013-03-12T14:30:35Z</time>
      </trkpt>
      <trkpt lat="43.76852" lon="7.44392">
        <ele>554.15748306527</ele>
        <time>2013-03-12T14:30:40Z</time>
      </trkpt>
      <trkpt lat="43.76847" lon="7.44391">
        <ele>554.15748306527</ele>
        <time>2013-03-12T14:30:45Z</time>
      </trkpt>
      <trkpt lat="43.76847" lon="7.44392">
        <ele>554.15748306527</ele>
        <time>2013-03-12T14:30:50Z</time>
      </trkpt>
      <trkpt lat="43.76847" lon="7.44393">
        <ele>555.76962613313</ele>
        <time>2013-03-12T14:30:55Z</time>
      </trkpt>
      <trkpt lat="43.76845" lon="7.44392">
        <ele>555.76962613313</ele>
        <time>2013-03-12T14:31:00Z</time>
      </trkpt>
      <trkpt lat="43.76841" lon="7.44395">
        <ele>555.76962613313</ele>
        <time>2013-03-12T14:31:05Z</time>
      </trkpt>
      <trkpt lat="43.76841" lon="7.444">
        <ele>557.3831903164</ele>
        <time>2013-03-12T14:31:10Z</time>
      </trkpt>
      <trkpt lat="43.76841" lon="7.44403">
        <ele>557.3831903164</ele>
        <time>2013-03-12T14:31:15Z</time>
      </trkpt>
      <trkpt lat="43.76839" lon="7.44406">
        <ele>557.3831903164</ele>
        <time>2013-03-12T14:31:20Z</time>
      </trkpt>
      <trkpt lat="43.76837" lon="7.44406">
        <ele>557.3831903164</ele>
        <time>2013-03-12T14:31:25Z</time>
      </trkpt>
      <trkpt lat="43.76834" lon="7.44404">
        <ele>559.96297388498</ele>
        <time>2013-03-12T14:31:30Z</time>
      </trkpt>
      <trkpt lat="43.76832" lon="7.44406">
        <ele>559.96297388498</ele>
        <time>2013-03-12T14:31:35Z</time>
      </trkpt>
      <trkpt lat="43.76831" lon="7.44407">
        <ele>559.96297388498</ele>
        <time>2013-03-12T14:31:40Z</time>
      </trkpt>
      <trkpt lat="43.76829" lon="7.44409">
        <ele>559.96297388498</ele>
        <time>2013-03-12T14:31:45Z</time>
      </trkpt>
      <trkpt lat="43.76829" lon="7.44413">
        <ele>562.38078645936</ele>
        <time>2013-03-12T14:31:50Z</time>
      </trkpt>
      <trkpt lat="43.76829" lon="7.44413">
        <ele>562.38078645936</ele>
        <time>2013-03-12T14:31:55Z</time>
      </trkpt>
      <trkpt lat="43.76829" lon="7.44412">
        <ele>562.38078645936</ele>
        <time>2013-03-12T14:32:00Z</time>
      </trkpt>
      <trkpt lat="43.76827" lon="7.44416">
        <ele>562.38078645936</ele>
        <time>2013-03-12T14:32:05Z</time>
      </trkpt>
      <trkpt lat="43.76827" lon="7.44422">
        <ele>562.38078645936</ele>
        <time>2013-03-12T14:32:10Z</time>
      </trkpt>
      <trkpt lat="43.76826" lon="7.44423">
        <ele>564.55836850521</ele>
        <time>2013-03-12T14:32:15Z</time>
      </trkpt>
      <trkpt lat="43.76828" lon="7.44427">
        <ele>564.55836850521</ele>
        <time>2013-03-12T14:32:20Z</time>
      </trkpt>
      <trkpt lat="43.76829" lon="7.44432">
        <ele>564.55836850521</ele>
        <time>2013-03-12T14:32:25Z</time>
      </trkpt>
      <trkpt lat="43.7683" lon="7.4444">
        <ele>566.38071436717</ele>
        <time>2013-03-12T14:32:30Z</time>
      </trkpt>
      <trkpt lat="43.76827" lon="7.44443">
        <ele>566.38071436717</ele>
        <time>2013-03-12T14:32:35Z</time>
      </trkpt>
      <trkpt lat="43.76828" lon="7.4444">
        <ele>566.38071436717</ele>
        <time>2013-03-12T14:32:40Z</time>
      </trkpt>
      <trkpt lat="43.7683" lon="7.44437">
        <ele>566.38071436717</ele>
        <time>2013-03-12T14:32:45Z</time>
      </trkpt>
      <trkpt lat="43.7683" lon="7.44437">
        <ele>566.38071436717</ele>
        <time>2013-03-12T14:32:50Z</time>
      </trkpt>
      <trkpt lat="43.7683" lon="7.44438">
        <ele>567.5116155214</ele>
        <time>2013-03-12T14:32:55Z</time>
      </trkpt>
      <trkpt lat="43.7683" lon="7.44437">
        <ele>567.5116155214</ele>
        <time>2013-03-12T14:33:00Z</time>
      </trkpt>
      <trkpt lat="43.76829" lon="7.44437">
        <ele>567.5116155214</ele>
        <time>2013-03-12T14:33:05Z</time>
      </trkpt>
      <trkpt lat="43.7683" lon="7.44437">
        <ele>567.5116155214</ele>
        <time>2013-03-12T14:33:10Z</time>
      </trkpt>
      <trkpt lat="43.76829" lon="7.44437">
        <ele>567.5116155214</ele>
        <time>2013-03-12T14:33:15Z</time>
      </trkpt>
      <trkpt lat="43.76825" lon="7.44435">
        <ele>567.5116155214</ele>
        <time>2013-03-12T14:33:20Z</time>
      </trkpt>
      <trkpt lat="43.76824" lon="7.44435">
        <ele>567.5116155214</ele>
        <time>2013-03-12T14:33:25Z</time>
      </trkpt>
      <trkpt lat="43.76823" lon="7.44435">
        <ele>567.5116155214</ele>
        <time>2013-03-12T14:33:30Z</time>
      </trkpt>
      <trkpt lat="43.76823" lon="7.44434">
        <ele>567.5116155214</ele>
        <time>2013-03-12T14:33:35Z</time>
      </trkpt>
      <trkpt lat="43.76822" lon="7.44434">
        <ele>569.12709377658</ele>
        <time>2013-03-12T14:33:40Z</time>
      </trkpt>
      <trkpt lat="43.76822" lon="7.44434">
        <ele>569.12709377658</ele>
        <time>2013-03-12T14:33:45Z</time>
      </trkpt>
      <trkpt lat="43.76822" lon="7.44434">
        <ele>569.12709377658</ele>
        <time>2013-03-12T14:33:50Z</time>
      </trkpt>
      <trkpt lat="43.76822" lon="7.44434">
        <ele>569.12709377658</ele>
        <time>2013-03-12T14:33:55Z</time>
      </trkpt>
      <trkpt lat="43.7682" lon="7.44432">
        <ele>569.12709377658</ele>
        <time>2013-03-12T14:34:00Z</time>
      </trkpt>
      <trkpt lat="43.7681" lon="7.4443">
        <ele>570.72893778263</ele>
        <time>2013-03-12T14:34:05Z</time>
      </trkpt>
      <trkpt lat="43.76809" lon="7.4443">
        <ele>570.72893778263</ele>
        <time>2013-03-12T14:34:10Z</time>
      </trkpt>
      <trkpt lat="43.76808" lon="7.44428">
        <ele>570.72893778263</ele>
        <time>2013-03-12T14:34:15Z</time>
      </trkpt>
      <trkpt lat="43.76808" lon="7.44427">
        <ele>570.72893778263</ele>
        <time>2013-03-12T14:34:20Z</time>
      </trkpt>
      <trkpt lat="43.76808" lon="7.44426">
        <ele>570.72893778263</ele>
        <time>2013-03-12T14:34:25Z</time>
      </trkpt>
      <trkpt lat="43.76808" lon="7.44418">
        <ele>572.76422965457</ele>
        <time>2013-03-12T14:34:30Z</time>
      </trkpt>
      <trkpt lat="43.7681" lon="7.4441">
        <ele>572.76422965457</ele>
        <time>2013-03-12T14:34:35Z</time>
      </trkpt>
      <trkpt lat="43.76809" lon="7.44407">
        <ele>572.76422965457</ele>
        <time>2013-03-12T14:34:40Z</time>
      </trkpt>
      <trkpt lat="43.76809" lon="7.44406">
        <ele>572.76422965457</ele>
        <time>2013-03-12T14:34:45Z</time>
      </trkpt>
      <trkpt lat="43.76807" lon="7.44405">
        <ele>574.76637179029</ele>
        <time>2013-03-12T14:34:50Z</time>
      </trkpt>
      <trkpt lat="43.76807" lon="7.44406">
        <ele>574.76637179029</ele>
        <time>2013-03-12T14:34:55Z</time>
      </trkpt>
      <trkpt lat="43.76807" lon="7.44404">
        <ele>574.76637179029</ele>
        <time>2013-03-12T14:35:00Z</time>
      </trkpt>
      <trkpt lat="43.76804" lon="7.44402">
        <ele>574.76637179029</ele>
        <time>2013-03-12T14:35:05Z</time>
      </trkpt>
      <trkpt lat="43.76804" lon="7.44401">
        <ele>574.76637179029</ele>
        <time>2013-03-12T14:35:10Z</time>
      </trkpt>
      <trkpt lat="43.76805" lon="7.44401">
        <ele>574.76637179029</ele>
        <time>2013-03-12T14:35:15Z</time>
      </trkpt>
      <trkpt lat="43.76804" lon="7.44396">
        <ele>576.375401708</ele>
        <time>2013-03-12T14:35:20Z</time>
      </trkpt>
      <trkpt lat="43.768" lon="7.44389">
        <ele>576.375401708</ele>
        <time>2013-03-12T14:35:25Z</time>
      </trkpt>
      <trkpt lat="43.76795" lon="7.44386">
        <ele>578.62876614038</ele>
        <time>2013-03-12T14:35:30Z</time>
      </trkpt>
      <trkpt lat="43.76795" lon="7.44388">
        <ele>578.62876614038</ele>
        <time>2013-03-12T14:35:35Z</time>
      </trkpt>
      <trkpt lat="43.76796" lon="7.44384">
        <ele>578.62876614038</ele>
        <time>2013-03-12T14:35:40Z</time>
      </trkpt>
      <trkpt lat="43.76796" lon="7.44383">
        <ele>578.62876614038</ele>
        <time>2013-03-12T14:35:45Z</time>
      </trkpt>
      <trkpt lat="43.76795" lon="7.44383">
        <ele>578.62876614038</ele>
        <time>2013-03-12T14:35:50Z</time>
      </trkpt>
      <trkpt lat="43.76794" lon="7.44379">
        <ele>578.62876614038</ele>
        <time>2013-03-12T14:35:55Z</time>
      </trkpt>
      <trkpt lat="43.76789" lon="7.44376">
        <ele>580.85658730446</ele>
        <time>2013-03-12T14:36:00Z</time>
      </trkpt>
      <trkpt lat="43.76788" lon="7.44375">
        <ele>580.85658730446</ele>
        <time>2013-03-12T14:36:05Z</time>
      </trkpt>
      <trkpt lat="43.76787" lon="7.44374">
        <ele>580.85658730446</ele>
        <time>2013-03-12T14:36:10Z</time>
      </trkpt>
      <trkpt lat="43.76785" lon="7.44371">
        <ele>580.85658730446</ele>
        <time>2013-03-12T14:36:15Z</time>
      </trkpt>
      <trkpt lat="43.76784" lon="7.4437">
        <ele>580.85658730446</ele>
        <time>2013-03-12T14:36:20Z</time>
      </trkpt>
      <trkpt lat="43.76783" lon="7.44369">
        <ele>580.85658730446</ele>
        <time>2013-03-12T14:36:25Z</time>
      </trkpt>
      <trkpt lat="43.76781" lon="7.44367">
        <ele>582.79889144294</ele>
        <time>2013-03-12T14:36:30Z</time>
      </trkpt>
      <trkpt lat="43.76778" lon="7.44361">
        <ele>582.79889144294</ele>
        <time>2013-03-12T14:36:35Z</time>
      </trkpt>
      <trkpt lat="43.76777" lon="7.4436">
        <ele>582.79889144294</ele>
        <time>2013-03-12T14:36:40Z</time>
      </trkpt>
      <trkpt lat="43.76777" lon="7.44362">
        <ele>582.79889144294</ele>
        <time>2013-03-12T14:36:45Z</time>
      </trkpt>
      <trkpt lat="43.76777" lon="7.44361">
        <ele>582.79889144294</ele>
        <time>2013-03-12T14:36:50Z</time>
      </trkpt>
      <trkpt lat="43.76777" lon="7.44361">
        <ele>582.79889144294</ele>
        <time>2013-03-12T14:36:55Z</time>
      </trkpt>
      <trkpt lat="43.76777" lon="7.44361">
        <ele>582.79889144294</ele>
        <time>2013-03-12T14:37:00Z</time>
      </trkpt>
      <trkpt lat="43.76777" lon="7.44361">
        <ele>582.79889144294</ele>
        <time>2013-03-12T14:37:05Z</time>
      </trkpt>
      <trkpt lat="43.76777" lon="7.44361">
        <ele>582.79889144294</ele>
        <time>2013-03-12T14:37:10Z</time>
      </trkpt>
      <trkpt lat="43.76776" lon="7.44361">
        <ele>584.57612088023</ele>
        <time>2013-03-12T14:37:15Z</time>
      </trkpt>
      <trkpt lat="43.76774" lon="7.44362">
        <ele>584.57612088023</ele>
        <time>2013-03-12T14:37:20Z</time>
      </trkpt>
      <trkpt lat="43.76769" lon="7.44361">
        <ele>584.57612088023</ele>
        <time>2013-03-12T14:37:25Z</time>
      </trkpt>
      <trkpt lat="43.76768" lon="7.4436">
        <ele>584.57612088023</ele>
        <time>2013-03-12T14:37:30Z</time>
      </trkpt>
      <trkpt lat="43.76768" lon="7.4436">
        <ele>585.55357275146</ele>
        <time>2013-03-12T14:37:35Z</time>
      </trkpt>
      <trkpt lat="43.76767" lon="7.4436">
        <ele>586.53102462269</ele>
        <time>2013-03-12T14:37:40Z</time>
      </trkpt>
      <trkpt lat="43.76767" lon="7.4436">
        <ele>586.53102462269</ele>
        <time>2013-03-12T14:37:45Z</time>
      </trkpt>
      <trkpt lat="43.76767" lon="7.4436">
        <ele>586.53102462269</ele>
        <time>2013-03-12T14:37:50Z</time>
      </trkpt>
      <trkpt lat="43.76767" lon="7.4436">
        <ele>586.53102462269</ele>
        <time>2013-03-12T14:37:55Z</time>
      </trkpt>
      <trkpt lat="43.76767" lon="7.4436">
        <ele>586.53102462269</ele>
        <time>2013-03-12T14:38:00Z</time>
      </trkpt>
      <trkpt lat="43.76767" lon="7.4436">
        <ele>586.53102462269</ele>
        <time>2013-03-12T14:38:05Z</time>
      </trkpt>
      <trkpt lat="43.76767" lon="7.4436">
        <ele>586.53102462269</ele>
        <time>2013-03-12T14:38:10Z</time>
      </trkpt>
      <trkpt lat="43.76767" lon="7.4436">
        <ele>586.53102462269</ele>
        <time>2013-03-12T14:38:15Z</time>
      </trkpt>
      <trkpt lat="43.76766" lon="7.44364">
        <ele>586.53102462269</ele>
        <time>2013-03-12T14:38:20Z</time>
      </trkpt>
      <trkpt lat="43.76761" lon="7.44374">
        <ele>589.02393230181</ele>
        <time>2013-03-12T14:38:25Z</time>
      </trkpt>
      <trkpt lat="43.7676" lon="7.44375">
        <ele>589.02393230181</ele>
        <time>2013-03-12T14:38:30Z</time>
      </trkpt>
      <trkpt lat="43.7676" lon="7.44374">
        <ele>589.02393230181</ele>
        <time>2013-03-12T14:38:35Z</time>
      </trkpt>
      <trkpt lat="43.76757" lon="7.44376">
        <ele>589.02393230181</ele>
        <time>2013-03-12T14:38:40Z</time>
      </trkpt>
      <trkpt lat="43.76754" lon="7.44379">
        <ele>589.02393230181</ele>
        <time>2013-03-12T14:38:45Z</time>
      </trkpt>
      <trkpt lat="43.76754" lon="7.44378">
        <ele>589.02393230181</ele>
        <time>2013-03-12T14:38:50Z</time>
      </trkpt>
      <trkpt lat="43.76755" lon="7.4438">
        <ele>591.32056023427</ele>
        <time>2013-03-12T14:38:55Z</time>
      </trkpt>
      <trkpt lat="43.76755" lon="7.4438">
        <ele>591.32056023427</ele>
        <time>2013-03-12T14:39:00Z</time>
      </trkpt>
      <trkpt lat="43.76755" lon="7.44381">
        <ele>591.32056023427</ele>
        <time>2013-03-12T14:39:05Z</time>
      </trkpt>
      <trkpt lat="43.76755" lon="7.44386">
        <ele>591.32056023427</ele>
        <time>2013-03-12T14:39:10Z</time>
      </trkpt>
      <trkpt lat="43.76756" lon="7.44393">
        <ele>593.67818435761</ele>
        <time>2013-03-12T14:39:15Z</time>
      </trkpt>
      <trkpt lat="43.76756" lon="7.44396">
        <ele>593.67818435761</ele>
        <time>2013-03-12T14:39:20Z</time>
      </trkpt>
      <trkpt lat="43.76756" lon="7.444">
        <ele>593.67818435761</ele>
        <time>2013-03-12T14:39:25Z</time>
      </trkpt>
      <trkpt lat="43.76756" lon="7.44405">
        <ele>593.67818435761</ele>
        <time>2013-03-12T14:39:30Z</time>
      </trkpt>
      <trkpt lat="43.76756" lon="7.44405">
        <ele>593.67818435761</ele>
        <time>2013-03-12T14:39:35Z</time>
      </trkpt>
      <trkpt lat="43.76756" lon="7.44405">
        <ele>593.67818435761</ele>
        <time>2013-03-12T14:39:40Z</time>
      </trkpt>
      <trkpt lat="43.76756" lon="7.44404">
        <ele>595.90264850745</ele>
        <time>2013-03-12T14:39:45Z</time>
      </trkpt>
      <trkpt lat="43.76755" lon="7.44404">
        <ele>595.90264850745</ele>
        <time>2013-03-12T14:39:50Z</time>
      </trkpt>
      <trkpt lat="43.76755" lon="7.44404">
        <ele>595.90264850745</ele>
        <time>2013-03-12T14:39:55Z</time>
      </trkpt>
      <trkpt lat="43.76755" lon="7.44404">
        <ele>595.90264850745</ele>
        <time>2013-03-12T14:40:00Z</time>
      </trkpt>
      <trkpt lat="43.76755" lon="7.44404">
        <ele>595.90264850745</ele>
        <time>2013-03-12T14:40:05Z</time>
      </trkpt>
      <trkpt lat="43.76755" lon="7.44402">
        <ele>595.90264850745</ele>
        <time>2013-03-12T14:40:10Z</time>
      </trkpt>
      <trkpt lat="43.76752" lon="7.44399">
        <ele>595.90264850745</ele>
        <time>2013-03-12T14:40:15Z</time>
      </trkpt>
      <trkpt lat="43.76752" lon="7.44395">
        <ele>599.28464747185</ele>
        <time>2013-03-12T14:40:20Z</time>
      </trkpt>
      <trkpt lat="43.76752" lon="7.44394">
        <ele>599.28464747185</ele>
        <time>2013-03-12T14:40:25Z</time>
      </trkpt>
      <trkpt lat="43.76751" lon="7.44394">
        <ele>599.28464747185</ele>
        <time>2013-03-12T14:40:30Z</time>
      </trkpt>
      <trkpt lat="43.76751" lon="7.44394">
        <ele>599.28464747185</ele>
        <time>2013-03-12T14:40:35Z</time>
      </trkpt>
      <trkpt lat="43.76746" lon="7.4439">
        <ele>599.28464747185</ele>
        <time>2013-03-12T14:40:40Z</time>
      </trkpt>
      <trkpt lat="43.76744" lon="7.44378">
        <ele>602.09101756615</ele>
        <time>2013-03-12T14:40:45Z</time>
      </trkpt>
      <trkpt lat="43.76744" lon="7.44373">
        <ele>602.09101756615</ele>
        <time>2013-03-12T14:40:50Z</time>
      </trkpt>
      <trkpt lat="43.76743" lon="7.44372">
        <ele>602.09101756615</ele>
        <time>2013-03-12T14:40:55Z</time>
      </trkpt>
      <trkpt lat="43.76741" lon="7.44374">
        <ele>602.09101756615</ele>
        <time>2013-03-12T14:41:00Z</time>
      </trkpt>
      <trkpt lat="43.76739" lon="7.44379">
        <ele>604.69224301645</ele>
        <time>2013-03-12T14:41:05Z</time>
      </trkpt>
      <trkpt lat="43.76738" lon="7.44382">
        <ele>604.69224301645</ele>
        <time>2013-03-12T14:41:10Z</time>
      </trkpt>
      <trkpt lat="43.76738" lon="7.44382">
        <ele>604.69224301645</ele>
        <time>2013-03-12T14:41:15Z</time>
      </trkpt>
      <trkpt lat="43.76738" lon="7.44383">
        <ele>604.69224301645</ele>
        <time>2013-03-12T14:41:20Z</time>
      </trkpt>
      <trkpt lat="43.76738" lon="7.44389">
        <ele>604.69224301645</ele>
        <time>2013-03-12T14:41:25Z</time>
      </trkpt>
      <trkpt lat="43.76736" lon="7.44392">
        <ele>607.27368708097</ele>
        <time>2013-03-12T14:41:30Z</time>
      </trkpt>
      <trkpt lat="43.76734" lon="7.44395">
        <ele>607.27368708097</ele>
        <time>2013-03-12T14:41:35Z</time>
      </trkpt>
      <trkpt lat="43.76734" lon="7.44395">
        <ele>607.27368708097</ele>
        <time>2013-03-12T14:41:40Z</time>
      </trkpt>
      <trkpt lat="43.76733" lon="7.44394">
        <ele>607.27368708097</ele>
        <time>2013-03-12T14:41:45Z</time>
      </trkpt>
      <trkpt lat="43.76734" lon="7.44394">
        <ele>607.27368708097</ele>
        <time>2013-03-12T14:41:50Z</time>
      </trkpt>
      <trkpt lat="43.76734" lon="7.44395">
        <ele>607.27368708097</ele>
        <time>2013-03-12T14:41:55Z</time>
      </trkpt>
      <trkpt lat="43.76734" lon="7.44395">
        <ele>607.27368708097</ele>
        <time>2013-03-12T14:42:00Z</time>
      </trkpt>
      <trkpt lat="43.76734" lon="7.44395">
        <ele>607.27368708097</ele>
        <time>2013-03-12T14:42:05Z</time>
      </trkpt>
      <trkpt lat="43.76734" lon="7.44395">
        <ele>607.27368708097</ele>
        <time>2013-03-12T14:42:10Z</time>
      </trkpt>
      <trkpt lat="43.76734" lon="7.44395">
        <ele>607.27368708097</ele>
        <time>2013-03-12T14:42:15Z</time>
      </trkpt>
      <trkpt lat="43.76734" lon="7.44395">
        <ele>607.27368708097</ele>
        <time>2013-03-12T14:42:20Z</time>
      </trkpt>
      <trkpt lat="43.76734" lon="7.44395">
        <ele>607.27368708097</ele>
        <time>2013-03-12T14:42:25Z</time>
      </trkpt>
      <trkpt lat="43.76734" lon="7.44395">
        <ele>607.27368708097</ele>
        <time>2013-03-12T14:42:30Z</time>
      </trkpt>
      <trkpt lat="43.76734" lon="7.44395">
        <ele>607.27368708097</ele>
        <time>2013-03-12T14:42:35Z</time>
      </trkpt>
      <trkpt lat="43.76734" lon="7.44395">
        <ele>607.27368708097</ele>
        <time>2013-03-12T14:42:40Z</time>
      </trkpt>
      <trkpt lat="43.76734" lon="7.44395">
        <ele>607.27368708097</ele>
        <time>2013-03-12T14:42:45Z</time>
      </trkpt>
      <trkpt lat="43.76734" lon="7.44395">
        <ele>607.27368708097</ele>
        <time>2013-03-12T14:42:50Z</time>
      </trkpt>
      <trkpt lat="43.76734" lon="7.44395">
        <ele>607.27368708097</ele>
        <time>2013-03-12T14:42:55Z</time>
      </trkpt>
      <trkpt lat="43.76734" lon="7.44395">
        <ele>607.27368708097</ele>
        <time>2013-03-12T14:43:00Z</time>
      </trkpt>
      <trkpt lat="43.76734" lon="7.44395">
        <ele>607.27368708097</ele>
        <time>2013-03-12T14:43:05Z</time>
      </trkpt>
      <trkpt lat="43.76734" lon="7.44395">
        <ele>607.27368708097</ele>
        <time>2013-03-12T14:43:10Z</time>
      </trkpt>
      <trkpt lat="43.76734" lon="7.44395">
        <ele>607.27368708097</ele>
        <time>2013-03-12T14:43:15Z</time>
      </trkpt>
      <trkpt lat="43.76734" lon="7.44395">
        <ele>607.27368708097</ele>
        <time>2013-03-12T14:43:20Z</time>
      </trkpt>
      <trkpt lat="43.76734" lon="7.44395">
        <ele>607.27368708097</ele>
        <time>2013-03-12T14:43:25Z</time>
      </trkpt>
      <trkpt lat="43.76734" lon="7.44395">
        <ele>607.27368708097</ele>
        <time>2013-03-12T14:43:30Z</time>
      </trkpt>
      <trkpt lat="43.76734" lon="7.44395">
        <ele>607.27368708097</ele>
        <time>2013-03-12T14:43:35Z</time>
      </trkpt>
      <trkpt lat="43.76734" lon="7.44395">
        <ele>607.27368708097</ele>
        <time>2013-03-12T14:43:40Z</time>
      </trkpt>
      <trkpt lat="43.76734" lon="7.44395">
        <ele>607.27368708097</ele>
        <time>2013-03-12T14:43:45Z</time>
      </trkpt>
      <trkpt lat="43.76734" lon="7.44395">
        <ele>607.27368708097</ele>
        <time>2013-03-12T14:43:50Z</time>
      </trkpt>
      <trkpt lat="43.76734" lon="7.44395">
        <ele>607.27368708097</ele>
        <time>2013-03-12T14:43:55Z</time>
      </trkpt>
      <trkpt lat="43.76734" lon="7.44395">
        <ele>607.27368708097</ele>
        <time>2013-03-12T14:44:00Z</time>
      </trkpt>
      <trkpt lat="43.76734" lon="7.44395">
        <ele>607.27368708097</ele>
        <time>2013-03-12T14:44:05Z</time>
      </trkpt>
      <trkpt lat="43.76734" lon="7.44395">
        <ele>607.27368708097</ele>
        <time>2013-03-12T14:44:10Z</time>
      </trkpt>
      <trkpt lat="43.76734" lon="7.44395">
        <ele>607.27368708097</ele>
        <time>2013-03-12T14:44:15Z</time>
      </trkpt>
      <trkpt lat="43.76734" lon="7.44395">
        <ele>607.27368708097</ele>
        <time>2013-03-12T14:44:20Z</time>
      </trkpt>
      <trkpt lat="43.76734" lon="7.44395">
        <ele>607.27368708097</ele>
        <time>2013-03-12T14:44:25Z</time>
      </trkpt>
      <trkpt lat="43.76734" lon="7.44394">
        <ele>607.27368708097</ele>
        <time>2013-03-12T14:44:30Z</time>
      </trkpt>
      <trkpt lat="43.76734" lon="7.44394">
        <ele>607.27368708097</ele>
        <time>2013-03-12T14:44:35Z</time>
      </trkpt>
      <trkpt lat="43.76734" lon="7.44394">
        <ele>607.27368708097</ele>
        <time>2013-03-12T14:44:40Z</time>
      </trkpt>
      <trkpt lat="43.76734" lon="7.44394">
        <ele>607.27368708097</ele>
        <time>2013-03-12T14:44:45Z</time>
      </trkpt>
      <trkpt lat="43.76734" lon="7.44394">
        <ele>607.27368708097</ele>
        <time>2013-03-12T14:44:50Z</time>
      </trkpt>
      <trkpt lat="43.76734" lon="7.44394">
        <ele>607.27368708097</ele>
        <time>2013-03-12T14:44:55Z</time>
      </trkpt>
      <trkpt lat="43.76734" lon="7.44393">
        <ele>607.27368708097</ele>
        <time>2013-03-12T14:45:00Z</time>
      </trkpt>
      <trkpt lat="43.76737" lon="7.44391">
        <ele>609.81987217979</ele>
        <time>2013-03-12T14:45:05Z</time>
      </trkpt>
      <trkpt lat="43.76738" lon="7.44382">
        <ele>609.81987217979</ele>
        <time>2013-03-12T14:45:10Z</time>
      </trkpt>
      <trkpt lat="43.76735" lon="7.44373">
        <ele>612.31664530504</ele>
        <time>2013-03-12T14:45:15Z</time>
      </trkpt>
      <trkpt lat="43.76734" lon="7.44365">
        <ele>612.31664530504</ele>
        <time>2013-03-12T14:45:20Z</time>
      </trkpt>
      <trkpt lat="43.7673" lon="7.44364">
        <ele>614.52053531609</ele>
        <time>2013-03-12T14:45:25Z</time>
      </trkpt>
      <trkpt lat="43.76731" lon="7.44363">
        <ele>614.52053531609</ele>
        <time>2013-03-12T14:45:30Z</time>
      </trkpt>
      <trkpt lat="43.7673" lon="7.44362">
        <ele>614.52053531609</ele>
        <time>2013-03-12T14:45:35Z</time>
      </trkpt>
      <trkpt lat="43.7673" lon="7.44362">
        <ele>614.52053531609</ele>
        <time>2013-03-12T14:45:40Z</time>
      </trkpt>
      <trkpt lat="43.7673" lon="7.44362">
        <ele>614.52053531609</ele>
        <time>2013-03-12T14:45:45Z</time>
      </trkpt>
      <trkpt lat="43.7673" lon="7.44362">
        <ele>614.52053531609</ele>
        <time>2013-03-12T14:45:50Z</time>
      </trkpt>
      <trkpt lat="43.76728" lon="7.44361">
        <ele>614.52053531609</ele>
        <time>2013-03-12T14:45:55Z</time>
      </trkpt>
      <trkpt lat="43.76729" lon="7.44354">
        <ele>616.39421930473</ele>
        <time>2013-03-12T14:46:00Z</time>
      </trkpt>
      <trkpt lat="43.76727" lon="7.44349">
        <ele>616.39421930473</ele>
        <time>2013-03-12T14:46:05Z</time>
      </trkpt>
      <trkpt lat="43.76726" lon="7.44346">
        <ele>616.39421930473</ele>
        <time>2013-03-12T14:46:10Z</time>
      </trkpt>
      <trkpt lat="43.76725" lon="7.44345">
        <ele>616.39421930473</ele>
        <time>2013-03-12T14:46:15Z</time>
      </trkpt>
      <trkpt lat="43.76715" lon="7.44333">
        <ele>618.07706050542</ele>
        <time>2013-03-12T14:46:20Z</time>
      </trkpt>
      <trkpt lat="43.76712" lon="7.44327">
        <ele>618.07706050542</ele>
        <time>2013-03-12T14:46:25Z</time>
      </trkpt>
      <trkpt lat="43.76713" lon="7.44324">
        <ele>618.07706050542</ele>
        <time>2013-03-12T14:46:30Z</time>
      </trkpt>
      <trkpt lat="43.76712" lon="7.44323">
        <ele>618.07706050542</ele>
        <time>2013-03-12T14:46:35Z</time>
      </trkpt>
      <trkpt lat="43.76711" lon="7.44323">
        <ele>619.91496434949</ele>
        <time>2013-03-12T14:46:40Z</time>
      </trkpt>
      <trkpt lat="43.76711" lon="7.44323">
        <ele>619.91496434949</ele>
        <time>2013-03-12T14:46:45Z</time>
      </trkpt>
      <trkpt lat="43.76711" lon="7.44323">
        <ele>619.91496434949</ele>
        <time>2013-03-12T14:46:50Z</time>
      </trkpt>
      <trkpt lat="43.76711" lon="7.44323">
        <ele>619.91496434949</ele>
        <time>2013-03-12T14:46:55Z</time>
      </trkpt>
      <trkpt lat="43.76711" lon="7.44323">
        <ele>619.91496434949</ele>
        <time>2013-03-12T14:47:00Z</time>
      </trkpt>
      <trkpt lat="43.7671" lon="7.44322">
        <ele>619.91496434949</ele>
        <time>2013-03-12T14:47:05Z</time>
      </trkpt>
      <trkpt lat="43.76704" lon="7.44318">
        <ele>619.91496434949</ele>
        <time>2013-03-12T14:47:10Z</time>
      </trkpt>
      <trkpt lat="43.76701" lon="7.44318">
        <ele>621.85336763635</ele>
        <time>2013-03-12T14:47:15Z</time>
      </trkpt>
      <trkpt lat="43.767" lon="7.44318">
        <ele>621.85336763635</ele>
        <time>2013-03-12T14:47:20Z</time>
      </trkpt>
      <trkpt lat="43.767" lon="7.44318">
        <ele>621.85336763635</ele>
        <time>2013-03-12T14:47:25Z</time>
      </trkpt>
      <trkpt lat="43.767" lon="7.44318">
        <ele>621.85336763635</ele>
        <time>2013-03-12T14:47:30Z</time>
      </trkpt>
      <trkpt lat="43.767" lon="7.44318">
        <ele>621.85336763635</ele>
        <time>2013-03-12T14:47:35Z</time>
      </trkpt>
      <trkpt lat="43.767" lon="7.44318">
        <ele>621.85336763635</ele>
        <time>2013-03-12T14:47:40Z</time>
      </trkpt>
      <trkpt lat="43.767" lon="7.44318">
        <ele>621.85336763635</ele>
        <time>2013-03-12T14:47:45Z</time>
      </trkpt>
      <trkpt lat="43.767" lon="7.44318">
        <ele>621.85336763635</ele>
        <time>2013-03-12T14:47:50Z</time>
      </trkpt>
      <trkpt lat="43.767" lon="7.44318">
        <ele>621.85336763635</ele>
        <time>2013-03-12T14:47:55Z</time>
      </trkpt>
      <trkpt lat="43.767" lon="7.44318">
        <ele>621.85336763635</ele>
        <time>2013-03-12T14:48:00Z</time>
      </trkpt>
      <trkpt lat="43.767" lon="7.44318">
        <ele>622.42606057293</ele>
        <time>2013-03-12T14:48:05Z</time>
      </trkpt>
      <trkpt lat="43.76695" lon="7.4432">
        <ele>622.99875350951</ele>
        <time>2013-03-12T14:48:10Z</time>
      </trkpt>
      <trkpt lat="43.76693" lon="7.4432">
        <ele>623.57144644609</ele>
        <time>2013-03-12T14:48:15Z</time>
      </trkpt>
      <trkpt lat="43.76692" lon="7.44319">
        <ele>624.14413938267</ele>
        <time>2013-03-12T14:48:20Z</time>
      </trkpt>
      <trkpt lat="43.76693" lon="7.44318">
        <ele>624.14413938267</ele>
        <time>2013-03-12T14:48:25Z</time>
      </trkpt>
      <trkpt lat="43.7669" lon="7.44318">
        <ele>624.14413938267</ele>
        <time>2013-03-12T14:48:30Z</time>
      </trkpt>
      <trkpt lat="43.7669" lon="7.44318">
        <ele>624.14413938267</ele>
        <time>2013-03-12T14:48:35Z</time>
      </trkpt>
      <trkpt lat="43.7669" lon="7.44318">
        <ele>624.14413938267</ele>
        <time>2013-03-12T14:48:40Z</time>
      </trkpt>
      <trkpt lat="43.7669" lon="7.44318">
        <ele>624.14413938267</ele>
        <time>2013-03-12T14:48:45Z</time>
      </trkpt>
      <trkpt lat="43.7669" lon="7.44317">
        <ele>624.14413938267</ele>
        <time>2013-03-12T14:48:50Z</time>
      </trkpt>
      <trkpt lat="43.76688" lon="7.44315">
        <ele>624.14413938267</ele>
        <time>2013-03-12T14:48:55Z</time>
      </trkpt>
      <trkpt lat="43.76685" lon="7.44309">
        <ele>626.29915939461</ele>
        <time>2013-03-12T14:49:00Z</time>
      </trkpt>
      <trkpt lat="43.76684" lon="7.44303">
        <ele>626.29915939461</ele>
        <time>2013-03-12T14:49:05Z</time>
      </trkpt>
      <trkpt lat="43.76683" lon="7.44301">
        <ele>626.29915939461</ele>
        <time>2013-03-12T14:49:10Z</time>
      </trkpt>
      <trkpt lat="43.76683" lon="7.44301">
        <ele>626.29915939461</ele>
        <time>2013-03-12T14:49:15Z</time>
      </trkpt>
      <trkpt lat="43.76681" lon="7.44295">
        <ele>628.55834715245</ele>
        <time>2013-03-12T14:49:20Z</time>
      </trkpt>
      <trkpt lat="43.76674" lon="7.44281">
        <ele>630.5673127812</ele>
        <time>2013-03-12T14:49:25Z</time>
      </trkpt>
      <trkpt lat="43.76674" lon="7.44272">
        <ele>630.5673127812</ele>
        <time>2013-03-12T14:49:30Z</time>
      </trkpt>
      <trkpt lat="43.76674" lon="7.44271">
        <ele>630.5673127812</ele>
        <time>2013-03-12T14:49:35Z</time>
      </trkpt>
      <trkpt lat="43.76673" lon="7.44269">
        <ele>632.80548846151</ele>
        <time>2013-03-12T14:49:40Z</time>
      </trkpt>
      <trkpt lat="43.76672" lon="7.44269">
        <ele>632.80548846151</ele>
        <time>2013-03-12T14:49:45Z</time>
      </trkpt>
      <trkpt lat="43.76672" lon="7.44268">
        <ele>632.80548846151</ele>
        <time>2013-03-12T14:49:50Z</time>
      </trkpt>
      <trkpt lat="43.76666" lon="7.44251">
        <ele>635.02475623769</ele>
        <time>2013-03-12T14:49:55Z</time>
      </trkpt>
      <trkpt lat="43.76663" lon="7.44243">
        <ele>635.02475623769</ele>
        <time>2013-03-12T14:50:00Z</time>
      </trkpt>
      <trkpt lat="43.76662" lon="7.44243">
        <ele>635.02475623769</ele>
        <time>2013-03-12T14:50:05Z</time>
      </trkpt>
      <trkpt lat="43.76662" lon="7.44242">
        <ele>635.02475623769</ele>
        <time>2013-03-12T14:50:10Z</time>
      </trkpt>
      <trkpt lat="43.76662" lon="7.44242">
        <ele>635.02475623769</ele>
        <time>2013-03-12T14:50:15Z</time>
      </trkpt>
      <trkpt lat="43.76662" lon="7.44241">
        <ele>635.02475623769</ele>
        <time>2013-03-12T14:50:20Z</time>
      </trkpt>
      <trkpt lat="43.76662" lon="7.44241">
        <ele>635.02475623769</ele>
        <time>2013-03-12T14:50:25Z</time>
      </trkpt>
      <trkpt lat="43.76662" lon="7.44241">
        <ele>637.35561109616</ele>
        <time>2013-03-12T14:50:30Z</time>
      </trkpt>
      <trkpt lat="43.76658" lon="7.44237">
        <ele>637.35561109616</ele>
        <time>2013-03-12T14:50:35Z</time>
      </trkpt>
      <trkpt lat="43.76658" lon="7.44227">
        <ele>639.6016479919</ele>
        <time>2013-03-12T14:50:40Z</time>
      </trkpt>
      <trkpt lat="43.76656" lon="7.44224">
        <ele>639.6016479919</ele>
        <time>2013-03-12T14:50:45Z</time>
      </trkpt>
      <trkpt lat="43.76656" lon="7.44222">
        <ele>639.6016479919</ele>
        <time>2013-03-12T14:50:50Z</time>
      </trkpt>
      <trkpt lat="43.76656" lon="7.44221">
        <ele>639.6016479919</ele>
        <time>2013-03-12T14:50:55Z</time>
      </trkpt>
      <trkpt lat="43.76651" lon="7.44211">
        <ele>642.0711615315</ele>
        <time>2013-03-12T14:51:00Z</time>
      </trkpt>
      <trkpt lat="43.7665" lon="7.44202">
        <ele>642.0711615315</ele>
        <time>2013-03-12T14:51:05Z</time>
      </trkpt>
      <trkpt lat="43.76647" lon="7.44196">
        <ele>644.77540318089</ele>
        <time>2013-03-12T14:51:10Z</time>
      </trkpt>
      <trkpt lat="43.76642" lon="7.44192">
        <ele>644.77540318089</ele>
        <time>2013-03-12T14:51:15Z</time>
      </trkpt>
      <trkpt lat="43.76643" lon="7.4419">
        <ele>644.77540318089</ele>
        <time>2013-03-12T14:51:20Z</time>
      </trkpt>
      <trkpt lat="43.76642" lon="7.44188">
        <ele>647.46477992919</ele>
        <time>2013-03-12T14:51:25Z</time>
      </trkpt>
      <trkpt lat="43.76641" lon="7.44185">
        <ele>647.46477992919</ele>
        <time>2013-03-12T14:51:30Z</time>
      </trkpt>
      <trkpt lat="43.76639" lon="7.44179">
        <ele>647.46477992919</ele>
        <time>2013-03-12T14:51:35Z</time>
      </trkpt>
      <trkpt lat="43.76639" lon="7.44175">
        <ele>649.95135596746</ele>
        <time>2013-03-12T14:51:40Z</time>
      </trkpt>
      <trkpt lat="43.76638" lon="7.44173">
        <ele>649.95135596746</ele>
        <time>2013-03-12T14:51:45Z</time>
      </trkpt>
      <trkpt lat="43.76638" lon="7.44172">
        <ele>649.95135596746</ele>
        <time>2013-03-12T14:51:50Z</time>
      </trkpt>
      <trkpt lat="43.76638" lon="7.44172">
        <ele>649.95135596746</ele>
        <time>2013-03-12T14:51:55Z</time>
      </trkpt>
      <trkpt lat="43.76638" lon="7.44171">
        <ele>649.95135596746</ele>
        <time>2013-03-12T14:52:00Z</time>
      </trkpt>
      <trkpt lat="43.76638" lon="7.44171">
        <ele>649.95135596746</ele>
        <time>2013-03-12T14:52:05Z</time>
      </trkpt>
      <trkpt lat="43.76638" lon="7.44166">
        <ele>649.95135596746</ele>
        <time>2013-03-12T14:52:10Z</time>
      </trkpt>
      <trkpt lat="43.76638" lon="7.44166">
        <ele>649.95135596746</ele>
        <time>2013-03-12T14:52:15Z</time>
      </trkpt>
      <trkpt lat="43.76638" lon="7.44165">
        <ele>649.95135596746</ele>
        <time>2013-03-12T14:52:20Z</time>
      </trkpt>
      <trkpt lat="43.76636" lon="7.44164">
        <ele>652.39308119848</ele>
        <time>2013-03-12T14:52:25Z</time>
      </trkpt>
      <trkpt lat="43.76636" lon="7.44164">
        <ele>652.39308119848</ele>
        <time>2013-03-12T14:52:30Z</time>
      </trkpt>
      <trkpt lat="43.76636" lon="7.44161">
        <ele>652.39308119848</ele>
        <time>2013-03-12T14:52:35Z</time>
      </trkpt>
      <trkpt lat="43.76637" lon="7.44157">
        <ele>652.39308119848</ele>
        <time>2013-03-12T14:52:40Z</time>
      </trkpt>
      <trkpt lat="43.76638" lon="7.44153">
        <ele>652.39308119848</ele>
        <time>2013-03-12T14:52:45Z</time>
      </trkpt>
      <trkpt lat="43.76636" lon="7.44148">
        <ele>654.70589250804</ele>
        <time>2013-03-12T14:52:50Z</time>
      </trkpt>
      <trkpt lat="43.76634" lon="7.44146">
        <ele>654.70589250804</ele>
        <time>2013-03-12T14:52:55Z</time>
      </trkpt>
      <trkpt lat="43.76633" lon="7.44146">
        <ele>654.70589250804</ele>
        <time>2013-03-12T14:53:00Z</time>
      </trkpt>
      <trkpt lat="43.76633" lon="7.44146">
        <ele>654.70589250804</ele>
        <time>2013-03-12T14:53:05Z</time>
      </trkpt>
      <trkpt lat="43.76632" lon="7.44146">
        <ele>654.70589250804</ele>
        <time>2013-03-12T14:53:10Z</time>
      </trkpt>
      <trkpt lat="43.76632" lon="7.44146">
        <ele>654.70589250804</ele>
        <time>2013-03-12T14:53:15Z</time>
      </trkpt>
      <trkpt lat="43.76632" lon="7.44146">
        <ele>654.70589250804</ele>
        <time>2013-03-12T14:53:20Z</time>
      </trkpt>
      <trkpt lat="43.76632" lon="7.44146">
        <ele>654.70589250804</ele>
        <time>2013-03-12T14:53:25Z</time>
      </trkpt>
      <trkpt lat="43.7663" lon="7.44148">
        <ele>654.70589250804</ele>
        <time>2013-03-12T14:53:30Z</time>
      </trkpt>
      <trkpt lat="43.76629" lon="7.44148">
        <ele>654.70589250804</ele>
        <time>2013-03-12T14:53:35Z</time>
      </trkpt>
      <trkpt lat="43.76629" lon="7.44148">
        <ele>654.70589250804</ele>
        <time>2013-03-12T14:53:40Z</time>
      </trkpt>
      <trkpt lat="43.76628" lon="7.44148">
        <ele>656.53849130924</ele>
        <time>2013-03-12T14:53:45Z</time>
      </trkpt>
      <trkpt lat="43.76626" lon="7.4415">
        <ele>656.53849130924</ele>
        <time>2013-03-12T14:53:50Z</time>
      </trkpt>
      <trkpt lat="43.76623" lon="7.44148">
        <ele>656.53849130924</ele>
        <time>2013-03-12T14:53:55Z</time>
      </trkpt>
      <trkpt lat="43.7662" lon="7.44147">
        <ele>656.53849130924</ele>
        <time>2013-03-12T14:54:00Z</time>
      </trkpt>
      <trkpt lat="43.76621" lon="7.44147">
        <ele>656.53849130924</ele>
        <time>2013-03-12T14:54:05Z</time>
      </trkpt>
      <trkpt lat="43.76621" lon="7.44147">
        <ele>656.53849130924</ele>
        <time>2013-03-12T14:54:10Z</time>
      </trkpt>
      <trkpt lat="43.76621" lon="7.44147">
        <ele>658.41705347971</ele>
        <time>2013-03-12T14:54:15Z</time>
      </trkpt>
      <trkpt lat="43.7662" lon="7.44146">
        <ele>658.41705347971</ele>
        <time>2013-03-12T14:54:20Z</time>
      </trkpt>
      <trkpt lat="43.7662" lon="7.44146">
        <ele>658.41705347971</ele>
        <time>2013-03-12T14:54:25Z</time>
      </trkpt>
      <trkpt lat="43.7662" lon="7.44146">
        <ele>658.41705347971</ele>
        <time>2013-03-12T14:54:30Z</time>
      </trkpt>
      <trkpt lat="43.7662" lon="7.44146">
        <ele>658.41705347971</ele>
        <time>2013-03-12T14:54:35Z</time>
      </trkpt>
      <trkpt lat="43.7662" lon="7.44146">
        <ele>658.41705347971</ele>
        <time>2013-03-12T14:54:40Z</time>
      </trkpt>
      <trkpt lat="43.7662" lon="7.44146">
        <ele>658.41705347971</ele>
        <time>2013-03-12T14:54:45Z</time>
      </trkpt>
      <trkpt lat="43.7662" lon="7.44146">
        <ele>658.41705347971</ele>
        <time>2013-03-12T14:54:50Z</time>
      </trkpt>
      <trkpt lat="43.7662" lon="7.44146">
        <ele>658.41705347971</ele>
        <time>2013-03-12T14:54:55Z</time>
      </trkpt>
      <trkpt lat="43.7662" lon="7.44146">
        <ele>658.41705347971</ele>
        <time>2013-03-12T14:55:00Z</time>
      </trkpt>
      <trkpt lat="43.7662" lon="7.44146">
        <ele>658.41705347971</ele>
        <time>2013-03-12T14:55:05Z</time>
      </trkpt>
      <trkpt lat="43.7662" lon="7.44146">
        <ele>658.41705347971</ele>
        <time>2013-03-12T14:55:10Z</time>
      </trkpt>
      <trkpt lat="43.7662" lon="7.44146">
        <ele>658.41705347971</ele>
        <time>2013-03-12T14:55:15Z</time>
      </trkpt>
      <trkpt lat="43.76616" lon="7.44148">
        <ele>658.41705347971</ele>
        <time>2013-03-12T14:55:20Z</time>
      </trkpt>
      <trkpt lat="43.76612" lon="7.4415">
        <ele>660.05079078894</ele>
        <time>2013-03-12T14:55:25Z</time>
      </trkpt>
      <trkpt lat="43.76611" lon="7.4415">
        <ele>660.05079078894</ele>
        <time>2013-03-12T14:55:30Z</time>
      </trkpt>
      <trkpt lat="43.76611" lon="7.44152">
        <ele>660.05079078894</ele>
        <time>2013-03-12T14:55:35Z</time>
      </trkpt>
      <trkpt lat="43.76612" lon="7.44152">
        <ele>660.05079078894</ele>
        <time>2013-03-12T14:55:40Z</time>
      </trkpt>
      <trkpt lat="43.76612" lon="7.44151">
        <ele>660.05079078894</ele>
        <time>2013-03-12T14:55:45Z</time>
      </trkpt>
      <trkpt lat="43.76612" lon="7.44151">
        <ele>660.05079078894</ele>
        <time>2013-03-12T14:55:50Z</time>
      </trkpt>
      <trkpt lat="43.76612" lon="7.44151">
        <ele>660.05079078894</ele>
        <time>2013-03-12T14:55:55Z</time>
      </trkpt>
      <trkpt lat="43.76612" lon="7.44151">
        <ele>660.05079078894</ele>
        <time>2013-03-12T14:56:00Z</time>
      </trkpt>
      <trkpt lat="43.76612" lon="7.44151">
        <ele>660.05079078894</ele>
        <time>2013-03-12T14:56:05Z</time>
      </trkpt>
      <trkpt lat="43.76611" lon="7.44152">
        <ele>660.05079078894</ele>
        <time>2013-03-12T14:56:10Z</time>
      </trkpt>
      <trkpt lat="43.76606" lon="7.44154">
        <ele>661.25746457613</ele>
        <time>2013-03-12T14:56:15Z</time>
      </trkpt>
      <trkpt lat="43.76605" lon="7.44157">
        <ele>661.25746457613</ele>
        <time>2013-03-12T14:56:20Z</time>
      </trkpt>
      <trkpt lat="43.76603" lon="7.44159">
        <ele>661.25746457613</ele>
        <time>2013-03-12T14:56:25Z</time>
      </trkpt>
      <trkpt lat="43.76602" lon="7.4416">
        <ele>661.25746457613</ele>
        <time>2013-03-12T14:56:30Z</time>
      </trkpt>
      <trkpt lat="43.76601" lon="7.44163">
        <ele>661.25746457613</ele>
        <time>2013-03-12T14:56:35Z</time>
      </trkpt>
      <trkpt lat="43.766" lon="7.44165">
        <ele>662.82060380359</ele>
        <time>2013-03-12T14:56:40Z</time>
      </trkpt>
      <trkpt lat="43.76599" lon="7.44166">
        <ele>662.82060380359</ele>
        <time>2013-03-12T14:56:45Z</time>
      </trkpt>
      <trkpt lat="43.76596" lon="7.44169">
        <ele>662.82060380359</ele>
        <time>2013-03-12T14:56:50Z</time>
      </trkpt>
      <trkpt lat="43.76595" lon="7.44169">
        <ele>662.82060380359</ele>
        <time>2013-03-12T14:56:55Z</time>
      </trkpt>
      <trkpt lat="43.76593" lon="7.4417">
        <ele>662.82060380359</ele>
        <time>2013-03-12T14:57:00Z</time>
      </trkpt>
      <trkpt lat="43.76592" lon="7.4417">
        <ele>662.82060380359</ele>
        <time>2013-03-12T14:57:05Z</time>
      </trkpt>
      <trkpt lat="43.76589" lon="7.44173">
        <ele>664.8743251489</ele>
        <time>2013-03-12T14:57:10Z</time>
      </trkpt>
      <trkpt lat="43.76587" lon="7.44175">
        <ele>664.8743251489</ele>
        <time>2013-03-12T14:57:15Z</time>
      </trkpt>
      <trkpt lat="43.76586" lon="7.44176">
        <ele>664.8743251489</ele>
        <time>2013-03-12T14:57:20Z</time>
      </trkpt>
      <trkpt lat="43.76582" lon="7.44178">
        <ele>664.8743251489</ele>
        <time>2013-03-12T14:57:25Z</time>
      </trkpt>
      <trkpt lat="43.7658" lon="7.4418">
        <ele>667.06595112039</ele>
        <time>2013-03-12T14:57:30Z</time>
      </trkpt>
      <trkpt lat="43.76578" lon="7.44184">
        <ele>667.06595112039</ele>
        <time>2013-03-12T14:57:35Z</time>
      </trkpt>
      <trkpt lat="43.76576" lon="7.44189">
        <ele>667.06595112039</ele>
        <time>2013-03-12T14:57:40Z</time>
      </trkpt>
      <trkpt lat="43.76576" lon="7.44188">
        <ele>667.06595112039</ele>
        <time>2013-03-12T14:57:45Z</time>
      </trkpt>
      <trkpt lat="43.76576" lon="7.44188">
        <ele>668.73687170202</ele>
        <time>2013-03-12T14:57:50Z</time>
      </trkpt>
      <trkpt lat="43.76575" lon="7.44188">
        <ele>668.73687170202</ele>
        <time>2013-03-12T14:57:55Z</time>
      </trkpt>
      <trkpt lat="43.76576" lon="7.44191">
        <ele>668.73687170202</ele>
        <time>2013-03-12T14:58:00Z</time>
      </trkpt>
      <trkpt lat="43.76575" lon="7.44191">
        <ele>668.73687170202</ele>
        <time>2013-03-12T14:58:05Z</time>
      </trkpt>
      <trkpt lat="43.76574" lon="7.44191">
        <ele>668.73687170202</ele>
        <time>2013-03-12T14:58:10Z</time>
      </trkpt>
      <trkpt lat="43.76572" lon="7.44195">
        <ele>668.73687170202</ele>
        <time>2013-03-12T14:58:15Z</time>
      </trkpt>
      <trkpt lat="43.76573" lon="7.44201">
        <ele>669.36479356082</ele>
        <time>2013-03-12T14:58:20Z</time>
      </trkpt>
      <trkpt lat="43.76567" lon="7.44204">
        <ele>669.36479356082</ele>
        <time>2013-03-12T14:58:25Z</time>
      </trkpt>
      <trkpt lat="43.76565" lon="7.44207">
        <ele>670.06837969524</ele>
        <time>2013-03-12T14:58:30Z</time>
      </trkpt>
      <trkpt lat="43.76561" lon="7.44211">
        <ele>670.06837969524</ele>
        <time>2013-03-12T14:58:35Z</time>
      </trkpt>
      <trkpt lat="43.76559" lon="7.44214">
        <ele>670.06837969524</ele>
        <time>2013-03-12T14:58:40Z</time>
      </trkpt>
      <trkpt lat="43.76557" lon="7.44215">
        <ele>670.52921703242</ele>
        <time>2013-03-12T14:58:45Z</time>
      </trkpt>
      <trkpt lat="43.76554" lon="7.44218">
        <ele>670.52921703242</ele>
        <time>2013-03-12T14:58:50Z</time>
      </trkpt>
      <trkpt lat="43.76552" lon="7.44221">
        <ele>670.52921703242</ele>
        <time>2013-03-12T14:58:55Z</time>
      </trkpt>
      <trkpt lat="43.76551" lon="7.44224">
        <ele>671.37526821656</ele>
        <time>2013-03-12T14:59:00Z</time>
      </trkpt>
      <trkpt lat="43.76548" lon="7.44231">
        <ele>671.37526821656</ele>
        <time>2013-03-12T14:59:05Z</time>
      </trkpt>
      <trkpt lat="43.76547" lon="7.44234">
        <ele>671.37526821656</ele>
        <time>2013-03-12T14:59:10Z</time>
      </trkpt>
      <trkpt lat="43.76549" lon="7.44236">
        <ele>672.72608586469</ele>
        <time>2013-03-12T14:59:15Z</time>
      </trkpt>
      <trkpt lat="43.76549" lon="7.44238">
        <ele>672.72608586469</ele>
        <time>2013-03-12T14:59:20Z</time>
      </trkpt>
      <trkpt lat="43.76549" lon="7.44238">
        <ele>672.72608586469</ele>
        <time>2013-03-12T14:59:25Z</time>
      </trkpt>
      <trkpt lat="43.76549" lon="7.44238">
        <ele>672.72608586469</ele>
        <time>2013-03-12T14:59:30Z</time>
      </trkpt>
      <trkpt lat="43.76549" lon="7.44238">
        <ele>672.72608586469</ele>
        <time>2013-03-12T14:59:35Z</time>
      </trkpt>
      <trkpt lat="43.76549" lon="7.44238">
        <ele>672.72608586469</ele>
        <time>2013-03-12T14:59:40Z</time>
      </trkpt>
      <trkpt lat="43.76549" lon="7.44239">
        <ele>672.72608586469</ele>
        <time>2013-03-12T14:59:45Z</time>
      </trkpt>
      <trkpt lat="43.76549" lon="7.44241">
        <ele>672.72608586469</ele>
        <time>2013-03-12T14:59:50Z</time>
      </trkpt>
      <trkpt lat="43.76549" lon="7.44241">
        <ele>672.72608586469</ele>
        <time>2013-03-12T14:59:55Z</time>
      </trkpt>
      <trkpt lat="43.76549" lon="7.4424">
        <ele>672.72608586469</ele>
        <time>2013-03-12T15:00:00Z</time>
      </trkpt>
      <trkpt lat="43.76549" lon="7.4424">
        <ele>672.72608586469</ele>
        <time>2013-03-12T15:00:05Z</time>
      </trkpt>
      <trkpt lat="43.76549" lon="7.4424">
        <ele>672.72608586469</ele>
        <time>2013-03-12T15:00:10Z</time>
      </trkpt>
      <trkpt lat="43.7655" lon="7.44241">
        <ele>672.72608586469</ele>
        <time>2013-03-12T15:00:15Z</time>
      </trkpt>
      <trkpt lat="43.76549" lon="7.44241">
        <ele>672.72608586469</ele>
        <time>2013-03-12T15:00:20Z</time>
      </trkpt>
      <trkpt lat="43.76548" lon="7.44242">
        <ele>672.72608586469</ele>
        <time>2013-03-12T15:00:25Z</time>
      </trkpt>
      <trkpt lat="43.76548" lon="7.44242">
        <ele>672.72608586469</ele>
        <time>2013-03-12T15:00:30Z</time>
      </trkpt>
      <trkpt lat="43.76549" lon="7.44242">
        <ele>672.72608586469</ele>
        <time>2013-03-12T15:00:35Z</time>
      </trkpt>
      <trkpt lat="43.76549" lon="7.44242">
        <ele>672.72608586469</ele>
        <time>2013-03-12T15:00:40Z</time>
      </trkpt>
      <trkpt lat="43.76549" lon="7.44242">
        <ele>672.72608586469</ele>
        <time>2013-03-12T15:00:45Z</time>
      </trkpt>
      <trkpt lat="43.76549" lon="7.44242">
        <ele>672.72608586469</ele>
        <time>2013-03-12T15:00:50Z</time>
      </trkpt>
      <trkpt lat="43.76549" lon="7.44242">
        <ele>672.72608586469</ele>
        <time>2013-03-12T15:00:55Z</time>
      </trkpt>
      <trkpt lat="43.76549" lon="7.44252">
        <ele>675.23861336355</ele>
        <time>2013-03-12T15:01:00Z</time>
      </trkpt>
      <trkpt lat="43.7655" lon="7.44254">
        <ele>675.23861336355</ele>
        <time>2013-03-12T15:01:05Z</time>
      </trkpt>
      <trkpt lat="43.76551" lon="7.4426">
        <ele>675.23861336355</ele>
        <time>2013-03-12T15:01:10Z</time>
      </trkpt>
      <trkpt lat="43.76552" lon="7.44264">
        <ele>677.05390049749</ele>
        <time>2013-03-12T15:01:15Z</time>
      </trkpt>
      <trkpt lat="43.76553" lon="7.44263">
        <ele>677.05390049749</ele>
        <time>2013-03-12T15:01:20Z</time>
      </trkpt>
      <trkpt lat="43.76554" lon="7.44267">
        <ele>677.05390049749</ele>
        <time>2013-03-12T15:01:25Z</time>
      </trkpt>
      <trkpt lat="43.76554" lon="7.44269">
        <ele>677.05390049749</ele>
        <time>2013-03-12T15:01:30Z</time>
      </trkpt>
      <trkpt lat="43.76554" lon="7.44269">
        <ele>677.05390049749</ele>
        <time>2013-03-12T15:01:35Z</time>
      </trkpt>
      <trkpt lat="43.76554" lon="7.44269">
        <ele>677.05390049749</ele>
        <time>2013-03-12T15:01:40Z</time>
      </trkpt>
      <trkpt lat="43.76554" lon="7.44268">
        <ele>677.05390049749</ele>
        <time>2013-03-12T15:01:45Z</time>
      </trkpt>
      <trkpt lat="43.76554" lon="7.44268">
        <ele>677.05390049749</ele>
        <time>2013-03-12T15:01:50Z</time>
      </trkpt>
      <trkpt lat="43.76554" lon="7.44268">
        <ele>677.05390049749</ele>
        <time>2013-03-12T15:01:55Z</time>
      </trkpt>
      <trkpt lat="43.76554" lon="7.44268">
        <ele>677.05390049749</ele>
        <time>2013-03-12T15:02:00Z</time>
      </trkpt>
      <trkpt lat="43.76554" lon="7.44268">
        <ele>677.05390049749</ele>
        <time>2013-03-12T15:02:05Z</time>
      </trkpt>
      <trkpt lat="43.76554" lon="7.44268">
        <ele>677.05390049749</ele>
        <time>2013-03-12T15:02:10Z</time>
      </trkpt>
      <trkpt lat="43.76554" lon="7.44269">
        <ele>677.05390049749</ele>
        <time>2013-03-12T15:02:15Z</time>
      </trkpt>
      <trkpt lat="43.76554" lon="7.44269">
        <ele>677.05390049749</ele>
        <time>2013-03-12T15:02:20Z</time>
      </trkpt>
      <trkpt lat="43.76554" lon="7.44269">
        <ele>677.05390049749</ele>
        <time>2013-03-12T15:02:25Z</time>
      </trkpt>
      <trkpt lat="43.76554" lon="7.44269">
        <ele>677.05390049749</ele>
        <time>2013-03-12T15:02:30Z</time>
      </trkpt>
      <trkpt lat="43.76554" lon="7.44269">
        <ele>677.05390049749</ele>
        <time>2013-03-12T15:02:35Z</time>
      </trkpt>
      <trkpt lat="43.76554" lon="7.44269">
        <ele>677.05390049749</ele>
        <time>2013-03-12T15:02:40Z</time>
      </trkpt>
      <trkpt lat="43.76554" lon="7.44269">
        <ele>677.05390049749</ele>
        <time>2013-03-12T15:02:45Z</time>
      </trkpt>
      <trkpt lat="43.76554" lon="7.44269">
        <ele>677.05390049749</ele>
        <time>2013-03-12T15:02:50Z</time>
      </trkpt>
      <trkpt lat="43.76552" lon="7.44272">
        <ele>678.75727854799</ele>
        <time>2013-03-12T15:02:55Z</time>
      </trkpt>
      <trkpt lat="43.76553" lon="7.44271">
        <ele>678.75727854799</ele>
        <time>2013-03-12T15:03:00Z</time>
      </trkpt>
      <trkpt lat="43.76553" lon="7.4427">
        <ele>678.75727854799</ele>
        <time>2013-03-12T15:03:05Z</time>
      </trkpt>
      <trkpt lat="43.76554" lon="7.4427">
        <ele>678.75727854799</ele>
        <time>2013-03-12T15:03:10Z</time>
      </trkpt>
      <trkpt lat="43.76554" lon="7.4427">
        <ele>678.75727854799</ele>
        <time>2013-03-12T15:03:15Z</time>
      </trkpt>
      <trkpt lat="43.76554" lon="7.4427">
        <ele>678.75727854799</ele>
        <time>2013-03-12T15:03:20Z</time>
      </trkpt>
      <trkpt lat="43.76554" lon="7.4427">
        <ele>678.75727854799</ele>
        <time>2013-03-12T15:03:25Z</time>
      </trkpt>
      <trkpt lat="43.76554" lon="7.4427">
        <ele>678.75727854799</ele>
        <time>2013-03-12T15:03:30Z</time>
      </trkpt>
      <trkpt lat="43.76554" lon="7.4427">
        <ele>678.75727854799</ele>
        <time>2013-03-12T15:03:35Z</time>
      </trkpt>
      <trkpt lat="43.76556" lon="7.44269">
        <ele>678.75727854799</ele>
        <time>2013-03-12T15:03:40Z</time>
      </trkpt>
      <trkpt lat="43.76557" lon="7.44267">
        <ele>678.75727854799</ele>
        <time>2013-03-12T15:03:45Z</time>
      </trkpt>
      <trkpt lat="43.76558" lon="7.44265">
        <ele>678.75727854799</ele>
        <time>2013-03-12T15:03:50Z</time>
      </trkpt>
      <trkpt lat="43.7656" lon="7.44262">
        <ele>680.55989022662</ele>
        <time>2013-03-12T15:03:55Z</time>
      </trkpt>
      <trkpt lat="43.7656" lon="7.44261">
        <ele>680.55989022662</ele>
        <time>2013-03-12T15:04:00Z</time>
      </trkpt>
      <trkpt lat="43.7656" lon="7.44261">
        <ele>680.55989022662</ele>
        <time>2013-03-12T15:04:05Z</time>
      </trkpt>
      <trkpt lat="43.76557" lon="7.4426">
        <ele>680.55989022662</ele>
        <time>2013-03-12T15:04:10Z</time>
      </trkpt>
      <trkpt lat="43.76557" lon="7.4426">
        <ele>680.55989022662</ele>
        <time>2013-03-12T15:04:15Z</time>
      </trkpt>
      <trkpt lat="43.76558" lon="7.44259">
        <ele>680.55989022662</ele>
        <time>2013-03-12T15:04:20Z</time>
      </trkpt>
      <trkpt lat="43.76557" lon="7.44258">
        <ele>680.55989022662</ele>
        <time>2013-03-12T15:04:25Z</time>
      </trkpt>
      <trkpt lat="43.76556" lon="7.44255">
        <ele>680.55989022662</ele>
        <time>2013-03-12T15:04:30Z</time>
      </trkpt>
      <trkpt lat="43.76556" lon="7.44255">
        <ele>680.55989022662</ele>
        <time>2013-03-12T15:04:35Z</time>
      </trkpt>
      <trkpt lat="43.76556" lon="7.44254">
        <ele>680.55989022662</ele>
        <time>2013-03-12T15:04:40Z</time>
      </trkpt>
      <trkpt lat="43.76555" lon="7.44254">
        <ele>682.62822512017</ele>
        <time>2013-03-12T15:04:45Z</time>
      </trkpt>
      <trkpt lat="43.76556" lon="7.44253">
        <ele>682.62822512017</ele>
        <time>2013-03-12T15:04:50Z</time>
      </trkpt>
      <trkpt lat="43.76556" lon="7.44252">
        <ele>682.62822512017</ele>
        <time>2013-03-12T15:04:55Z</time>
      </trkpt>
      <trkpt lat="43.76556" lon="7.44252">
        <ele>682.62822512017</ele>
        <time>2013-03-12T15:05:00Z</time>
      </trkpt>
      <trkpt lat="43.76555" lon="7.44252">
        <ele>682.62822512017</ele>
        <time>2013-03-12T15:05:05Z</time>
      </trkpt>
      <trkpt lat="43.76555" lon="7.44253">
        <ele>682.62822512017</ele>
        <time>2013-03-12T15:05:10Z</time>
      </trkpt>
      <trkpt lat="43.76555" lon="7.44253">
        <ele>682.62822512017</ele>
        <time>2013-03-12T15:05:15Z</time>
      </trkpt>
      <trkpt lat="43.76555" lon="7.44253">
        <ele>682.62822512017</ele>
        <time>2013-03-12T15:05:20Z</time>
      </trkpt>
      <trkpt lat="43.76555" lon="7.44253">
        <ele>682.62822512017</ele>
        <time>2013-03-12T15:05:25Z</time>
      </trkpt>
      <trkpt lat="43.76552" lon="7.44254">
        <ele>682.62822512017</ele>
        <time>2013-03-12T15:05:30Z</time>
      </trkpt>
      <trkpt lat="43.76552" lon="7.44254">
        <ele>682.62822512017</ele>
        <time>2013-03-12T15:05:35Z</time>
      </trkpt>
      <trkpt lat="43.76552" lon="7.44253">
        <ele>682.62822512017</ele>
        <time>2013-03-12T15:05:40Z</time>
      </trkpt>
      <trkpt lat="43.76552" lon="7.44253">
        <ele>682.62822512017</ele>
        <time>2013-03-12T15:05:45Z</time>
      </trkpt>
      <trkpt lat="43.76552" lon="7.44253">
        <ele>682.62822512017</ele>
        <time>2013-03-12T15:05:50Z</time>
      </trkpt>
      <trkpt lat="43.76552" lon="7.44252">
        <ele>682.62822512017</ele>
        <time>2013-03-12T15:05:55Z</time>
      </trkpt>
      <trkpt lat="43.76552" lon="7.44252">
        <ele>682.62822512017</ele>
        <time>2013-03-12T15:06:00Z</time>
      </trkpt>
      <trkpt lat="43.76551" lon="7.44252">
        <ele>682.62822512017</ele>
        <time>2013-03-12T15:06:05Z</time>
      </trkpt>
      <trkpt lat="43.76551" lon="7.44251">
        <ele>684.3519619975</ele>
        <time>2013-03-12T15:06:10Z</time>
      </trkpt>
      <trkpt lat="43.76551" lon="7.4425">
        <ele>684.3519619975</ele>
        <time>2013-03-12T15:06:15Z</time>
      </trkpt>
      <trkpt lat="43.76549" lon="7.44246">
        <ele>684.3519619975</ele>
        <time>2013-03-12T15:06:20Z</time>
      </trkpt>
      <trkpt lat="43.76549" lon="7.44246">
        <ele>684.3519619975</ele>
        <time>2013-03-12T15:06:25Z</time>
      </trkpt>
      <trkpt lat="43.7655" lon="7.44245">
        <ele>684.3519619975</ele>
        <time>2013-03-12T15:06:30Z</time>
      </trkpt>
      <trkpt lat="43.76551" lon="7.44242">
        <ele>684.3519619975</ele>
        <time>2013-03-12T15:06:35Z</time>
      </trkpt>
      <trkpt lat="43.76552" lon="7.4424">
        <ele>685.13771913245</ele>
        <time>2013-03-12T15:06:40Z</time>
      </trkpt>
      <trkpt lat="43.76549" lon="7.44236">
        <ele>685.13771913245</ele>
        <time>2013-03-12T15:06:45Z</time>
      </trkpt>
      <trkpt lat="43.7655" lon="7.44232">
        <ele>685.13771913245</ele>
        <time>2013-03-12T15:06:50Z</time>
      </trkpt>
      <trkpt lat="43.76554" lon="7.44226">
        <ele>685.07238510734</ele>
        <time>2013-03-12T15:06:55Z</time>
      </trkpt>
      <trkpt lat="43.76553" lon="7.44223">
        <ele>685.07238510734</ele>
        <time>2013-03-12T15:07:00Z</time>
      </trkpt>
      <trkpt lat="43.76554" lon="7.44219">
        <ele>685.07238510734</ele>
        <time>2013-03-12T15:07:05Z</time>
      </trkpt>
      <trkpt lat="43.76554" lon="7.44215">
        <ele>685.07238510734</ele>
        <time>2013-03-12T15:07:10Z</time>
      </trkpt>
      <trkpt lat="43.76553" lon="7.44208">
        <ele>685.70874260843</ele>
        <time>2013-03-12T15:07:15Z</time>
      </trkpt>
      <trkpt lat="43.76556" lon="7.44201">
        <ele>685.70874260843</ele>
        <time>2013-03-12T15:07:20Z</time>
      </trkpt>
      <trkpt lat="43.76559" lon="7.44196">
        <ele>686.13445734705</ele>
        <time>2013-03-12T15:07:25Z</time>
      </trkpt>
      <trkpt lat="43.76561" lon="7.44193">
        <ele>686.13445734705</ele>
        <time>2013-03-12T15:07:30Z</time>
      </trkpt>
      <trkpt lat="43.76564" lon="7.4419">
        <ele>686.13445734705</ele>
        <time>2013-03-12T15:07:35Z</time>
      </trkpt>
      <trkpt lat="43.76569" lon="7.44186">
        <ele>686.06677503145</ele>
        <time>2013-03-12T15:07:40Z</time>
      </trkpt>
      <trkpt lat="43.76576" lon="7.44181">
        <ele>686.06677503145</ele>
        <time>2013-03-12T15:07:45Z</time>
      </trkpt>
      <trkpt lat="43.76577" lon="7.44178">
        <ele>685.50441890381</ele>
        <time>2013-03-12T15:07:50Z</time>
      </trkpt>
      <trkpt lat="43.76579" lon="7.44175">
        <ele>685.50441890381</ele>
        <time>2013-03-12T15:07:55Z</time>
      </trkpt>
      <trkpt lat="43.7658" lon="7.44174">
        <ele>685.50441890381</ele>
        <time>2013-03-12T15:08:00Z</time>
      </trkpt>
      <trkpt lat="43.7658" lon="7.44174">
        <ele>685.50441890381</ele>
        <time>2013-03-12T15:08:05Z</time>
      </trkpt>
      <trkpt lat="43.76583" lon="7.44174">
        <ele>685.50441890381</ele>
        <time>2013-03-12T15:08:10Z</time>
      </trkpt>
      <trkpt lat="43.76589" lon="7.44171">
        <ele>684.59161478139</ele>
        <time>2013-03-12T15:08:15Z</time>
      </trkpt>
      <trkpt lat="43.76592" lon="7.44168">
        <ele>684.59161478139</ele>
        <time>2013-03-12T15:08:20Z</time>
      </trkpt>
      <trkpt lat="43.76597" lon="7.44167">
        <ele>684.59161478139</ele>
        <time>2013-03-12T15:08:25Z</time>
      </trkpt>
      <trkpt lat="43.76596" lon="7.44166">
        <ele>683.31876127945</ele>
        <time>2013-03-12T15:08:30Z</time>
      </trkpt>
      <trkpt lat="43.76599" lon="7.44162">
        <ele>683.31876127945</ele>
        <time>2013-03-12T15:08:35Z</time>
      </trkpt>
      <trkpt lat="43.76602" lon="7.4416">
        <ele>683.31876127945</ele>
        <time>2013-03-12T15:08:40Z</time>
      </trkpt>
      <trkpt lat="43.76604" lon="7.44159">
        <ele>681.70667489069</ele>
        <time>2013-03-12T15:08:45Z</time>
      </trkpt>
      <trkpt lat="43.76604" lon="7.44157">
        <ele>681.70667489069</ele>
        <time>2013-03-12T15:08:50Z</time>
      </trkpt>
      <trkpt lat="43.76603" lon="7.44158">
        <ele>681.70667489069</ele>
        <time>2013-03-12T15:08:55Z</time>
      </trkpt>
      <trkpt lat="43.76603" lon="7.44158">
        <ele>681.70667489069</ele>
        <time>2013-03-12T15:09:00Z</time>
      </trkpt>
      <trkpt lat="43.76603" lon="7.44157">
        <ele>681.70667489069</ele>
        <time>2013-03-12T15:09:05Z</time>
      </trkpt>
      <trkpt lat="43.76603" lon="7.44152">
        <ele>681.70667489069</ele>
        <time>2013-03-12T15:09:10Z</time>
      </trkpt>
      <trkpt lat="43.76604" lon="7.4415">
        <ele>681.70667489069</ele>
        <time>2013-03-12T15:09:15Z</time>
      </trkpt>
      <trkpt lat="43.76607" lon="7.44146">
        <ele>680.0060359153</ele>
        <time>2013-03-12T15:09:20Z</time>
      </trkpt>
      <trkpt lat="43.76607" lon="7.44145">
        <ele>680.0060359153</ele>
        <time>2013-03-12T15:09:25Z</time>
      </trkpt>
      <trkpt lat="43.76604" lon="7.44146">
        <ele>680.0060359153</ele>
        <time>2013-03-12T15:09:30Z</time>
      </trkpt>
      <trkpt lat="43.76601" lon="7.44146">
        <ele>680.0060359153</ele>
        <time>2013-03-12T15:09:35Z</time>
      </trkpt>
      <trkpt lat="43.76599" lon="7.44146">
        <ele>680.0060359153</ele>
        <time>2013-03-12T15:09:40Z</time>
      </trkpt>
      <trkpt lat="43.76596" lon="7.44144">
        <ele>677.84393609221</ele>
        <time>2013-03-12T15:09:45Z</time>
      </trkpt>
      <trkpt lat="43.76594" lon="7.44142">
        <ele>677.84393609221</ele>
        <time>2013-03-12T15:09:50Z</time>
      </trkpt>
      <trkpt lat="43.76588" lon="7.44143">
        <ele>677.84393609221</ele>
        <time>2013-03-12T15:09:55Z</time>
      </trkpt>
      <trkpt lat="43.76584" lon="7.44145">
        <ele>675.61094979081</ele>
        <time>2013-03-12T15:10:00Z</time>
      </trkpt>
      <trkpt lat="43.76579" lon="7.44145">
        <ele>675.61094979081</ele>
        <time>2013-03-12T15:10:05Z</time>
      </trkpt>
      <trkpt lat="43.76575" lon="7.44149">
        <ele>673.59691239634</ele>
        <time>2013-03-12T15:10:10Z</time>
      </trkpt>
      <trkpt lat="43.7657" lon="7.44152">
        <ele>673.59691239634</ele>
        <time>2013-03-12T15:10:15Z</time>
      </trkpt>
      <trkpt lat="43.76566" lon="7.44155">
        <ele>671.82455792541</ele>
        <time>2013-03-12T15:10:20Z</time>
      </trkpt>
      <trkpt lat="43.76564" lon="7.44157">
        <ele>671.82455792541</ele>
        <time>2013-03-12T15:10:25Z</time>
      </trkpt>
      <trkpt lat="43.7656" lon="7.44161">
        <ele>671.82455792541</ele>
        <time>2013-03-12T15:10:30Z</time>
      </trkpt>
      <trkpt lat="43.76556" lon="7.44164">
        <ele>670.11229555847</ele>
        <time>2013-03-12T15:10:35Z</time>
      </trkpt>
      <trkpt lat="43.76559" lon="7.44171">
        <ele>670.11229555847</ele>
        <time>2013-03-12T15:10:40Z</time>
      </trkpt>
      <trkpt lat="43.76553" lon="7.44172">
        <ele>667.67179328962</ele>
        <time>2013-03-12T15:10:45Z</time>
      </trkpt>
      <trkpt lat="43.76548" lon="7.44174">
        <ele>667.67179328962</ele>
        <time>2013-03-12T15:10:50Z</time>
      </trkpt>
      <trkpt lat="43.76544" lon="7.44177">
        <ele>665.17230577076</ele>
        <time>2013-03-12T15:10:55Z</time>
      </trkpt>
      <trkpt lat="43.76541" lon="7.44181">
        <ele>665.17230577076</ele>
        <time>2013-03-12T15:11:00Z</time>
      </trkpt>
      <trkpt lat="43.76539" lon="7.44183">
        <ele>665.17230577076</ele>
        <time>2013-03-12T15:11:05Z</time>
      </trkpt>
      <trkpt lat="43.76536" lon="7.44187">
        <ele>662.8447338871</ele>
        <time>2013-03-12T15:11:10Z</time>
      </trkpt>
      <trkpt lat="43.76529" lon="7.44187">
        <ele>662.8447338871</ele>
        <time>2013-03-12T15:11:15Z</time>
      </trkpt>
      <trkpt lat="43.76527" lon="7.44189">
        <ele>661.07520268921</ele>
        <time>2013-03-12T15:11:20Z</time>
      </trkpt>
      <trkpt lat="43.76526" lon="7.44192">
        <ele>661.07520268921</ele>
        <time>2013-03-12T15:11:25Z</time>
      </trkpt>
      <trkpt lat="43.76522" lon="7.44197">
        <ele>661.07520268921</ele>
        <time>2013-03-12T15:11:30Z</time>
      </trkpt>
      <trkpt lat="43.76517" lon="7.44202">
        <ele>659.59995656725</ele>
        <time>2013-03-12T15:11:35Z</time>
      </trkpt>
      <trkpt lat="43.76513" lon="7.44207">
        <ele>659.59995656725</ele>
        <time>2013-03-12T15:11:40Z</time>
      </trkpt>
      <trkpt lat="43.76511" lon="7.44209">
        <ele>659.59995656725</ele>
        <time>2013-03-12T15:11:45Z</time>
      </trkpt>
      <trkpt lat="43.76509" lon="7.44212">
        <ele>658.64908108855</ele>
        <time>2013-03-12T15:11:50Z</time>
      </trkpt>
      <trkpt lat="43.76505" lon="7.44213">
        <ele>658.64908108855</ele>
        <time>2013-03-12T15:11:55Z</time>
      </trkpt>
      <trkpt lat="43.76501" lon="7.44217">
        <ele>658.64908108855</ele>
        <time>2013-03-12T15:12:00Z</time>
      </trkpt>
      <trkpt lat="43.765" lon="7.4422">
        <ele>657.79992455181</ele>
        <time>2013-03-12T15:12:05Z</time>
      </trkpt>
      <trkpt lat="43.76498" lon="7.44223">
        <ele>657.79992455181</ele>
        <time>2013-03-12T15:12:10Z</time>
      </trkpt>
      <trkpt lat="43.76494" lon="7.44228">
        <ele>657.79992455181</ele>
        <time>2013-03-12T15:12:15Z</time>
      </trkpt>
      <trkpt lat="43.76491" lon="7.44234">
        <ele>656.8044377769</ele>
        <time>2013-03-12T15:12:20Z</time>
      </trkpt>
      <trkpt lat="43.76488" lon="7.44237">
        <ele>656.8044377769</ele>
        <time>2013-03-12T15:12:25Z</time>
      </trkpt>
      <trkpt lat="43.76487" lon="7.4424">
        <ele>656.8044377769</ele>
        <time>2013-03-12T15:12:30Z</time>
      </trkpt>
      <trkpt lat="43.76486" lon="7.44242">
        <ele>656.8044377769</ele>
        <time>2013-03-12T15:12:35Z</time>
      </trkpt>
      <trkpt lat="43.76487" lon="7.44246">
        <ele>655.38970425262</ele>
        <time>2013-03-12T15:12:40Z</time>
      </trkpt>
      <trkpt lat="43.76487" lon="7.44246">
        <ele>655.38970425262</ele>
        <time>2013-03-12T15:12:45Z</time>
      </trkpt>
      <trkpt lat="43.76485" lon="7.44247">
        <ele>655.38970425262</ele>
        <time>2013-03-12T15:12:50Z</time>
      </trkpt>
      <trkpt lat="43.76485" lon="7.44247">
        <ele>655.38970425262</ele>
        <time>2013-03-12T15:12:55Z</time>
      </trkpt>
      <trkpt lat="43.76485" lon="7.44248">
        <ele>655.38970425262</ele>
        <time>2013-03-12T15:13:00Z</time>
      </trkpt>
      <trkpt lat="43.76484" lon="7.44251">
        <ele>655.38970425262</ele>
        <time>2013-03-12T15:13:05Z</time>
      </trkpt>
      <trkpt lat="43.76481" lon="7.44255">
        <ele>653.99550548268</ele>
        <time>2013-03-12T15:13:10Z</time>
      </trkpt>
      <trkpt lat="43.76477" lon="7.44258">
        <ele>653.99550548268</ele>
        <time>2013-03-12T15:13:15Z</time>
      </trkpt>
      <trkpt lat="43.76476" lon="7.44264">
        <ele>652.71195930547</ele>
        <time>2013-03-12T15:13:20Z</time>
      </trkpt>
      <trkpt lat="43.76475" lon="7.44271">
        <ele>652.71195930547</ele>
        <time>2013-03-12T15:13:25Z</time>
      </trkpt>
      <trkpt lat="43.76475" lon="7.44271">
        <ele>652.71195930547</ele>
        <time>2013-03-12T15:13:30Z</time>
      </trkpt>
      <trkpt lat="43.76475" lon="7.44271">
        <ele>652.71195930547</ele>
        <time>2013-03-12T15:13:35Z</time>
      </trkpt>
      <trkpt lat="43.76475" lon="7.44272">
        <ele>652.71195930547</ele>
        <time>2013-03-12T15:13:40Z</time>
      </trkpt>
      <trkpt lat="43.76475" lon="7.44272">
        <ele>652.71195930547</ele>
        <time>2013-03-12T15:13:45Z</time>
      </trkpt>
      <trkpt lat="43.76475" lon="7.44272">
        <ele>652.71195930547</ele>
        <time>2013-03-12T15:13:50Z</time>
      </trkpt>
      <trkpt lat="43.76475" lon="7.44272">
        <ele>652.71195930547</ele>
        <time>2013-03-12T15:13:55Z</time>
      </trkpt>
      <trkpt lat="43.76475" lon="7.44272">
        <ele>652.71195930547</ele>
        <time>2013-03-12T15:14:00Z</time>
      </trkpt>
      <trkpt lat="43.76475" lon="7.44275">
        <ele>651.29054645966</ele>
        <time>2013-03-12T15:14:05Z</time>
      </trkpt>
      <trkpt lat="43.76476" lon="7.44275">
        <ele>651.29054645966</ele>
        <time>2013-03-12T15:14:10Z</time>
      </trkpt>
      <trkpt lat="43.76476" lon="7.44276">
        <ele>651.29054645966</ele>
        <time>2013-03-12T15:14:15Z</time>
      </trkpt>
      <trkpt lat="43.76477" lon="7.44275">
        <ele>651.29054645966</ele>
        <time>2013-03-12T15:14:20Z</time>
      </trkpt>
      <trkpt lat="43.76478" lon="7.44274">
        <ele>651.29054645966</ele>
        <time>2013-03-12T15:14:25Z</time>
      </trkpt>
      <trkpt lat="43.76478" lon="7.44273">
        <ele>651.29054645966</ele>
        <time>2013-03-12T15:14:30Z</time>
      </trkpt>
      <trkpt lat="43.76478" lon="7.44273">
        <ele>651.29054645966</ele>
        <time>2013-03-12T15:14:35Z</time>
      </trkpt>
      <trkpt lat="43.76478" lon="7.44275">
        <ele>651.29054645966</ele>
        <time>2013-03-12T15:14:40Z</time>
      </trkpt>
      <trkpt lat="43.76478" lon="7.44275">
        <ele>651.29054645966</ele>
        <time>2013-03-12T15:14:45Z</time>
      </trkpt>
      <trkpt lat="43.76478" lon="7.44275">
        <ele>651.29054645966</ele>
        <time>2013-03-12T15:14:50Z</time>
      </trkpt>
      <trkpt lat="43.76478" lon="7.44279">
        <ele>651.29054645966</ele>
        <time>2013-03-12T15:14:55Z</time>
      </trkpt>
      <trkpt lat="43.7648" lon="7.44282">
        <ele>650.79814710177</ele>
        <time>2013-03-12T15:15:00Z</time>
      </trkpt>
      <trkpt lat="43.76482" lon="7.44287">
        <ele>650.79814710177</ele>
        <time>2013-03-12T15:15:05Z</time>
      </trkpt>
      <trkpt lat="43.76482" lon="7.44289">
        <ele>650.79814710177</ele>
        <time>2013-03-12T15:15:10Z</time>
      </trkpt>
      <trkpt lat="43.76482" lon="7.44289">
        <ele>650.79814710177</ele>
        <time>2013-03-12T15:15:15Z</time>
      </trkpt>
      <trkpt lat="43.76482" lon="7.4429">
        <ele>650.79814710177</ele>
        <time>2013-03-12T15:15:20Z</time>
      </trkpt>
      <trkpt lat="43.76481" lon="7.4429">
        <ele>650.79814710177</ele>
        <time>2013-03-12T15:15:25Z</time>
      </trkpt>
      <trkpt lat="43.76481" lon="7.4429">
        <ele>650.79814710177</ele>
        <time>2013-03-12T15:15:30Z</time>
      </trkpt>
      <trkpt lat="43.76481" lon="7.4429">
        <ele>650.79814710177</ele>
        <time>2013-03-12T15:15:35Z</time>
      </trkpt>
      <trkpt lat="43.76481" lon="7.4429">
        <ele>650.79814710177</ele>
        <time>2013-03-12T15:15:40Z</time>
      </trkpt>
      <trkpt lat="43.76481" lon="7.4429">
        <ele>650.79814710177</ele>
        <time>2013-03-12T15:15:45Z</time>
      </trkpt>
      <trkpt lat="43.76482" lon="7.4429">
        <ele>650.79814710177</ele>
        <time>2013-03-12T15:15:50Z</time>
      </trkpt>
      <trkpt lat="43.76481" lon="7.4429">
        <ele>650.79814710177</ele>
        <time>2013-03-12T15:15:55Z</time>
      </trkpt>
      <trkpt lat="43.76481" lon="7.44289">
        <ele>650.79814710177</ele>
        <time>2013-03-12T15:16:00Z</time>
      </trkpt>
      <trkpt lat="43.76482" lon="7.44289">
        <ele>650.79814710177</ele>
        <time>2013-03-12T15:16:05Z</time>
      </trkpt>
      <trkpt lat="43.76482" lon="7.44289">
        <ele>650.79814710177</ele>
        <time>2013-03-12T15:16:10Z</time>
      </trkpt>
      <trkpt lat="43.76482" lon="7.44288">
        <ele>650.98106982569</ele>
        <time>2013-03-12T15:16:15Z</time>
      </trkpt>
      <trkpt lat="43.76481" lon="7.44289">
        <ele>650.98106982569</ele>
        <time>2013-03-12T15:16:20Z</time>
      </trkpt>
      <trkpt lat="43.76484" lon="7.44293">
        <ele>650.98106982569</ele>
        <time>2013-03-12T15:16:25Z</time>
      </trkpt>
      <trkpt lat="43.76485" lon="7.44296">
        <ele>650.98106982569</ele>
        <time>2013-03-12T15:16:30Z</time>
      </trkpt>
      <trkpt lat="43.76488" lon="7.44298">
        <ele>651.02569475765</ele>
        <time>2013-03-12T15:16:35Z</time>
      </trkpt>
      <trkpt lat="43.76489" lon="7.44299">
        <ele>651.02569475765</ele>
        <time>2013-03-12T15:16:40Z</time>
      </trkpt>
      <trkpt lat="43.76489" lon="7.44296">
        <ele>651.02569475765</ele>
        <time>2013-03-12T15:16:45Z</time>
      </trkpt>
      <trkpt lat="43.7649" lon="7.44292">
        <ele>651.02569475765</ele>
        <time>2013-03-12T15:16:50Z</time>
      </trkpt>
      <trkpt lat="43.7649" lon="7.44289">
        <ele>651.60504943379</ele>
        <time>2013-03-12T15:16:55Z</time>
      </trkpt>
      <trkpt lat="43.7649" lon="7.44289">
        <ele>651.60504943379</ele>
        <time>2013-03-12T15:17:00Z</time>
      </trkpt>
      <trkpt lat="43.76491" lon="7.44289">
        <ele>651.60504943379</ele>
        <time>2013-03-12T15:17:05Z</time>
      </trkpt>
      <trkpt lat="43.7649" lon="7.44289">
        <ele>651.60504943379</ele>
        <time>2013-03-12T15:17:10Z</time>
      </trkpt>
      <trkpt lat="43.7649" lon="7.44289">
        <ele>651.60504943379</ele>
        <time>2013-03-12T15:17:15Z</time>
      </trkpt>
      <trkpt lat="43.76492" lon="7.44286">
        <ele>651.60504943379</ele>
        <time>2013-03-12T15:17:20Z</time>
      </trkpt>
      <trkpt lat="43.76495" lon="7.44283">
        <ele>651.60504943379</ele>
        <time>2013-03-12T15:17:25Z</time>
      </trkpt>
      <trkpt lat="43.76495" lon="7.44285">
        <ele>651.60504943379</ele>
        <time>2013-03-12T15:17:30Z</time>
      </trkpt>
      <trkpt lat="43.76496" lon="7.44291">
        <ele>652.11608242526</ele>
        <time>2013-03-12T15:17:35Z</time>
      </trkpt>
      <trkpt lat="43.76497" lon="7.44296">
        <ele>652.11608242526</ele>
        <time>2013-03-12T15:17:40Z</time>
      </trkpt>
      <trkpt lat="43.76498" lon="7.44298">
        <ele>652.11608242526</ele>
        <time>2013-03-12T15:17:45Z</time>
      </trkpt>
      <trkpt lat="43.76498" lon="7.44302">
        <ele>652.11608242526</ele>
        <time>2013-03-12T15:17:50Z</time>
      </trkpt>
      <trkpt lat="43.76497" lon="7.44306">
        <ele>652.6629709191</ele>
        <time>2013-03-12T15:17:55Z</time>
      </trkpt>
      <trkpt lat="43.76499" lon="7.44305">
        <ele>652.6629709191</ele>
        <time>2013-03-12T15:18:00Z</time>
      </trkpt>
      <trkpt lat="43.76501" lon="7.44307">
        <ele>652.6629709191</ele>
        <time>2013-03-12T15:18:05Z</time>
      </trkpt>
      <trkpt lat="43.76502" lon="7.44308">
        <ele>652.6629709191</ele>
        <time>2013-03-12T15:18:10Z</time>
      </trkpt>
      <trkpt lat="43.76502" lon="7.44311">
        <ele>652.6629709191</ele>
        <time>2013-03-12T15:18:15Z</time>
      </trkpt>
      <trkpt lat="43.76504" lon="7.44313">
        <ele>653.22669318222</ele>
        <time>2013-03-12T15:18:20Z</time>
      </trkpt>
      <trkpt lat="43.76503" lon="7.44314">
        <ele>653.22669318222</ele>
        <time>2013-03-12T15:18:25Z</time>
      </trkpt>
      <trkpt lat="43.76504" lon="7.44312">
        <ele>653.22669318222</ele>
        <time>2013-03-12T15:18:30Z</time>
      </trkpt>
      <trkpt lat="43.76505" lon="7.44311">
        <ele>653.22669318222</ele>
        <time>2013-03-12T15:18:35Z</time>
      </trkpt>
      <trkpt lat="43.76506" lon="7.44307">
        <ele>653.22669318222</ele>
        <time>2013-03-12T15:18:40Z</time>
      </trkpt>
      <trkpt lat="43.76507" lon="7.44307">
        <ele>653.22669318222</ele>
        <time>2013-03-12T15:18:45Z</time>
      </trkpt>
      <trkpt lat="43.76507" lon="7.4431">
        <ele>653.22669318222</ele>
        <time>2013-03-12T15:18:50Z</time>
      </trkpt>
      <trkpt lat="43.76507" lon="7.44311">
        <ele>653.64532750077</ele>
        <time>2013-03-12T15:18:55Z</time>
      </trkpt>
      <trkpt lat="43.76508" lon="7.44312">
        <ele>653.64532750077</ele>
        <time>2013-03-12T15:19:00Z</time>
      </trkpt>
      <trkpt lat="43.76509" lon="7.44314">
        <ele>653.64532750077</ele>
        <time>2013-03-12T15:19:05Z</time>
      </trkpt>
      <trkpt lat="43.76509" lon="7.44315">
        <ele>653.64532750077</ele>
        <time>2013-03-12T15:19:10Z</time>
      </trkpt>
      <trkpt lat="43.7651" lon="7.44315">
        <ele>653.64532750077</ele>
        <time>2013-03-12T15:19:15Z</time>
      </trkpt>
      <trkpt lat="43.76514" lon="7.44317">
        <ele>653.64532750077</ele>
        <time>2013-03-12T15:19:20Z</time>
      </trkpt>
      <trkpt lat="43.76516" lon="7.4432">
        <ele>654.05735409737</ele>
        <time>2013-03-12T15:19:25Z</time>
      </trkpt>
      <trkpt lat="43.76518" lon="7.44325">
        <ele>654.05735409737</ele>
        <time>2013-03-12T15:19:30Z</time>
      </trkpt>
      <trkpt lat="43.7652" lon="7.44331">
        <ele>654.05735409737</ele>
        <time>2013-03-12T15:19:35Z</time>
      </trkpt>
      <trkpt lat="43.76523" lon="7.44333">
        <ele>654.41805864025</ele>
        <time>2013-03-12T15:19:40Z</time>
      </trkpt>
      <trkpt lat="43.76528" lon="7.44336">
        <ele>654.41805864025</ele>
        <time>2013-03-12T15:19:45Z</time>
      </trkpt>
      <trkpt lat="43.76528" lon="7.44341">
        <ele>654.41805864025</ele>
        <time>2013-03-12T15:19:50Z</time>
      </trkpt>
      <trkpt lat="43.76529" lon="7.44341">
        <ele>654.38342844338</ele>
        <time>2013-03-12T15:19:55Z</time>
      </trkpt>
      <trkpt lat="43.7653" lon="7.44344">
        <ele>654.38342844338</ele>
        <time>2013-03-12T15:20:00Z</time>
      </trkpt>
      <trkpt lat="43.76533" lon="7.4435">
        <ele>654.38342844338</ele>
        <time>2013-03-12T15:20:05Z</time>
      </trkpt>
      <trkpt lat="43.76535" lon="7.44354">
        <ele>654.34189434383</ele>
        <time>2013-03-12T15:20:10Z</time>
      </trkpt>
      <trkpt lat="43.76539" lon="7.44358">
        <ele>654.34189434383</ele>
        <time>2013-03-12T15:20:15Z</time>
      </trkpt>
      <trkpt lat="43.76544" lon="7.44359">
        <ele>654.32184552801</ele>
        <time>2013-03-12T15:20:20Z</time>
      </trkpt>
      <trkpt lat="43.76546" lon="7.44364">
        <ele>654.32184552801</ele>
        <time>2013-03-12T15:20:25Z</time>
      </trkpt>
      <trkpt lat="43.76549" lon="7.44369">
        <ele>654.32184552801</ele>
        <time>2013-03-12T15:20:30Z</time>
      </trkpt>
      <trkpt lat="43.76552" lon="7.4437">
        <ele>654.50798581483</ele>
        <time>2013-03-12T15:20:35Z</time>
      </trkpt>
      <trkpt lat="43.76554" lon="7.44372">
        <ele>654.50798581483</ele>
        <time>2013-03-12T15:20:40Z</time>
      </trkpt>
      <trkpt lat="43.76554" lon="7.44375">
        <ele>654.50798581483</ele>
        <time>2013-03-12T15:20:45Z</time>
      </trkpt>
      <trkpt lat="43.76557" lon="7.44374">
        <ele>654.50798581483</ele>
        <time>2013-03-12T15:20:50Z</time>
      </trkpt>
      <trkpt lat="43.76558" lon="7.44379">
        <ele>654.68171857839</ele>
        <time>2013-03-12T15:20:55Z</time>
      </trkpt>
      <trkpt lat="43.76561" lon="7.44384">
        <ele>654.68171857839</ele>
        <time>2013-03-12T15:21:00Z</time>
      </trkpt>
      <trkpt lat="43.76563" lon="7.44385">
        <ele>654.68171857839</ele>
        <time>2013-03-12T15:21:05Z</time>
      </trkpt>
      <trkpt lat="43.76563" lon="7.44385">
        <ele>654.68171857839</ele>
        <time>2013-03-12T15:21:10Z</time>
      </trkpt>
      <trkpt lat="43.76563" lon="7.44386">
        <ele>654.68171857839</ele>
        <time>2013-03-12T15:21:15Z</time>
      </trkpt>
      <trkpt lat="43.76562" lon="7.44386">
        <ele>654.68171857839</ele>
        <time>2013-03-12T15:21:20Z</time>
      </trkpt>
      <trkpt lat="43.76563" lon="7.44386">
        <ele>654.62608345412</ele>
        <time>2013-03-12T15:21:25Z</time>
      </trkpt>
      <trkpt lat="43.76564" lon="7.44386">
        <ele>654.62608345412</ele>
        <time>2013-03-12T15:21:30Z</time>
      </trkpt>
      <trkpt lat="43.7657" lon="7.44387">
        <ele>654.62608345412</ele>
        <time>2013-03-12T15:21:35Z</time>
      </trkpt>
      <trkpt lat="43.76576" lon="7.44388">
        <ele>653.93890679204</ele>
        <time>2013-03-12T15:21:40Z</time>
      </trkpt>
      <trkpt lat="43.7658" lon="7.44392">
        <ele>653.93890679204</ele>
        <time>2013-03-12T15:21:45Z</time>
      </trkpt>
      <trkpt lat="43.76583" lon="7.44392">
        <ele>653.93890679204</ele>
        <time>2013-03-12T15:21:50Z</time>
      </trkpt>
      <trkpt lat="43.76584" lon="7.44396">
        <ele>653.38777507409</ele>
        <time>2013-03-12T15:21:55Z</time>
      </trkpt>
      <trkpt lat="43.76589" lon="7.44396">
        <ele>653.38777507409</ele>
        <time>2013-03-12T15:22:00Z</time>
      </trkpt>
      <trkpt lat="43.76593" lon="7.44396">
        <ele>652.96292081971</ele>
        <time>2013-03-12T15:22:05Z</time>
      </trkpt>
      <trkpt lat="43.76597" lon="7.44399">
        <ele>652.96292081971</ele>
        <time>2013-03-12T15:22:10Z</time>
      </trkpt>
      <trkpt lat="43.76599" lon="7.44395">
        <ele>652.96292081971</ele>
        <time>2013-03-12T15:22:15Z</time>
      </trkpt>
      <trkpt lat="43.76603" lon="7.44394">
        <ele>651.71818823806</ele>
        <time>2013-03-12T15:22:20Z</time>
      </trkpt>
      <trkpt lat="43.76606" lon="7.44398">
        <ele>651.71818823806</ele>
        <time>2013-03-12T15:22:25Z</time>
      </trkpt>
      <trkpt lat="43.7661" lon="7.44399">
        <ele>651.71818823806</ele>
        <time>2013-03-12T15:22:30Z</time>
      </trkpt>
      <trkpt lat="43.76613" lon="7.44398">
        <ele>650.81116469688</ele>
        <time>2013-03-12T15:22:35Z</time>
      </trkpt>
      <trkpt lat="43.76615" lon="7.44399">
        <ele>650.81116469688</ele>
        <time>2013-03-12T15:22:40Z</time>
      </trkpt>
      <trkpt lat="43.76622" lon="7.44399">
        <ele>649.85790205101</ele>
        <time>2013-03-12T15:22:45Z</time>
      </trkpt>
      <trkpt lat="43.76627" lon="7.44399">
        <ele>649.85790205101</ele>
        <time>2013-03-12T15:22:50Z</time>
      </trkpt>
      <trkpt lat="43.76631" lon="7.44399">
        <ele>648.92067820799</ele>
        <time>2013-03-12T15:22:55Z</time>
      </trkpt>
      <trkpt lat="43.76635" lon="7.444">
        <ele>648.92067820799</ele>
        <time>2013-03-12T15:23:00Z</time>
      </trkpt>
      <trkpt lat="43.76641" lon="7.44398">
        <ele>648.15799692889</ele>
        <time>2013-03-12T15:23:05Z</time>
      </trkpt>
      <trkpt lat="43.76641" lon="7.44397">
        <ele>648.15799692889</ele>
        <time>2013-03-12T15:23:10Z</time>
      </trkpt>
      <trkpt lat="43.76641" lon="7.44397">
        <ele>648.15799692889</ele>
        <time>2013-03-12T15:23:15Z</time>
      </trkpt>
      <trkpt lat="43.76642" lon="7.44397">
        <ele>648.15799692889</ele>
        <time>2013-03-12T15:23:20Z</time>
      </trkpt>
      <trkpt lat="43.76646" lon="7.44396">
        <ele>648.15799692889</ele>
        <time>2013-03-12T15:23:25Z</time>
      </trkpt>
      <trkpt lat="43.76653" lon="7.44389">
        <ele>647.26945127442</ele>
        <time>2013-03-12T15:23:30Z</time>
      </trkpt>
      <trkpt lat="43.76657" lon="7.44389">
        <ele>647.26945127442</ele>
        <time>2013-03-12T15:23:35Z</time>
      </trkpt>
      <trkpt lat="43.76661" lon="7.44388">
        <ele>647.26945127442</ele>
        <time>2013-03-12T15:23:40Z</time>
      </trkpt>
      <trkpt lat="43.76664" lon="7.44386">
        <ele>646.53905574772</ele>
        <time>2013-03-12T15:23:45Z</time>
      </trkpt>
      <trkpt lat="43.7667" lon="7.44384">
        <ele>646.53905574772</ele>
        <time>2013-03-12T15:23:50Z</time>
      </trkpt>
      <trkpt lat="43.76671" lon="7.44383">
        <ele>646.53905574772</ele>
        <time>2013-03-12T15:23:55Z</time>
      </trkpt>
      <trkpt lat="43.76671" lon="7.44383">
        <ele>646.53905574772</ele>
        <time>2013-03-12T15:24:00Z</time>
      </trkpt>
      <trkpt lat="43.76671" lon="7.44382">
        <ele>646.53905574772</ele>
        <time>2013-03-12T15:24:05Z</time>
      </trkpt>
      <trkpt lat="43.76673" lon="7.44381">
        <ele>645.33599488478</ele>
        <time>2013-03-12T15:24:10Z</time>
      </trkpt>
      <trkpt lat="43.76677" lon="7.44376">
        <ele>645.33599488478</ele>
        <time>2013-03-12T15:24:15Z</time>
      </trkpt>
      <trkpt lat="43.76681" lon="7.44373">
        <ele>644.05704016912</ele>
        <time>2013-03-12T15:24:20Z</time>
      </trkpt>
      <trkpt lat="43.76683" lon="7.44372">
        <ele>644.05704016912</ele>
        <time>2013-03-12T15:24:25Z</time>
      </trkpt>
      <trkpt lat="43.76683" lon="7.44371">
        <ele>644.05704016912</ele>
        <time>2013-03-12T15:24:30Z</time>
      </trkpt>
      <trkpt lat="43.76684" lon="7.44372">
        <ele>644.05704016912</ele>
        <time>2013-03-12T15:24:35Z</time>
      </trkpt>
      <trkpt lat="43.76687" lon="7.44376">
        <ele>644.05704016912</ele>
        <time>2013-03-12T15:24:40Z</time>
      </trkpt>
      <trkpt lat="43.76689" lon="7.44382">
        <ele>642.47913711375</ele>
        <time>2013-03-12T15:24:45Z</time>
      </trkpt>
      <trkpt lat="43.76693" lon="7.4438">
        <ele>642.47913711375</ele>
        <time>2013-03-12T15:24:50Z</time>
      </trkpt>
      <trkpt lat="43.76693" lon="7.44376">
        <ele>642.47913711375</ele>
        <time>2013-03-12T15:24:55Z</time>
      </trkpt>
      <trkpt lat="43.76695" lon="7.44372">
        <ele>640.48288169605</ele>
        <time>2013-03-12T15:25:00Z</time>
      </trkpt>
      <trkpt lat="43.76695" lon="7.4437">
        <ele>640.48288169605</ele>
        <time>2013-03-12T15:25:05Z</time>
      </trkpt>
      <trkpt lat="43.76697" lon="7.44367">
        <ele>640.48288169605</ele>
        <time>2013-03-12T15:25:10Z</time>
      </trkpt>
      <trkpt lat="43.76699" lon="7.44367">
        <ele>640.48288169605</ele>
        <time>2013-03-12T15:25:15Z</time>
      </trkpt>
      <trkpt lat="43.76698" lon="7.44367">
        <ele>640.48288169605</ele>
        <time>2013-03-12T15:25:20Z</time>
      </trkpt>
      <trkpt lat="43.76698" lon="7.44367">
        <ele>640.48288169605</ele>
        <time>2013-03-12T15:25:25Z</time>
      </trkpt>
      <trkpt lat="43.76698" lon="7.44367">
        <ele>640.48288169605</ele>
        <time>2013-03-12T15:25:30Z</time>
      </trkpt>
      <trkpt lat="43.76698" lon="7.44367">
        <ele>640.48288169605</ele>
        <time>2013-03-12T15:25:35Z</time>
      </trkpt>
      <trkpt lat="43.76698" lon="7.44366">
        <ele>640.48288169605</ele>
        <time>2013-03-12T15:25:40Z</time>
      </trkpt>
      <trkpt lat="43.76699" lon="7.44356">
        <ele>638.40551357498</ele>
        <time>2013-03-12T15:25:45Z</time>
      </trkpt>
      <trkpt lat="43.76699" lon="7.4435">
        <ele>638.40551357498</ele>
        <time>2013-03-12T15:25:50Z</time>
      </trkpt>
      <trkpt lat="43.76697" lon="7.44347">
        <ele>638.40551357498</ele>
        <time>2013-03-12T15:25:55Z</time>
      </trkpt>
      <trkpt lat="43.76697" lon="7.44347">
        <ele>638.40551357498</ele>
        <time>2013-03-12T15:26:00Z</time>
      </trkpt>
      <trkpt lat="43.76696" lon="7.44342">
        <ele>635.88235069852</ele>
        <time>2013-03-12T15:26:05Z</time>
      </trkpt>
      <trkpt lat="43.76697" lon="7.44338">
        <ele>635.88235069852</ele>
        <time>2013-03-12T15:26:10Z</time>
      </trkpt>
      <trkpt lat="43.76696" lon="7.44332">
        <ele>635.88235069852</ele>
        <time>2013-03-12T15:26:15Z</time>
      </trkpt>
      <trkpt lat="43.76696" lon="7.44327">
        <ele>633.2684223286</ele>
        <time>2013-03-12T15:26:20Z</time>
      </trkpt>
      <trkpt lat="43.76698" lon="7.44326">
        <ele>633.2684223286</ele>
        <time>2013-03-12T15:26:25Z</time>
      </trkpt>
      <trkpt lat="43.76699" lon="7.44321">
        <ele>633.2684223286</ele>
        <time>2013-03-12T15:26:30Z</time>
      </trkpt>
      <trkpt lat="43.76699" lon="7.4432">
        <ele>633.2684223286</ele>
        <time>2013-03-12T15:26:35Z</time>
      </trkpt>
      <trkpt lat="43.76699" lon="7.44315">
        <ele>631.22431679535</ele>
        <time>2013-03-12T15:26:40Z</time>
      </trkpt>
      <trkpt lat="43.76699" lon="7.44312">
        <ele>631.22431679535</ele>
        <time>2013-03-12T15:26:45Z</time>
      </trkpt>
      <trkpt lat="43.76698" lon="7.44306">
        <ele>631.22431679535</ele>
        <time>2013-03-12T15:26:50Z</time>
      </trkpt>
      <trkpt lat="43.767" lon="7.44306">
        <ele>631.22431679535</ele>
        <time>2013-03-12T15:26:55Z</time>
      </trkpt>
      <trkpt lat="43.76699" lon="7.44307">
        <ele>629.03459515987</ele>
        <time>2013-03-12T15:27:00Z</time>
      </trkpt>
      <trkpt lat="43.76699" lon="7.44309">
        <ele>629.03459515987</ele>
        <time>2013-03-12T15:27:05Z</time>
      </trkpt>
      <trkpt lat="43.76699" lon="7.44309">
        <ele>629.03459515987</ele>
        <time>2013-03-12T15:27:10Z</time>
      </trkpt>
      <trkpt lat="43.76703" lon="7.44318">
        <ele>626.98782959151</ele>
        <time>2013-03-12T15:27:15Z</time>
      </trkpt>
      <trkpt lat="43.76708" lon="7.44322">
        <ele>626.98782959151</ele>
        <time>2013-03-12T15:27:20Z</time>
      </trkpt>
      <trkpt lat="43.76708" lon="7.44324">
        <ele>626.98782959151</ele>
        <time>2013-03-12T15:27:25Z</time>
      </trkpt>
      <trkpt lat="43.76714" lon="7.4433">
        <ele>625.12032298439</ele>
        <time>2013-03-12T15:27:30Z</time>
      </trkpt>
      <trkpt lat="43.76715" lon="7.44336">
        <ele>625.12032298439</ele>
        <time>2013-03-12T15:27:35Z</time>
      </trkpt>
      <trkpt lat="43.76714" lon="7.44342">
        <ele>623.47952453094</ele>
        <time>2013-03-12T15:27:40Z</time>
      </trkpt>
      <trkpt lat="43.76715" lon="7.44343">
        <ele>623.47952453094</ele>
        <time>2013-03-12T15:27:45Z</time>
      </trkpt>
      <trkpt lat="43.76716" lon="7.44344">
        <ele>623.47952453094</ele>
        <time>2013-03-12T15:27:50Z</time>
      </trkpt>
      <trkpt lat="43.76716" lon="7.44344">
        <ele>623.47952453094</ele>
        <time>2013-03-12T15:27:55Z</time>
      </trkpt>
      <trkpt lat="43.76719" lon="7.44353">
        <ele>621.71956449742</ele>
        <time>2013-03-12T15:28:00Z</time>
      </trkpt>
      <trkpt lat="43.76721" lon="7.44359">
        <ele>621.71956449742</ele>
        <time>2013-03-12T15:28:05Z</time>
      </trkpt>
      <trkpt lat="43.76723" lon="7.44364">
        <ele>621.71956449742</ele>
        <time>2013-03-12T15:28:10Z</time>
      </trkpt>
      <trkpt lat="43.76724" lon="7.44367">
        <ele>619.52021611904</ele>
        <time>2013-03-12T15:28:15Z</time>
      </trkpt>
      <trkpt lat="43.76725" lon="7.44373">
        <ele>619.52021611904</ele>
        <time>2013-03-12T15:28:20Z</time>
      </trkpt>
      <trkpt lat="43.76724" lon="7.44379">
        <ele>617.5082207892</ele>
        <time>2013-03-12T15:28:25Z</time>
      </trkpt>
      <trkpt lat="43.76725" lon="7.44383">
        <ele>617.5082207892</ele>
        <time>2013-03-12T15:28:30Z</time>
      </trkpt>
      <trkpt lat="43.76726" lon="7.44384">
        <ele>617.5082207892</ele>
        <time>2013-03-12T15:28:35Z</time>
      </trkpt>
      <trkpt lat="43.76728" lon="7.44391">
        <ele>615.73044263784</ele>
        <time>2013-03-12T15:28:40Z</time>
      </trkpt>
      <trkpt lat="43.76731" lon="7.44395">
        <ele>615.73044263784</ele>
        <time>2013-03-12T15:28:45Z</time>
      </trkpt>
      <trkpt lat="43.76734" lon="7.44397">
        <ele>615.73044263784</ele>
        <time>2013-03-12T15:28:50Z</time>
      </trkpt>
      <trkpt lat="43.76739" lon="7.44393">
        <ele>613.5089885268</ele>
        <time>2013-03-12T15:28:55Z</time>
      </trkpt>
      <trkpt lat="43.76741" lon="7.44389">
        <ele>613.5089885268</ele>
        <time>2013-03-12T15:29:00Z</time>
      </trkpt>
      <trkpt lat="43.7674" lon="7.44386">
        <ele>613.5089885268</ele>
        <time>2013-03-12T15:29:05Z</time>
      </trkpt>
      <trkpt lat="43.76741" lon="7.44381">
        <ele>611.22568252277</ele>
        <time>2013-03-12T15:29:10Z</time>
      </trkpt>
      <trkpt lat="43.76742" lon="7.4438">
        <ele>611.22568252277</ele>
        <time>2013-03-12T15:29:15Z</time>
      </trkpt>
      <trkpt lat="43.76742" lon="7.44379">
        <ele>611.22568252277</ele>
        <time>2013-03-12T15:29:20Z</time>
      </trkpt>
      <trkpt lat="43.76742" lon="7.44375">
        <ele>611.22568252277</ele>
        <time>2013-03-12T15:29:25Z</time>
      </trkpt>
      <trkpt lat="43.76742" lon="7.44375">
        <ele>611.22568252277</ele>
        <time>2013-03-12T15:29:30Z</time>
      </trkpt>
      <trkpt lat="43.76741" lon="7.44378">
        <ele>611.22568252277</ele>
        <time>2013-03-12T15:29:35Z</time>
      </trkpt>
      <trkpt lat="43.76743" lon="7.44383">
        <ele>608.25441190984</ele>
        <time>2013-03-12T15:29:40Z</time>
      </trkpt>
      <trkpt lat="43.76745" lon="7.4439">
        <ele>608.25441190984</ele>
        <time>2013-03-12T15:29:45Z</time>
      </trkpt>
      <trkpt lat="43.76745" lon="7.44394">
        <ele>608.25441190984</ele>
        <time>2013-03-12T15:29:50Z</time>
      </trkpt>
      <trkpt lat="43.76746" lon="7.444">
        <ele>605.84709120606</ele>
        <time>2013-03-12T15:29:55Z</time>
      </trkpt>
      <trkpt lat="43.76748" lon="7.44404">
        <ele>605.84709120606</ele>
        <time>2013-03-12T15:30:00Z</time>
      </trkpt>
      <trkpt lat="43.76753" lon="7.44408">
        <ele>603.79292055481</ele>
        <time>2013-03-12T15:30:05Z</time>
      </trkpt>
      <trkpt lat="43.76758" lon="7.44407">
        <ele>603.79292055481</ele>
        <time>2013-03-12T15:30:10Z</time>
      </trkpt>
      <trkpt lat="43.76759" lon="7.44405">
        <ele>603.79292055481</ele>
        <time>2013-03-12T15:30:15Z</time>
      </trkpt>
      <trkpt lat="43.76757" lon="7.44401">
        <ele>601.75137002073</ele>
        <time>2013-03-12T15:30:20Z</time>
      </trkpt>
      <trkpt lat="43.76756" lon="7.44399">
        <ele>601.75137002073</ele>
        <time>2013-03-12T15:30:25Z</time>
      </trkpt>
      <trkpt lat="43.76755" lon="7.44395">
        <ele>601.75137002073</ele>
        <time>2013-03-12T15:30:30Z</time>
      </trkpt>
      <trkpt lat="43.76754" lon="7.44394">
        <ele>601.75137002073</ele>
        <time>2013-03-12T15:30:35Z</time>
      </trkpt>
      <trkpt lat="43.76755" lon="7.44392">
        <ele>601.75137002073</ele>
        <time>2013-03-12T15:30:40Z</time>
      </trkpt>
      <trkpt lat="43.76756" lon="7.4439">
        <ele>599.37795243617</ele>
        <time>2013-03-12T15:30:45Z</time>
      </trkpt>
      <trkpt lat="43.76756" lon="7.4439">
        <ele>599.37795243617</ele>
        <time>2013-03-12T15:30:50Z</time>
      </trkpt>
      <trkpt lat="43.76756" lon="7.44389">
        <ele>599.37795243617</ele>
        <time>2013-03-12T15:30:55Z</time>
      </trkpt>
      <trkpt lat="43.76756" lon="7.44384">
        <ele>599.37795243617</ele>
        <time>2013-03-12T15:31:00Z</time>
      </trkpt>
      <trkpt lat="43.76756" lon="7.44382">
        <ele>599.37795243617</ele>
        <time>2013-03-12T15:31:05Z</time>
      </trkpt>
      <trkpt lat="43.76755" lon="7.44381">
        <ele>599.37795243617</ele>
        <time>2013-03-12T15:31:10Z</time>
      </trkpt>
      <trkpt lat="43.76756" lon="7.44379">
        <ele>599.37795243617</ele>
        <time>2013-03-12T15:31:15Z</time>
      </trkpt>
      <trkpt lat="43.76756" lon="7.44379">
        <ele>597.00280320101</ele>
        <time>2013-03-12T15:31:20Z</time>
      </trkpt>
      <trkpt lat="43.76756" lon="7.44379">
        <ele>597.00280320101</ele>
        <time>2013-03-12T15:31:25Z</time>
      </trkpt>
      <trkpt lat="43.76757" lon="7.44379">
        <ele>597.00280320101</ele>
        <time>2013-03-12T15:31:30Z</time>
      </trkpt>
      <trkpt lat="43.76757" lon="7.44379">
        <ele>597.00280320101</ele>
        <time>2013-03-12T15:31:35Z</time>
      </trkpt>
      <trkpt lat="43.76758" lon="7.44376">
        <ele>597.00280320101</ele>
        <time>2013-03-12T15:31:40Z</time>
      </trkpt>
      <trkpt lat="43.76758" lon="7.44376">
        <ele>597.00280320101</ele>
        <time>2013-03-12T15:31:45Z</time>
      </trkpt>
      <trkpt lat="43.7676" lon="7.44376">
        <ele>597.00280320101</ele>
        <time>2013-03-12T15:31:50Z</time>
      </trkpt>
      <trkpt lat="43.76759" lon="7.44374">
        <ele>597.00280320101</ele>
        <time>2013-03-12T15:31:55Z</time>
      </trkpt>
      <trkpt lat="43.76759" lon="7.44371">
        <ele>597.00280320101</ele>
        <time>2013-03-12T15:32:00Z</time>
      </trkpt>
      <trkpt lat="43.76758" lon="7.44365">
        <ele>594.67229685931</ele>
        <time>2013-03-12T15:32:05Z</time>
      </trkpt>
      <trkpt lat="43.76758" lon="7.44362">
        <ele>594.67229685931</ele>
        <time>2013-03-12T15:32:10Z</time>
      </trkpt>
      <trkpt lat="43.76758" lon="7.44357">
        <ele>594.67229685931</ele>
        <time>2013-03-12T15:32:15Z</time>
      </trkpt>
      <trkpt lat="43.76759" lon="7.44356">
        <ele>594.67229685931</ele>
        <time>2013-03-12T15:32:20Z</time>
      </trkpt>
      <trkpt lat="43.76759" lon="7.44356">
        <ele>594.67229685931</ele>
        <time>2013-03-12T15:32:25Z</time>
      </trkpt>
      <trkpt lat="43.76759" lon="7.44356">
        <ele>594.67229685931</ele>
        <time>2013-03-12T15:32:30Z</time>
      </trkpt>
      <trkpt lat="43.76759" lon="7.44356">
        <ele>594.67229685931</ele>
        <time>2013-03-12T15:32:35Z</time>
      </trkpt>
      <trkpt lat="43.76759" lon="7.44356">
        <ele>594.67229685931</ele>
        <time>2013-03-12T15:32:40Z</time>
      </trkpt>
      <trkpt lat="43.76762" lon="7.44357">
        <ele>592.22740635041</ele>
        <time>2013-03-12T15:32:45Z</time>
      </trkpt>
      <trkpt lat="43.76763" lon="7.44357">
        <ele>592.22740635041</ele>
        <time>2013-03-12T15:32:50Z</time>
      </trkpt>
      <trkpt lat="43.76763" lon="7.44357">
        <ele>592.22740635041</ele>
        <time>2013-03-12T15:32:55Z</time>
      </trkpt>
      <trkpt lat="43.76768" lon="7.44362">
        <ele>592.22740635041</ele>
        <time>2013-03-12T15:33:00Z</time>
      </trkpt>
      <trkpt lat="43.76774" lon="7.44368">
        <ele>589.83803791632</ele>
        <time>2013-03-12T15:33:05Z</time>
      </trkpt>
      <trkpt lat="43.76777" lon="7.44374">
        <ele>589.83803791632</ele>
        <time>2013-03-12T15:33:10Z</time>
      </trkpt>
      <trkpt lat="43.76779" lon="7.44379">
        <ele>587.66134719335</ele>
        <time>2013-03-12T15:33:15Z</time>
      </trkpt>
      <trkpt lat="43.76781" lon="7.4438">
        <ele>587.66134719335</ele>
        <time>2013-03-12T15:33:20Z</time>
      </trkpt>
      <trkpt lat="43.76782" lon="7.44383">
        <ele>587.66134719335</ele>
        <time>2013-03-12T15:33:25Z</time>
      </trkpt>
      <trkpt lat="43.76785" lon="7.44386">
        <ele>587.66134719335</ele>
        <time>2013-03-12T15:33:30Z</time>
      </trkpt>
      <trkpt lat="43.76787" lon="7.44389">
        <ele>585.49636929426</ele>
        <time>2013-03-12T15:33:35Z</time>
      </trkpt>
      <trkpt lat="43.76789" lon="7.44391">
        <ele>585.49636929426</ele>
        <time>2013-03-12T15:33:40Z</time>
      </trkpt>
      <trkpt lat="43.76791" lon="7.44395">
        <ele>585.49636929426</ele>
        <time>2013-03-12T15:33:45Z</time>
      </trkpt>
      <trkpt lat="43.76792" lon="7.444">
        <ele>583.28645844516</ele>
        <time>2013-03-12T15:33:50Z</time>
      </trkpt>
      <trkpt lat="43.76794" lon="7.44399">
        <ele>583.28645844516</ele>
        <time>2013-03-12T15:33:55Z</time>
      </trkpt>
      <trkpt lat="43.76796" lon="7.44402">
        <ele>583.28645844516</ele>
        <time>2013-03-12T15:34:00Z</time>
      </trkpt>
      <trkpt lat="43.76797" lon="7.44402">
        <ele>583.28645844516</ele>
        <time>2013-03-12T15:34:05Z</time>
      </trkpt>
      <trkpt lat="43.76797" lon="7.44403">
        <ele>583.28645844516</ele>
        <time>2013-03-12T15:34:10Z</time>
      </trkpt>
      <trkpt lat="43.76797" lon="7.44405">
        <ele>583.28645844516</ele>
        <time>2013-03-12T15:34:15Z</time>
      </trkpt>
      <trkpt lat="43.76802" lon="7.44407">
        <ele>580.76298030591</ele>
        <time>2013-03-12T15:34:20Z</time>
      </trkpt>
      <trkpt lat="43.76805" lon="7.44412">
        <ele>580.76298030591</ele>
        <time>2013-03-12T15:34:25Z</time>
      </trkpt>
      <trkpt lat="43.76805" lon="7.44415">
        <ele>580.76298030591</ele>
        <time>2013-03-12T15:34:30Z</time>
      </trkpt>
      <trkpt lat="43.76807" lon="7.44418">
        <ele>578.64335221262</ele>
        <time>2013-03-12T15:34:35Z</time>
      </trkpt>
      <trkpt lat="43.76806" lon="7.44423">
        <ele>578.64335221262</ele>
        <time>2013-03-12T15:34:40Z</time>
      </trkpt>
      <trkpt lat="43.76805" lon="7.44426">
        <ele>578.64335221262</ele>
        <time>2013-03-12T15:34:45Z</time>
      </trkpt>
      <trkpt lat="43.76805" lon="7.44427">
        <ele>578.64335221262</ele>
        <time>2013-03-12T15:34:50Z</time>
      </trkpt>
      <trkpt lat="43.76806" lon="7.44428">
        <ele>578.64335221262</ele>
        <time>2013-03-12T15:34:55Z</time>
      </trkpt>
      <trkpt lat="43.76807" lon="7.44426">
        <ele>576.35169711861</ele>
        <time>2013-03-12T15:35:00Z</time>
      </trkpt>
      <trkpt lat="43.76808" lon="7.44427">
        <ele>576.35169711861</ele>
        <time>2013-03-12T15:35:05Z</time>
      </trkpt>
      <trkpt lat="43.76809" lon="7.44429">
        <ele>576.35169711861</ele>
        <time>2013-03-12T15:35:10Z</time>
      </trkpt>
      <trkpt lat="43.76809" lon="7.44431">
        <ele>576.35169711861</ele>
        <time>2013-03-12T15:35:15Z</time>
      </trkpt>
      <trkpt lat="43.7681" lon="7.44433">
        <ele>576.35169711861</ele>
        <time>2013-03-12T15:35:20Z</time>
      </trkpt>
      <trkpt lat="43.76812" lon="7.44436">
        <ele>576.35169711861</ele>
        <time>2013-03-12T15:35:25Z</time>
      </trkpt>
      <trkpt lat="43.76813" lon="7.44435">
        <ele>573.94567761327</ele>
        <time>2013-03-12T15:35:30Z</time>
      </trkpt>
      <trkpt lat="43.76814" lon="7.44436">
        <ele>573.94567761327</ele>
        <time>2013-03-12T15:35:35Z</time>
      </trkpt>
      <trkpt lat="43.76815" lon="7.44436">
        <ele>573.94567761327</ele>
        <time>2013-03-12T15:35:40Z</time>
      </trkpt>
      <trkpt lat="43.76815" lon="7.44436">
        <ele>573.94567761327</ele>
        <time>2013-03-12T15:35:45Z</time>
      </trkpt>
      <trkpt lat="43.7682" lon="7.44436">
        <ele>573.94567761327</ele>
        <time>2013-03-12T15:35:50Z</time>
      </trkpt>
      <trkpt lat="43.76821" lon="7.44434">
        <ele>573.94567761327</ele>
        <time>2013-03-12T15:35:55Z</time>
      </trkpt>
      <trkpt lat="43.76826" lon="7.44436">
        <ele>571.37806287751</ele>
        <time>2013-03-12T15:36:00Z</time>
      </trkpt>
      <trkpt lat="43.76829" lon="7.44435">
        <ele>571.37806287751</ele>
        <time>2013-03-12T15:36:05Z</time>
      </trkpt>
      <trkpt lat="43.7683" lon="7.44432">
        <ele>571.37806287751</ele>
        <time>2013-03-12T15:36:10Z</time>
      </trkpt>
      <trkpt lat="43.76831" lon="7.44429">
        <ele>571.37806287751</ele>
        <time>2013-03-12T15:36:15Z</time>
      </trkpt>
      <trkpt lat="43.7683" lon="7.44425">
        <ele>567.97135550625</ele>
        <time>2013-03-12T15:36:20Z</time>
      </trkpt>
      <trkpt lat="43.76829" lon="7.4442">
        <ele>567.97135550625</ele>
        <time>2013-03-12T15:36:25Z</time>
      </trkpt>
      <trkpt lat="43.7683" lon="7.44414">
        <ele>567.97135550625</ele>
        <time>2013-03-12T15:36:30Z</time>
      </trkpt>
      <trkpt lat="43.76828" lon="7.44406">
        <ele>564.90146902539</ele>
        <time>2013-03-12T15:36:35Z</time>
      </trkpt>
      <trkpt lat="43.76827" lon="7.444">
        <ele>564.90146902539</ele>
        <time>2013-03-12T15:36:40Z</time>
      </trkpt>
      <trkpt lat="43.76831" lon="7.44397">
        <ele>562.33457623669</ele>
        <time>2013-03-12T15:36:45Z</time>
      </trkpt>
      <trkpt lat="43.76833" lon="7.44399">
        <ele>562.33457623669</ele>
        <time>2013-03-12T15:36:50Z</time>
      </trkpt>
      <trkpt lat="43.76832" lon="7.44402">
        <ele>562.33457623669</ele>
        <time>2013-03-12T15:36:55Z</time>
      </trkpt>
      <trkpt lat="43.76835" lon="7.44405">
        <ele>562.33457623669</ele>
        <time>2013-03-12T15:37:00Z</time>
      </trkpt>
      <trkpt lat="43.76837" lon="7.44408">
        <ele>559.99079494155</ele>
        <time>2013-03-12T15:37:05Z</time>
      </trkpt>
      <trkpt lat="43.7684" lon="7.4441">
        <ele>559.99079494155</ele>
        <time>2013-03-12T15:37:10Z</time>
      </trkpt>
      <trkpt lat="43.76843" lon="7.44408">
        <ele>559.99079494155</ele>
        <time>2013-03-12T15:37:15Z</time>
      </trkpt>
      <trkpt lat="43.76842" lon="7.44405">
        <ele>557.62448482495</ele>
        <time>2013-03-12T15:37:20Z</time>
      </trkpt>
      <trkpt lat="43.76842" lon="7.44404">
        <ele>557.62448482495</ele>
        <time>2013-03-12T15:37:25Z</time>
      </trkpt>
      <trkpt lat="43.76844" lon="7.44402">
        <ele>557.62448482495</ele>
        <time>2013-03-12T15:37:30Z</time>
      </trkpt>
      <trkpt lat="43.76845" lon="7.444">
        <ele>557.62448482495</ele>
        <time>2013-03-12T15:37:35Z</time>
      </trkpt>
      <trkpt lat="43.76846" lon="7.444">
        <ele>557.62448482495</ele>
        <time>2013-03-12T15:37:40Z</time>
      </trkpt>
      <trkpt lat="43.76847" lon="7.44397">
        <ele>557.62448482495</ele>
        <time>2013-03-12T15:37:45Z</time>
      </trkpt>
      <trkpt lat="43.7685" lon="7.44396">
        <ele>555.06565653737</ele>
        <time>2013-03-12T15:37:50Z</time>
      </trkpt>
      <trkpt lat="43.7685" lon="7.44396">
        <ele>555.06565653737</ele>
        <time>2013-03-12T15:37:55Z</time>
      </trkpt>
      <trkpt lat="43.7685" lon="7.44397">
        <ele>555.06565653737</ele>
        <time>2013-03-12T15:38:00Z</time>
      </trkpt>
      <trkpt lat="43.7685" lon="7.44397">
        <ele>555.06565653737</ele>
        <time>2013-03-12T15:38:05Z</time>
      </trkpt>
      <trkpt lat="43.76856" lon="7.44393">
        <ele>555.06565653737</ele>
        <time>2013-03-12T15:38:10Z</time>
      </trkpt>
      <trkpt lat="43.76857" lon="7.44394">
        <ele>555.06565653737</ele>
        <time>2013-03-12T15:38:15Z</time>
      </trkpt>
      <trkpt lat="43.76858" lon="7.44397">
        <ele>552.80575059624</ele>
        <time>2013-03-12T15:38:20Z</time>
      </trkpt>
      <trkpt lat="43.76859" lon="7.44399">
        <ele>552.80575059624</ele>
        <time>2013-03-12T15:38:25Z</time>
      </trkpt>
      <trkpt lat="43.76861" lon="7.44399">
        <ele>552.80575059624</ele>
        <time>2013-03-12T15:38:30Z</time>
      </trkpt>
      <trkpt lat="43.76861" lon="7.44398">
        <ele>552.80575059624</ele>
        <time>2013-03-12T15:38:35Z</time>
      </trkpt>
      <trkpt lat="43.76861" lon="7.44399">
        <ele>552.80575059624</ele>
        <time>2013-03-12T15:38:40Z</time>
      </trkpt>
      <trkpt lat="43.76863" lon="7.444">
        <ele>552.80575059624</ele>
        <time>2013-03-12T15:38:45Z</time>
      </trkpt>
      <trkpt lat="43.7687" lon="7.44404">
        <ele>550.73714084229</ele>
        <time>2013-03-12T15:38:50Z</time>
      </trkpt>
      <trkpt lat="43.76876" lon="7.44407">
        <ele>550.73714084229</ele>
        <time>2013-03-12T15:38:55Z</time>
      </trkpt>
      <trkpt lat="43.76879" lon="7.4441">
        <ele>548.45684775231</ele>
        <time>2013-03-12T15:39:00Z</time>
      </trkpt>
      <trkpt lat="43.76881" lon="7.44415">
        <ele>548.45684775231</ele>
        <time>2013-03-12T15:39:05Z</time>
      </trkpt>
      <trkpt lat="43.76883" lon="7.44421">
        <ele>548.45684775231</ele>
        <time>2013-03-12T15:39:10Z</time>
      </trkpt>
      <trkpt lat="43.76883" lon="7.44424">
        <ele>545.90904754866</ele>
        <time>2013-03-12T15:39:15Z</time>
      </trkpt>
      <trkpt lat="43.76883" lon="7.44428">
        <ele>545.90904754866</ele>
        <time>2013-03-12T15:39:20Z</time>
      </trkpt>
      <trkpt lat="43.76884" lon="7.44433">
        <ele>545.90904754866</ele>
        <time>2013-03-12T15:39:25Z</time>
      </trkpt>
      <trkpt lat="43.76886" lon="7.44437">
        <ele>543.79206525965</ele>
        <time>2013-03-12T15:39:30Z</time>
      </trkpt>
      <trkpt lat="43.76891" lon="7.44435">
        <ele>543.79206525965</ele>
        <time>2013-03-12T15:39:35Z</time>
      </trkpt>
      <trkpt lat="43.76895" lon="7.44428">
        <ele>541.77168710827</ele>
        <time>2013-03-12T15:39:40Z</time>
      </trkpt>
      <trkpt lat="43.76897" lon="7.44426">
        <ele>541.77168710827</ele>
        <time>2013-03-12T15:39:45Z</time>
      </trkpt>
      <trkpt lat="43.76899" lon="7.4442">
        <ele>541.77168710827</ele>
        <time>2013-03-12T15:39:50Z</time>
      </trkpt>
      <trkpt lat="43.76901" lon="7.44416">
        <ele>539.39379671034</ele>
        <time>2013-03-12T15:39:55Z</time>
      </trkpt>
      <trkpt lat="43.76906" lon="7.44412">
        <ele>539.39379671034</ele>
        <time>2013-03-12T15:40:00Z</time>
      </trkpt>
      <trkpt lat="43.76905" lon="7.44406">
        <ele>537.24735099682</ele>
        <time>2013-03-12T15:40:05Z</time>
      </trkpt>
      <trkpt lat="43.76904" lon="7.44401">
        <ele>537.24735099682</ele>
        <time>2013-03-12T15:40:10Z</time>
      </trkpt>
      <trkpt lat="43.76901" lon="7.44398">
        <ele>537.24735099682</ele>
        <time>2013-03-12T15:40:15Z</time>
      </trkpt>
      <trkpt lat="43.76901" lon="7.44392">
        <ele>534.95501945824</ele>
        <time>2013-03-12T15:40:20Z</time>
      </trkpt>
      <trkpt lat="43.76899" lon="7.44387">
        <ele>534.95501945824</ele>
        <time>2013-03-12T15:40:25Z</time>
      </trkpt>
      <trkpt lat="43.76897" lon="7.44382">
        <ele>534.95501945824</ele>
        <time>2013-03-12T15:40:30Z</time>
      </trkpt>
      <trkpt lat="43.76896" lon="7.44376">
        <ele>532.93133085505</ele>
        <time>2013-03-12T15:40:35Z</time>
      </trkpt>
      <trkpt lat="43.76895" lon="7.44371">
        <ele>532.93133085505</ele>
        <time>2013-03-12T15:40:40Z</time>
      </trkpt>
      <trkpt lat="43.76895" lon="7.4437">
        <ele>532.93133085505</ele>
        <time>2013-03-12T15:40:45Z</time>
      </trkpt>
      <trkpt lat="43.76894" lon="7.44369">
        <ele>532.93133085505</ele>
        <time>2013-03-12T15:40:50Z</time>
      </trkpt>
      <trkpt lat="43.76889" lon="7.44364">
        <ele>531.40103470439</ele>
        <time>2013-03-12T15:40:55Z</time>
      </trkpt>
      <trkpt lat="43.76889" lon="7.4436">
        <ele>531.40103470439</ele>
        <time>2013-03-12T15:41:00Z</time>
      </trkpt>
      <trkpt lat="43.76888" lon="7.44357">
        <ele>531.40103470439</ele>
        <time>2013-03-12T15:41:05Z</time>
      </trkpt>
      <trkpt lat="43.76885" lon="7.44346">
        <ele>530.21066315514</ele>
        <time>2013-03-12T15:41:10Z</time>
      </trkpt>
      <trkpt lat="43.76884" lon="7.4434">
        <ele>530.21066315514</ele>
        <time>2013-03-12T15:41:15Z</time>
      </trkpt>
      <trkpt lat="43.76885" lon="7.44334">
        <ele>528.97204232814</ele>
        <time>2013-03-12T15:41:20Z</time>
      </trkpt>
      <trkpt lat="43.76884" lon="7.44327">
        <ele>528.97204232814</ele>
        <time>2013-03-12T15:41:25Z</time>
      </trkpt>
      <trkpt lat="43.76887" lon="7.44323">
        <ele>528.97204232814</ele>
        <time>2013-03-12T15:41:30Z</time>
      </trkpt>
      <trkpt lat="43.7689" lon="7.44317">
        <ele>528.29116711845</ele>
        <time>2013-03-12T15:41:35Z</time>
      </trkpt>
      <trkpt lat="43.76891" lon="7.44315">
        <ele>528.29116711845</ele>
        <time>2013-03-12T15:41:40Z</time>
      </trkpt>
      <trkpt lat="43.76892" lon="7.44312">
        <ele>528.29116711845</ele>
        <time>2013-03-12T15:41:45Z</time>
      </trkpt>
      <trkpt lat="43.76895" lon="7.44307">
        <ele>527.90650415244</ele>
        <time>2013-03-12T15:41:50Z</time>
      </trkpt>
      <trkpt lat="43.769" lon="7.44302">
        <ele>527.90650415244</ele>
        <time>2013-03-12T15:41:55Z</time>
      </trkpt>
      <trkpt lat="43.76903" lon="7.44298">
        <ele>527.93517933924</ele>
        <time>2013-03-12T15:42:00Z</time>
      </trkpt>
      <trkpt lat="43.76905" lon="7.44291">
        <ele>527.93517933924</ele>
        <time>2013-03-12T15:42:05Z</time>
      </trkpt>
      <trkpt lat="43.76906" lon="7.44285">
        <ele>528.25399324953</ele>
        <time>2013-03-12T15:42:10Z</time>
      </trkpt>
      <trkpt lat="43.76909" lon="7.4428">
        <ele>528.25399324953</ele>
        <time>2013-03-12T15:42:15Z</time>
      </trkpt>
      <trkpt lat="43.76914" lon="7.44279">
        <ele>529.10829475348</ele>
        <time>2013-03-12T15:42:20Z</time>
      </trkpt>
      <trkpt lat="43.76919" lon="7.44273">
        <ele>529.10829475348</ele>
        <time>2013-03-12T15:42:25Z</time>
      </trkpt>
      <trkpt lat="43.76918" lon="7.44271">
        <ele>529.10829475348</ele>
        <time>2013-03-12T15:42:30Z</time>
      </trkpt>
      <trkpt lat="43.76919" lon="7.4427">
        <ele>529.88811573691</ele>
        <time>2013-03-12T15:42:35Z</time>
      </trkpt>
      <trkpt lat="43.76919" lon="7.4427">
        <ele>529.88811573691</ele>
        <time>2013-03-12T15:42:40Z</time>
      </trkpt>
      <trkpt lat="43.76922" lon="7.44267">
        <ele>529.88811573691</ele>
        <time>2013-03-12T15:42:45Z</time>
      </trkpt>
      <trkpt lat="43.76933" lon="7.44256">
        <ele>530.70590018591</ele>
        <time>2013-03-12T15:42:50Z</time>
      </trkpt>
      <trkpt lat="43.76936" lon="7.44253">
        <ele>530.70590018591</ele>
        <time>2013-03-12T15:42:55Z</time>
      </trkpt>
      <trkpt lat="43.76938" lon="7.44253">
        <ele>530.70590018591</ele>
        <time>2013-03-12T15:43:00Z</time>
      </trkpt>
      <trkpt lat="43.76939" lon="7.44253">
        <ele>530.70590018591</ele>
        <time>2013-03-12T15:43:05Z</time>
      </trkpt>
      <trkpt lat="43.76943" lon="7.44256">
        <ele>531.93962949305</ele>
        <time>2013-03-12T15:43:10Z</time>
      </trkpt>
      <trkpt lat="43.76952" lon="7.44257">
        <ele>533.30437515485</ele>
        <time>2013-03-12T15:43:15Z</time>
      </trkpt>
      <trkpt lat="43.76956" lon="7.44263">
        <ele>533.30437515485</ele>
        <time>2013-03-12T15:43:20Z</time>
      </trkpt>
      <trkpt lat="43.76961" lon="7.44265">
        <ele>535.37174896002</ele>
        <time>2013-03-12T15:43:25Z</time>
      </trkpt>
      <trkpt lat="43.76965" lon="7.44269">
        <ele>535.37174896002</ele>
        <time>2013-03-12T15:43:30Z</time>
      </trkpt>
      <trkpt lat="43.76971" lon="7.4427">
        <ele>536.8681633385</ele>
        <time>2013-03-12T15:43:35Z</time>
      </trkpt>
      <trkpt lat="43.76975" lon="7.44269">
        <ele>536.8681633385</ele>
        <time>2013-03-12T15:43:40Z</time>
      </trkpt>
      <trkpt lat="43.76981" lon="7.44268">
        <ele>538.2870491575</ele>
        <time>2013-03-12T15:43:45Z</time>
      </trkpt>
      <trkpt lat="43.76985" lon="7.44269">
        <ele>538.2870491575</ele>
        <time>2013-03-12T15:43:50Z</time>
      </trkpt>
      <trkpt lat="43.76989" lon="7.44269">
        <ele>538.2870491575</ele>
        <time>2013-03-12T15:43:55Z</time>
      </trkpt>
      <trkpt lat="43.76994" lon="7.44273">
        <ele>539.32220498124</ele>
        <time>2013-03-12T15:44:00Z</time>
      </trkpt>
      <trkpt lat="43.77" lon="7.44276">
        <ele>539.32220498124</ele>
        <time>2013-03-12T15:44:05Z</time>
      </trkpt>
      <trkpt lat="43.77003" lon="7.44279">
        <ele>540.19558822173</ele>
        <time>2013-03-12T15:44:10Z</time>
      </trkpt>
      <trkpt lat="43.77007" lon="7.44278">
        <ele>540.19558822173</ele>
        <time>2013-03-12T15:44:15Z</time>
      </trkpt>
      <trkpt lat="43.77011" lon="7.44281">
        <ele>540.19558822173</ele>
        <time>2013-03-12T15:44:20Z</time>
      </trkpt>
      <trkpt lat="43.77016" lon="7.44283">
        <ele>540.29207997968</ele>
        <time>2013-03-12T15:44:25Z</time>
      </trkpt>
      <trkpt lat="43.77022" lon="7.44284">
        <ele>540.29207997968</ele>
        <time>2013-03-12T15:44:30Z</time>
      </trkpt>
      <trkpt lat="43.77026" lon="7.44286">
        <ele>539.96645109624</ele>
        <time>2013-03-12T15:44:35Z</time>
      </trkpt>
      <trkpt lat="43.7703" lon="7.44286">
        <ele>539.96645109624</ele>
        <time>2013-03-12T15:44:40Z</time>
      </trkpt>
      <trkpt lat="43.77033" lon="7.44289">
        <ele>539.96645109624</ele>
        <time>2013-03-12T15:44:45Z</time>
      </trkpt>
      <trkpt lat="43.77037" lon="7.4429">
        <ele>539.85144197539</ele>
        <time>2013-03-12T15:44:50Z</time>
      </trkpt>
      <trkpt lat="43.7704" lon="7.4429">
        <ele>539.85144197539</ele>
        <time>2013-03-12T15:44:55Z</time>
      </trkpt>
      <trkpt lat="43.77045" lon="7.44291">
        <ele>539.85144197539</ele>
        <time>2013-03-12T15:45:00Z</time>
      </trkpt>
      <trkpt lat="43.77047" lon="7.44293">
        <ele>539.61062050516</ele>
        <time>2013-03-12T15:45:05Z</time>
      </trkpt>
      <trkpt lat="43.77053" lon="7.44293">
        <ele>539.61062050516</ele>
        <time>2013-03-12T15:45:10Z</time>
      </trkpt>
      <trkpt lat="43.77055" lon="7.44298">
        <ele>539.2210495076</ele>
        <time>2013-03-12T15:45:15Z</time>
      </trkpt>
      <trkpt lat="43.77058" lon="7.44303">
        <ele>539.2210495076</ele>
        <time>2013-03-12T15:45:20Z</time>
      </trkpt>
      <trkpt lat="43.7706" lon="7.44301">
        <ele>539.2210495076</ele>
        <time>2013-03-12T15:45:25Z</time>
      </trkpt>
      <trkpt lat="43.77061" lon="7.44302">
        <ele>539.2210495076</ele>
        <time>2013-03-12T15:45:30Z</time>
      </trkpt>
      <trkpt lat="43.7706" lon="7.44302">
        <ele>539.2210495076</ele>
        <time>2013-03-12T15:45:35Z</time>
      </trkpt>
      <trkpt lat="43.7706" lon="7.44302">
        <ele>538.97913858295</ele>
        <time>2013-03-12T15:45:40Z</time>
      </trkpt>
      <trkpt lat="43.7706" lon="7.44301">
        <ele>538.97913858295</ele>
        <time>2013-03-12T15:45:45Z</time>
      </trkpt>
      <trkpt lat="43.7706" lon="7.44301">
        <ele>538.97913858295</ele>
        <time>2013-03-12T15:45:50Z</time>
      </trkpt>
      <trkpt lat="43.77064" lon="7.44304">
        <ele>538.97913858295</ele>
        <time>2013-03-12T15:45:55Z</time>
      </trkpt>
      <trkpt lat="43.77068" lon="7.44307">
        <ele>538.26581311445</ele>
        <time>2013-03-12T15:46:00Z</time>
      </trkpt>
      <trkpt lat="43.77071" lon="7.44312">
        <ele>538.26581311445</ele>
        <time>2013-03-12T15:46:05Z</time>
      </trkpt>
      <trkpt lat="43.77074" lon="7.44313">
        <ele>538.26581311445</ele>
        <time>2013-03-12T15:46:10Z</time>
      </trkpt>
      <trkpt lat="43.77073" lon="7.44319">
        <ele>537.51776169932</ele>
        <time>2013-03-12T15:46:15Z</time>
      </trkpt>
      <trkpt lat="43.77076" lon="7.44319">
        <ele>537.51776169932</ele>
        <time>2013-03-12T15:46:20Z</time>
      </trkpt>
      <trkpt lat="43.77082" lon="7.44317">
        <ele>536.9237022204</ele>
        <time>2013-03-12T15:46:25Z</time>
      </trkpt>
      <trkpt lat="43.77084" lon="7.44321">
        <ele>536.9237022204</ele>
        <time>2013-03-12T15:46:30Z</time>
      </trkpt>
      <trkpt lat="43.77088" lon="7.44326">
        <ele>536.9237022204</ele>
        <time>2013-03-12T15:46:35Z</time>
      </trkpt>
      <trkpt lat="43.77093" lon="7.44327">
        <ele>535.95208085609</ele>
        <time>2013-03-12T15:46:40Z</time>
      </trkpt>
      <trkpt lat="43.77096" lon="7.44328">
        <ele>535.95208085609</ele>
        <time>2013-03-12T15:46:45Z</time>
      </trkpt>
      <trkpt lat="43.77099" lon="7.44327">
        <ele>535.95208085609</ele>
        <time>2013-03-12T15:46:50Z</time>
      </trkpt>
      <trkpt lat="43.77099" lon="7.44327">
        <ele>535.95208085609</ele>
        <time>2013-03-12T15:46:55Z</time>
      </trkpt>
      <trkpt lat="43.77103" lon="7.44327">
        <ele>534.68805276691</ele>
        <time>2013-03-12T15:47:00Z</time>
      </trkpt>
      <trkpt lat="43.7711" lon="7.4433">
        <ele>534.68805276691</ele>
        <time>2013-03-12T15:47:05Z</time>
      </trkpt>
      <trkpt lat="43.77113" lon="7.44332">
        <ele>533.18266163657</ele>
        <time>2013-03-12T15:47:10Z</time>
      </trkpt>
      <trkpt lat="43.77117" lon="7.44333">
        <ele>533.18266163657</ele>
        <time>2013-03-12T15:47:15Z</time>
      </trkpt>
      <trkpt lat="43.77118" lon="7.44336">
        <ele>533.18266163657</ele>
        <time>2013-03-12T15:47:20Z</time>
      </trkpt>
      <trkpt lat="43.77121" lon="7.44334">
        <ele>531.51283384815</ele>
        <time>2013-03-12T15:47:25Z</time>
      </trkpt>
      <trkpt lat="43.77122" lon="7.44336">
        <ele>531.51283384815</ele>
        <time>2013-03-12T15:47:30Z</time>
      </trkpt>
      <trkpt lat="43.7713" lon="7.44338">
        <ele>529.98100309012</ele>
        <time>2013-03-12T15:47:35Z</time>
      </trkpt>
      <trkpt lat="43.77135" lon="7.44341">
        <ele>529.98100309012</ele>
        <time>2013-03-12T15:47:40Z</time>
      </trkpt>
      <trkpt lat="43.77139" lon="7.44346">
        <ele>527.91596958342</ele>
        <time>2013-03-12T15:47:45Z</time>
      </trkpt>
      <trkpt lat="43.77143" lon="7.44348">
        <ele>527.91596958342</ele>
        <time>2013-03-12T15:47:50Z</time>
      </trkpt>
      <trkpt lat="43.77148" lon="7.44352">
        <ele>526.41234769099</ele>
        <time>2013-03-12T15:47:55Z</time>
      </trkpt>
      <trkpt lat="43.7715" lon="7.44352">
        <ele>526.41234769099</ele>
        <time>2013-03-12T15:48:00Z</time>
      </trkpt>
      <trkpt lat="43.77152" lon="7.44358">
        <ele>526.41234769099</ele>
        <time>2013-03-12T15:48:05Z</time>
      </trkpt>
      <trkpt lat="43.77157" lon="7.44357">
        <ele>524.98408675986</ele>
        <time>2013-03-12T15:48:10Z</time>
      </trkpt>
      <trkpt lat="43.77162" lon="7.44361">
        <ele>524.98408675986</ele>
        <time>2013-03-12T15:48:15Z</time>
      </trkpt>
      <trkpt lat="43.77162" lon="7.44362">
        <ele>524.98408675986</ele>
        <time>2013-03-12T15:48:20Z</time>
      </trkpt>
      <trkpt lat="43.77167" lon="7.4436">
        <ele>522.89246944673</ele>
        <time>2013-03-12T15:48:25Z</time>
      </trkpt>
      <trkpt lat="43.77169" lon="7.44363">
        <ele>522.89246944673</ele>
        <time>2013-03-12T15:48:30Z</time>
      </trkpt>
      <trkpt lat="43.77174" lon="7.44363">
        <ele>522.89246944673</ele>
        <time>2013-03-12T15:48:35Z</time>
      </trkpt>
      <trkpt lat="43.77178" lon="7.44363">
        <ele>520.59343177847</ele>
        <time>2013-03-12T15:48:40Z</time>
      </trkpt>
      <trkpt lat="43.77183" lon="7.44359">
        <ele>520.59343177847</ele>
        <time>2013-03-12T15:48:45Z</time>
      </trkpt>
      <trkpt lat="43.77187" lon="7.44357">
        <ele>517.93358867561</ele>
        <time>2013-03-12T15:48:50Z</time>
      </trkpt>
      <trkpt lat="43.77189" lon="7.44357">
        <ele>517.93358867561</ele>
        <time>2013-03-12T15:48:55Z</time>
      </trkpt>
      <trkpt lat="43.77188" lon="7.44357">
        <ele>517.93358867561</ele>
        <time>2013-03-12T15:49:00Z</time>
      </trkpt>
      <trkpt lat="43.77189" lon="7.44357">
        <ele>517.93358867561</ele>
        <time>2013-03-12T15:49:05Z</time>
      </trkpt>
      <trkpt lat="43.77191" lon="7.44356">
        <ele>517.93358867561</ele>
        <time>2013-03-12T15:49:10Z</time>
      </trkpt>
      <trkpt lat="43.77196" lon="7.44355">
        <ele>515.29065431705</ele>
        <time>2013-03-12T15:49:15Z</time>
      </trkpt>
      <trkpt lat="43.77198" lon="7.44353">
        <ele>515.29065431705</ele>
        <time>2013-03-12T15:49:20Z</time>
      </trkpt>
      <trkpt lat="43.77201" lon="7.44352">
        <ele>515.29065431705</ele>
        <time>2013-03-12T15:49:25Z</time>
      </trkpt>
      <trkpt lat="43.77207" lon="7.4435">
        <ele>512.55339610659</ele>
        <time>2013-03-12T15:49:30Z</time>
      </trkpt>
      <trkpt lat="43.77206" lon="7.4435">
        <ele>512.55339610659</ele>
        <time>2013-03-12T15:49:35Z</time>
      </trkpt>
      <trkpt lat="43.77206" lon="7.4435">
        <ele>512.55339610659</ele>
        <time>2013-03-12T15:49:40Z</time>
      </trkpt>
      <trkpt lat="43.77206" lon="7.4435">
        <ele>512.55339610659</ele>
        <time>2013-03-12T15:49:45Z</time>
      </trkpt>
      <trkpt lat="43.77206" lon="7.4435">
        <ele>512.55339610659</ele>
        <time>2013-03-12T15:49:50Z</time>
      </trkpt>
      <trkpt lat="43.77206" lon="7.4435">
        <ele>512.55339610659</ele>
        <time>2013-03-12T15:49:55Z</time>
      </trkpt>
      <trkpt lat="43.77206" lon="7.4435">
        <ele>512.55339610659</ele>
        <time>2013-03-12T15:50:00Z</time>
      </trkpt>
      <trkpt lat="43.77206" lon="7.4435">
        <ele>510.40796283333</ele>
        <time>2013-03-12T15:50:05Z</time>
      </trkpt>
      <trkpt lat="43.77438" lon="7.44655">
        <ele>508.26252956008</ele>
        <time>2013-03-12T15:57:10Z</time>
      </trkpt>
      <trkpt lat="43.77451" lon="7.44657">
        <ele>506.11709628682</ele>
        <time>2013-03-12T15:57:15Z</time>
      </trkpt>
      <trkpt lat="43.77459" lon="7.44652">
        <ele>506.11709628682</ele>
        <time>2013-03-12T15:57:20Z</time>
      </trkpt>
      <trkpt lat="43.77465" lon="7.44653">
        <ele>499.77126034232</ele>
        <time>2013-03-12T15:57:25Z</time>
      </trkpt>
      <trkpt lat="43.77471" lon="7.44649">
        <ele>499.77126034232</ele>
        <time>2013-03-12T15:57:30Z</time>
      </trkpt>
      <trkpt lat="43.77473" lon="7.44649">
        <ele>499.77126034232</ele>
        <time>2013-03-12T15:57:35Z</time>
      </trkpt>
      <trkpt lat="43.77474" lon="7.44649">
        <ele>493.71213132128</ele>
        <time>2013-03-12T15:57:40Z</time>
      </trkpt>
      <trkpt lat="43.77479" lon="7.44648">
        <ele>493.71213132128</ele>
        <time>2013-03-12T15:57:45Z</time>
      </trkpt>
      <trkpt lat="43.77483" lon="7.44648">
        <ele>488.07738691618</ele>
        <time>2013-03-12T15:57:50Z</time>
      </trkpt>
      <trkpt lat="43.77485" lon="7.44648">
        <ele>488.07738691618</ele>
        <time>2013-03-12T15:57:55Z</time>
      </trkpt>
      <trkpt lat="43.77486" lon="7.44648">
        <ele>488.07738691618</ele>
        <time>2013-03-12T15:58:00Z</time>
      </trkpt>
      <trkpt lat="43.77493" lon="7.4465">
        <ele>483.0220764872</ele>
        <time>2013-03-12T15:58:05Z</time>
      </trkpt>
      <trkpt lat="43.77499" lon="7.44648">
        <ele>483.0220764872</ele>
        <time>2013-03-12T15:58:10Z</time>
      </trkpt>
      <trkpt lat="43.77502" lon="7.44646">
        <ele>478.21249224428</ele>
        <time>2013-03-12T15:58:15Z</time>
      </trkpt>
      <trkpt lat="43.77502" lon="7.44647">
        <ele>478.21249224428</ele>
        <time>2013-03-12T15:58:20Z</time>
      </trkpt>
      <trkpt lat="43.77502" lon="7.44646">
        <ele>478.21249224428</ele>
        <time>2013-03-12T15:58:25Z</time>
      </trkpt>
      <trkpt lat="43.77508" lon="7.44644">
        <ele>478.21249224428</ele>
        <time>2013-03-12T15:58:30Z</time>
      </trkpt>
      <trkpt lat="43.77509" lon="7.44647">
        <ele>473.77088700652</ele>
        <time>2013-03-12T15:58:35Z</time>
      </trkpt>
      <trkpt lat="43.77509" lon="7.44646">
        <ele>473.77088700652</ele>
        <time>2013-03-12T15:58:40Z</time>
      </trkpt>
      <trkpt lat="43.7751" lon="7.44646">
        <ele>473.77088700652</ele>
        <time>2013-03-12T15:58:45Z</time>
      </trkpt>
      <trkpt lat="43.7751" lon="7.44646">
        <ele>473.77088700652</ele>
        <time>2013-03-12T15:58:50Z</time>
      </trkpt>
      <trkpt lat="43.7751" lon="7.44646">
        <ele>473.77088700652</ele>
        <time>2013-03-12T15:58:55Z</time>
      </trkpt>
      <trkpt lat="43.7751" lon="7.44646">
        <ele>473.77088700652</ele>
        <time>2013-03-12T15:59:00Z</time>
      </trkpt>
      <trkpt lat="43.7751" lon="7.44647">
        <ele>473.77088700652</ele>
        <time>2013-03-12T15:59:05Z</time>
      </trkpt>
      <trkpt lat="43.77511" lon="7.44647">
        <ele>473.77088700652</ele>
        <time>2013-03-12T15:59:10Z</time>
      </trkpt>
      <trkpt lat="43.77511" lon="7.44648">
        <ele>473.77088700652</ele>
        <time>2013-03-12T15:59:15Z</time>
      </trkpt>
      <trkpt lat="43.77511" lon="7.44648">
        <ele>473.77088700652</ele>
        <time>2013-03-12T15:59:20Z</time>
      </trkpt>
    </trkseg>
  </trk>
</gpx>